5J929 / RP-C3346 7700 Squawk Report (27th of June, 2022)

Aircraft A333 Reg No. RP-C3346 Age 7 years old
Model A330 Jet engines 2 First flight 12-02-15
Registered 10-03-15 Rollout 02-15 Delivered 10-03-15
Construction No. 1602 Line No. N/A Series 343E
ADSHEX 75836B Airline name Cebu Pacific Air Owner N/A
Airfield based Manila-Villamor~Luzon~RP First tracked N/A

Flight history for RP-C3346

Route Flight No Date Playback
General Santos International Airport (GES) - Ninoy Aquino Intl (MNL) 5J996 2022-08-07 08:29:00
Ninoy Aquino Intl (MNL) - General Santos International Airport (GES) 5J995 2022-08-07 06:06:00
Changi Intl (SIN) - Ninoy Aquino Intl (MNL) 5J804 2022-08-06 21:16:00
Ninoy Aquino Intl (MNL) - Changi Intl (SIN) 5J803 2022-08-06 17:52:00
???? N/A 2022-08-06 12:44:00
Ninoy Aquino Intl (MNL) - General Santos International Airport (GES) 5J995 2022-08-06 06:45:00
Francisco Bangoy International (DVO) - Ninoy Aquino Intl (MNL) 5J952 2022-08-06 02:16:00
Ninoy Aquino Intl (MNL) - Francisco Bangoy International (DVO) 5J951 2022-08-05 23:24:00
Mactan-Cebu Intl (CEB) - Ninoy Aquino Intl (MNL) 5J2504 2022-08-05 19:59:00
Ninoy Aquino Intl (MNL) - Mactan-Cebu Intl (CEB) 5J2503 2022-08-05 14:39:00
General Santos International Airport (GES) - Ninoy Aquino Intl (MNL) 5J996 2022-08-05 08:14:00
Ninoy Aquino Intl (MNL) - General Santos International Airport (GES) 5J995 2022-08-05 06:18:00
Hong Kong Intl (HKG) - Ninoy Aquino Intl (MNL) 5J115 2022-08-05 02:26:00
Ninoy Aquino Intl (MNL) - Hong Kong Intl (HKG) 5J114 2022-08-04 12:49:00
Suvarnabhumi International (BKK) - Ninoy Aquino Intl (MNL) 5J930 2022-08-04 10:28:00
Ninoy Aquino Intl (MNL) - Suvarnabhumi International (BKK) 5J929 2022-08-04 02:14:00
Narita Intl (NRT) - Ninoy Aquino Intl (MNL) 5J5057 2022-08-03 21:49:00
Ninoy Aquino Intl (MNL) - Narita Intl (NRT) 5J5056 2022-08-03 09:41:00
???? N/A 2022-08-03 03:15:00
General Santos International Airport (GES) - Ninoy Aquino Intl (MNL) 5J996 2022-08-02 19:45:00
Time Lat Lon Altitude Heading Speed Vertical Rate
2022-06-28 05:36:29 GMT 13.687347 100.749916 0 284 0 0
2022-06-28 05:36:24 GMT 13.687340 100.749908 0 284 0 0
2022-06-28 05:36:19 GMT 13.687347 100.749916 0 284 0 0
2022-06-28 05:36:13 GMT 13.687340 100.749908 0 284 0 0
2022-06-28 05:36:08 GMT 13.687347 100.749916 0 284 0 0
2022-06-28 05:36:03 GMT 13.687340 100.749908 0 284 0 0
2022-06-28 05:35:59 GMT 13.687336 100.749916 0 284 0 0
2022-06-28 05:35:54 GMT 13.687340 100.749908 0 284 0 0
2022-06-28 05:35:44 GMT 13.687336 100.749916 0 284 0 0
2022-06-28 05:35:38 GMT 13.687340 100.749908 0 284 0 0
2022-06-28 05:35:33 GMT 13.687336 100.749916 0 284 0 0
2022-06-28 05:35:28 GMT 13.687340 100.749908 0 284 0 0
2022-06-28 05:35:24 GMT 13.687336 100.749916 0 284 0 0
2022-06-28 05:35:14 GMT 13.687340 100.749908 0 284 0 0
2022-06-28 05:35:04 GMT 13.687336 100.749916 0 284 0 0
2022-06-28 05:34:59 GMT 13.687340 100.749908 0 284 0 0
2022-06-28 05:34:14 GMT 13.687347 100.749916 0 284 0 0
2022-06-28 05:34:03 GMT 13.687340 100.749908 0 284 0 0
2022-06-28 05:33:49 GMT 13.687347 100.749916 0 284 0 0
2022-06-28 05:33:44 GMT 13.687340 100.749908 0 284 0 0
2022-06-28 05:33:39 GMT 13.687347 100.749916 0 284 0 0
2022-06-28 05:33:34 GMT 13.687340 100.749908 0 284 0 0
2022-06-28 05:33:28 GMT 13.687336 100.749916 0 284 0 0
2022-06-28 05:33:18 GMT 13.687340 100.749908 0 284 0 0
2022-06-28 05:33:13 GMT 13.687336 100.749916 0 284 0 0
2022-06-28 05:33:09 GMT 13.687340 100.749908 0 284 0 0
2022-06-28 05:33:03 GMT 13.687336 100.749916 0 284 0 0
2022-06-28 05:32:59 GMT 13.687340 100.749908 0 284 0 0
2022-06-28 05:32:53 GMT 13.687336 100.749916 0 284 0 0
2022-06-28 05:32:48 GMT 13.687340 100.749908 0 284 0 0
2022-06-28 05:32:44 GMT 13.687336 100.749916 0 284 0 0
2022-06-28 05:32:39 GMT 13.687340 100.749908 0 284 0 0
2022-06-28 05:32:33 GMT 13.687336 100.749916 0 284 0 0
2022-06-28 05:32:28 GMT 13.687340 100.749908 0 284 0 0
2022-06-28 05:32:23 GMT 13.687336 100.749908 0 284 0 0
2022-06-28 05:32:18 GMT 13.687340 100.749908 0 284 0 0
2022-06-28 05:32:13 GMT 13.687336 100.749908 0 284 0 0
2022-06-28 05:32:09 GMT 13.687340 100.749908 0 284 0 0
2022-06-28 05:32:03 GMT 13.687336 100.749908 0 284 0 0
2022-06-28 05:31:44 GMT 13.687347 100.749908 0 284 0 0
2022-06-28 05:31:29 GMT 13.687347 100.749908 0 284 0 0
2022-06-28 05:31:24 GMT 13.687340 100.749908 0 284 0 0
2022-06-28 05:31:19 GMT 13.687347 100.749908 0 284 0 0
2022-06-28 05:31:14 GMT 13.687340 100.749908 0 284 0 0
2022-06-28 05:31:09 GMT 13.687336 100.749908 0 284 0 0
2022-06-28 05:30:54 GMT 13.687340 100.749908 0 284 0 0
2022-06-28 05:30:49 GMT 13.687336 100.749908 0 284 0 0
2022-06-28 05:30:44 GMT 13.687340 100.749908 0 284 0 0
2022-06-28 05:30:39 GMT 13.687347 100.749908 0 284 0 0
2022-06-28 05:30:34 GMT 13.687340 100.749908 0 284 0 0
2022-06-28 05:30:29 GMT 13.687347 100.749908 0 284 0 0
2022-06-28 05:30:24 GMT 13.687347 100.749916 0 284 0 0
2022-06-28 05:30:19 GMT 13.687340 100.749908 0 284 0 0
2022-06-28 05:30:14 GMT 13.687340 100.749908 0 284 0 0
2022-06-28 05:30:04 GMT 13.687347 100.749916 0 284 0 0
2022-06-28 05:29:53 GMT 13.687340 100.749908 0 284 0 0
2022-06-28 05:29:49 GMT 13.687347 100.749916 0 284 0 0
2022-06-28 05:29:44 GMT 13.687340 100.749908 0 284 0 0
2022-06-28 05:29:39 GMT 13.687347 100.749916 0 284 0 0
2022-06-28 05:29:34 GMT 13.687340 100.749908 0 284 0 0
2022-06-28 05:29:29 GMT 13.687347 100.749916 0 284 0 0
2022-06-28 05:29:24 GMT 13.687347 100.749916 0 284 0 0
2022-06-28 05:29:19 GMT 13.687347 100.749916 0 284 0 0
2022-06-28 05:29:04 GMT 13.687340 100.749908 0 284 0 0
2022-06-28 05:28:59 GMT 13.687347 100.749908 0 284 0 0
2022-06-28 05:28:54 GMT 13.687340 100.749908 0 284 0 0
2022-06-28 05:28:49 GMT 13.687347 100.749908 0 284 0 0
2022-06-28 05:28:44 GMT 13.687340 100.749908 0 284 0 0
2022-06-28 05:28:39 GMT 13.687340 100.749908 0 284 0 0
2022-06-28 05:28:34 GMT 13.687340 100.749908 0 284 0 0
2022-06-28 05:28:29 GMT 13.687347 100.749916 0 284 0 0
2022-06-28 05:28:18 GMT 13.687347 100.749908 0 284 0 0
2022-06-28 05:28:09 GMT 13.687336 100.749908 0 284 0 0
2022-06-28 05:28:04 GMT 13.687340 100.749908 0 284 0 0
2022-06-28 05:27:53 GMT 13.687336 100.749908 0 284 0 0
2022-06-28 05:27:49 GMT 13.687340 100.749908 0 284 0 0
2022-06-28 05:27:44 GMT 13.687336 100.749908 0 284 0 0
2022-06-28 05:27:34 GMT 13.687340 100.749908 0 284 0 0
2022-06-28 05:27:23 GMT 13.687336 100.749908 0 284 0 0
2022-06-28 05:27:18 GMT 13.687340 100.749908 0 284 0 0
2022-06-28 05:27:13 GMT 13.687336 100.749908 0 284 0 0
2022-06-28 05:27:08 GMT 13.687340 100.749908 0 284 0 0
2022-06-28 05:27:03 GMT 13.687336 100.749908 0 284 0 0
2022-06-28 05:26:58 GMT 13.687340 100.749908 0 284 0 0
2022-06-28 05:26:54 GMT 13.687336 100.749908 0 284 0 0
2022-06-28 05:26:38 GMT 13.687340 100.749908 0 284 0 0
2022-06-28 05:26:33 GMT 13.687336 100.749908 0 284 0 0
2022-06-28 05:26:28 GMT 13.687340 100.749908 0 284 0 0
2022-06-28 05:26:24 GMT 13.687336 100.749908 0 284 0 0
2022-06-28 05:26:18 GMT 13.687340 100.749908 0 284 0 0
2022-06-28 05:26:13 GMT 13.687336 100.749916 0 284 0 0
2022-06-28 05:26:08 GMT 13.687340 100.749908 0 284 0 0
2022-06-28 05:26:04 GMT 13.687336 100.749908 0 284 0 0
2022-06-28 05:25:59 GMT 13.687340 100.749908 0 284 0 0
2022-06-28 05:25:54 GMT 13.687336 100.749908 0 284 0 0
2022-06-28 05:25:48 GMT 13.687340 100.749908 0 284 0 0
2022-06-28 05:25:44 GMT 13.687336 100.749908 0 284 0 0
2022-06-28 05:25:38 GMT 13.687340 100.749908 0 284 0 0
2022-06-28 05:25:33 GMT 13.687340 100.749908 0 284 0 0
2022-06-28 05:25:29 GMT 13.687340 100.749908 0 284 0 0
2022-06-28 05:25:13 GMT 13.687340 100.749908 0 284 0 0
2022-06-28 05:25:09 GMT 13.687336 100.749916 0 284 0 0
2022-06-28 05:25:03 GMT 13.687336 100.749916 0 284 0 0
2022-06-28 05:24:58 GMT 13.687340 100.749908 0 284 0 0
2022-06-28 05:24:53 GMT 13.687336 100.749916 0 284 0 0
2022-06-28 05:24:48 GMT 13.687340 100.749908 0 284 0 0
2022-06-28 05:24:33 GMT 13.687336 100.749916 0 284 0 0
2022-06-28 05:24:28 GMT 13.687340 100.749908 0 284 0 0
2022-06-28 05:24:23 GMT 13.687336 100.749916 0 284 0 0
2022-06-28 05:24:18 GMT 13.687340 100.749908 0 284 0 0
2022-06-28 05:24:13 GMT 13.687336 100.749908 0 284 0 0
2022-06-28 05:24:08 GMT 13.687340 100.749908 0 284 0 0
2022-06-28 05:24:03 GMT 13.687336 100.749908 0 284 0 0
2022-06-28 05:23:58 GMT 13.687340 100.749908 0 284 0 0
2022-06-28 05:23:53 GMT 13.687336 100.749908 0 284 0 0
2022-06-28 05:23:49 GMT 13.687340 100.749908 0 284 0 0
2022-06-28 05:23:44 GMT 13.687336 100.749916 0 284 0 0
2022-06-28 05:23:39 GMT 13.687340 100.749908 0 284 0 0
2022-06-28 05:23:33 GMT 13.687336 100.749916 0 284 0 0
2022-06-28 05:23:28 GMT 13.687340 100.749908 0 284 0 0
2022-06-28 05:23:23 GMT 13.687336 100.749916 0 284 0 0
2022-06-28 05:23:18 GMT 13.687340 100.749908 0 284 0 0
2022-06-28 05:23:13 GMT 13.687336 100.749916 0 284 0 0
2022-06-28 05:23:08 GMT 13.687340 100.749908 0 284 0 0
2022-06-28 05:23:03 GMT 13.687336 100.749908 0 284 0 0
2022-06-28 05:22:58 GMT 13.687340 100.749908 0 284 0 0
2022-06-28 05:22:53 GMT 13.687336 100.749908 0 284 0 0
2022-06-28 05:22:38 GMT 13.687340 100.749908 0 284 0 0
2022-06-28 05:22:34 GMT 13.687336 100.749908 0 284 0 0
2022-06-28 05:22:28 GMT 13.687340 100.749908 0 284 0 0
2022-06-28 05:22:23 GMT 13.687340 100.749908 0 284 0 0
2022-06-28 05:22:18 GMT 13.687340 100.749908 0 284 0 0
2022-06-28 05:22:13 GMT 13.687336 100.749908 0 284 0 0
2022-06-28 05:22:09 GMT 13.687340 100.749908 0 284 0 0
2022-06-28 05:22:04 GMT 13.687336 100.749908 0 284 0 0
2022-06-28 05:21:53 GMT 13.687340 100.749908 0 284 0 0
2022-06-28 05:21:52 GMT 13.687336 100.749908 0 284 0 0
2022-06-28 05:21:51 GMT 13.687340 100.749908 0 284 0 0
2022-06-28 05:21:48 GMT 13.687336 100.749908 0 284 0 0
2022-06-28 05:21:47 GMT 13.687340 100.749908 0 284 0 0
2022-06-28 05:21:46 GMT 13.687340 100.749908 0 284 0 0
2022-06-28 05:21:44 GMT 13.687347 100.749908 0 284 0 0
2022-06-28 05:21:43 GMT 13.687340 100.749908 0 284 0 0
2022-06-28 05:21:41 GMT 13.687336 100.749908 0 284 0 0
2022-06-28 05:21:40 GMT 13.687336 100.749908 0 284 0 0
2022-06-28 05:21:38 GMT 13.687336 100.749916 0 284 0 0
2022-06-28 05:21:35 GMT 13.687340 100.749908 0 284 0 0
2022-06-28 05:21:31 GMT 13.687336 100.749908 0 284 0 0
2022-06-28 05:21:30 GMT 13.687336 100.749908 0 284 0 0
2022-06-28 05:21:28 GMT 13.687340 100.749908 0 284 0 0
2022-06-28 05:21:27 GMT 13.687336 100.749916 0 284 0 0
2022-06-28 05:21:26 GMT 13.687340 100.749908 0 284 0 0
2022-06-28 05:21:22 GMT 13.687340 100.749924 0 284 0 0
2022-06-28 05:21:21 GMT 13.687336 100.749931 0 284 0 0
2022-06-28 05:21:20 GMT 13.687340 100.749931 0 284 0 0
2022-06-28 05:21:16 GMT 13.687336 100.749939 0 284 0 0
2022-06-28 05:21:15 GMT 13.687328 100.749954 0 284 1 0
2022-06-28 05:21:12 GMT 13.687328 100.749954 0 284 1 0
2022-06-28 05:21:11 GMT 13.687324 100.749977 0 284 2 0
2022-06-28 05:21:08 GMT 13.687317 100.749977 0 284 3 0
2022-06-28 05:21:06 GMT 13.687312 100.750015 0 284 3 0
2022-06-28 05:21:04 GMT 13.687305 100.750031 0 284 3 0
2022-06-28 05:21:02 GMT 13.687305 100.750053 0 284 3 0
2022-06-28 05:21:01 GMT 13.687301 100.750061 0 284 3 0
2022-06-28 05:20:59 GMT 13.687294 100.750084 0 284 3 0
2022-06-28 05:20:58 GMT 13.687294 100.750099 0 284 3 0
2022-06-28 05:20:57 GMT 13.687283 100.750107 0 284 3 0
2022-06-28 05:20:54 GMT 13.687283 100.750145 0 284 4 0
2022-06-28 05:20:53 GMT 13.687283 100.750160 0 284 4 0
2022-06-28 05:20:50 GMT 13.687266 100.750206 0 286 5 0
2022-06-28 05:20:49 GMT 13.687260 100.750237 0 286 5 0
2022-06-28 05:20:47 GMT 13.687260 100.750275 0 286 5 0
2022-06-28 05:20:46 GMT 13.687260 100.750290 0 289 5 0
2022-06-28 05:20:45 GMT 13.687260 100.750320 0 289 5 0
2022-06-28 05:20:43 GMT 13.687248 100.750359 0 292 5 0
2022-06-28 05:20:38 GMT 13.687231 100.750481 0 303 6 0
2022-06-28 05:20:36 GMT 13.687231 100.750534 0 312 7 0
2022-06-28 05:20:35 GMT 13.687225 100.750557 0 315 8 0
2022-06-28 05:20:34 GMT 13.687225 100.750587 0 317 8 0
2022-06-28 05:20:33 GMT 13.687225 100.750633 0 326 8 0
2022-06-28 05:20:32 GMT 13.687191 100.750717 0 340 8 0
2022-06-28 05:20:29 GMT 13.687173 100.750732 0 345 9 0
2022-06-28 05:20:28 GMT 13.687157 100.750763 0 351 9 0
2022-06-28 05:20:26 GMT 13.687088 100.750809 0 2 8 0
2022-06-28 05:20:24 GMT 13.687031 100.750832 0 8 8 0
2022-06-28 05:20:23 GMT 13.686998 100.750832 0 11 8 0
2022-06-28 05:20:22 GMT 13.686928 100.750832 0 11 9 0
2022-06-28 05:20:20 GMT 13.686893 100.750824 0 11 9 0
2022-06-28 05:20:19 GMT 13.686858 100.750809 0 11 9 0
2022-06-28 05:20:18 GMT 13.686777 100.750786 0 8 9 0
2022-06-28 05:20:16 GMT 13.686733 100.750771 0 5 9 0
2022-06-28 05:20:14 GMT 13.686614 100.750732 0 0 9 0
2022-06-28 05:20:12 GMT 13.686584 100.750725 0 357 8 0
2022-06-28 05:20:11 GMT 13.686556 100.750710 0 354 8 0
2022-06-28 05:20:09 GMT 13.686474 100.750702 0 345 8 0
2022-06-28 05:20:07 GMT 13.686367 100.750679 0 334 8 0
2022-06-28 05:20:05 GMT 13.686335 100.750687 0 329 7 0
2022-06-28 05:20:04 GMT 13.686265 100.750702 0 323 7 0
2022-06-28 05:20:01 GMT 13.686207 100.750710 0 315 6 0
2022-06-28 05:20:00 GMT 13.686160 100.750725 0 312 6 0
2022-06-28 05:19:58 GMT 13.686125 100.750748 0 303 6 0
2022-06-28 05:19:57 GMT 13.686104 100.750748 0 300 6 0
2022-06-28 05:19:56 GMT 13.686067 100.750763 0 298 6 0
2022-06-28 05:19:54 GMT 13.686020 100.750809 0 289 5 0
2022-06-28 05:19:52 GMT 13.686001 100.750824 0 286 6 0
2022-06-28 05:19:51 GMT 13.685997 100.750847 0 286 7 0
2022-06-28 05:19:50 GMT 13.685974 100.750893 0 284 10 0
2022-06-28 05:19:49 GMT 13.685944 100.750984 0 284 11 0
2022-06-28 05:19:47 GMT 13.685944 100.750984 0 284 12 0
2022-06-28 05:19:46 GMT 13.685939 100.751038 0 284 12 0
2022-06-28 05:19:44 GMT 13.685904 100.751167 0 284 13 0
2022-06-28 05:19:42 GMT 13.685886 100.751221 0 284 14 0
2022-06-28 05:19:41 GMT 13.685869 100.751289 0 284 14 0
2022-06-28 05:19:40 GMT 13.685852 100.751343 0 284 15 0
2022-06-28 05:19:39 GMT 13.685811 100.751511 0 284 15 0
2022-06-28 05:19:38 GMT 13.685799 100.751541 0 284 15 0
2022-06-28 05:19:36 GMT 13.685783 100.751625 0 284 15 0
2022-06-28 05:19:35 GMT 13.685764 100.751686 0 284 15 0
2022-06-28 05:19:33 GMT 13.685706 100.751938 0 284 15 0
2022-06-28 05:19:31 GMT 13.685692 100.752007 0 284 15 0
2022-06-28 05:19:30 GMT 13.685683 100.752052 0 284 15 0
2022-06-28 05:19:28 GMT 13.685658 100.752144 0 284 15 0
2022-06-28 05:19:26 GMT 13.685623 100.752289 0 284 15 0
2022-06-28 05:19:25 GMT 13.685601 100.752350 0 284 15 0
2022-06-28 05:19:22 GMT 13.685555 100.752563 0 284 15 0
2022-06-28 05:19:21 GMT 13.685532 100.752625 0 284 14 0
2022-06-28 05:19:20 GMT 13.685532 100.752670 0 284 14 0
2022-06-28 05:19:18 GMT 13.685485 100.752831 0 284 14 0
2022-06-28 05:19:17 GMT 13.685473 100.752884 0 284 14 0
2022-06-28 05:19:16 GMT 13.685450 100.752953 0 284 14 0
2022-06-28 05:19:13 GMT 13.685404 100.753136 0 284 14 0
2022-06-28 05:19:12 GMT 13.685394 100.753189 0 284 14 0
2022-06-28 05:19:10 GMT 13.685357 100.753326 0 284 14 0
2022-06-28 05:19:09 GMT 13.685349 100.753380 0 284 13 0
2022-06-28 05:19:07 GMT 13.685303 100.753532 0 284 13 0
2022-06-28 05:19:06 GMT 13.685280 100.753639 0 284 13 0
2022-06-28 05:19:04 GMT 13.685264 100.753700 0 284 13 0
2022-06-28 05:19:02 GMT 13.685246 100.753792 0 284 13 0
2022-06-28 05:19:00 GMT 13.685206 100.753944 0 284 13 0
2022-06-28 05:18:57 GMT 13.685165 100.754112 0 284 13 0
2022-06-28 05:18:56 GMT 13.685165 100.754112 0 284 13 0
2022-06-28 05:18:54 GMT 13.685143 100.754196 0 284 12 0
2022-06-28 05:18:52 GMT 13.685108 100.754326 0 284 12 0
2022-06-28 05:18:50 GMT 13.685074 100.754456 0 284 12 0
2022-06-28 05:18:44 GMT 13.684994 100.754776 0 284 12 0
2022-06-28 05:18:43 GMT 13.684982 100.754837 0 284 11 0
2022-06-28 05:18:42 GMT 13.684961 100.754883 0 284 11 0
2022-06-28 05:18:39 GMT 13.684925 100.755035 0 284 11 0
2022-06-28 05:18:37 GMT 13.684915 100.755096 0 284 11 0
2022-06-28 05:18:35 GMT 13.684892 100.755180 0 284 11 0
2022-06-28 05:18:34 GMT 13.684879 100.755226 0 284 11 0
2022-06-28 05:18:33 GMT 13.684868 100.755287 0 284 11 0
2022-06-28 05:18:32 GMT 13.684845 100.755363 0 284 11 0
2022-06-28 05:18:31 GMT 13.684845 100.755386 0 284 11 0
2022-06-28 05:18:29 GMT 13.684822 100.755486 0 284 11 0
2022-06-28 05:18:27 GMT 13.684798 100.755577 0 284 11 0
2022-06-28 05:18:25 GMT 13.684764 100.755676 0 284 10 0
2022-06-28 05:18:24 GMT 13.684753 100.755722 0 284 10 0
2022-06-28 05:18:23 GMT 13.684742 100.755783 0 284 10 0
2022-06-28 05:18:22 GMT 13.684731 100.755806 0 284 10 0
2022-06-28 05:18:20 GMT 13.684708 100.755898 0 284 10 0
2022-06-28 05:18:19 GMT 13.684708 100.755943 0 284 9 0
2022-06-28 05:18:17 GMT 13.684685 100.756027 0 284 9 0
2022-06-28 05:18:15 GMT 13.684670 100.756096 0 284 9 0
2022-06-28 05:18:14 GMT 13.684639 100.756218 0 284 9 0
2022-06-28 05:18:12 GMT 13.684639 100.756218 0 284 9 0
2022-06-28 05:18:11 GMT 13.684624 100.756256 0 284 9 0
2022-06-28 05:18:09 GMT 13.684601 100.756340 0 284 9 0
2022-06-28 05:18:08 GMT 13.684593 100.756386 0 284 9 0
2022-06-28 05:18:07 GMT 13.684577 100.756424 0 284 9 0
2022-06-28 05:18:06 GMT 13.684566 100.756508 0 286 9 0
2022-06-28 05:18:04 GMT 13.684559 100.756554 0 289 9 0
2022-06-28 05:18:03 GMT 13.684554 100.756577 0 289 9 0
2022-06-28 05:18:01 GMT 13.684547 100.756683 0 298 9 0
2022-06-28 05:18:00 GMT 13.684542 100.756714 0 300 9 0
2022-06-28 05:17:59 GMT 13.684536 100.756752 0 306 9 0
2022-06-28 05:17:58 GMT 13.684531 100.756798 0 309 9 0
2022-06-28 05:17:55 GMT 13.684490 100.756927 0 329 10 0
2022-06-28 05:17:53 GMT 13.684473 100.756973 0 334 10 0
2022-06-28 05:17:52 GMT 13.684456 100.757011 0 340 10 0
2022-06-28 05:17:50 GMT 13.684345 100.757095 0 0 9 0
2022-06-28 05:17:48 GMT 13.684307 100.757111 0 2 9 0
2022-06-28 05:17:47 GMT 13.684261 100.757133 0 5 9 0
2022-06-28 05:17:46 GMT 13.684217 100.757133 0 8 9 0
2022-06-28 05:17:44 GMT 13.684158 100.757133 0 11 9 0
2022-06-28 05:17:42 GMT 13.684090 100.757118 0 14 10 0
2022-06-28 05:17:40 GMT 13.683998 100.757111 0 14 11 0
2022-06-28 05:17:39 GMT 13.683941 100.757080 0 14 11 0
2022-06-28 05:17:38 GMT 13.683861 100.757072 0 14 13 0
2022-06-28 05:17:35 GMT 13.683751 100.757034 0 14 14 0
2022-06-28 05:17:34 GMT 13.683576 100.756989 0 14 16 0
2022-06-28 05:17:32 GMT 13.683576 100.756989 0 14 17 0
2022-06-28 05:17:31 GMT 13.683507 100.756973 0 14 17 0
2022-06-28 05:17:30 GMT 13.683425 100.756950 0 14 17 0
2022-06-28 05:17:29 GMT 13.683274 100.756912 0 14 17 0
2022-06-28 05:17:25 GMT 13.683123 100.756866 0 14 17 0
2022-06-28 05:17:24 GMT 13.683014 100.756844 0 14 17 0
2022-06-28 05:17:22 GMT 13.682888 100.756813 0 14 16 0
2022-06-28 05:17:21 GMT 13.682808 100.756783 0 14 16 0
2022-06-28 05:17:20 GMT 13.682728 100.756767 0 14 16 0
2022-06-28 05:17:19 GMT 13.682590 100.756729 0 14 16 0
2022-06-28 05:17:17 GMT 13.682517 100.756714 0 14 16 0
2022-06-28 05:17:16 GMT 13.682453 100.756691 0 14 16 0
2022-06-28 05:17:15 GMT 13.682293 100.756660 0 14 16 0
2022-06-28 05:17:13 GMT 13.682215 100.756638 0 14 16 0
2022-06-28 05:17:11 GMT 13.682098 100.756599 0 14 16 0
2022-06-28 05:17:09 GMT 13.681959 100.756569 0 14 16 0
2022-06-28 05:17:07 GMT 13.681767 100.756516 0 14 15 0
2022-06-28 05:17:04 GMT 13.681606 100.756477 0 14 15 0
2022-06-28 05:17:03 GMT 13.681540 100.756454 0 14 15 0
2022-06-28 05:17:01 GMT 13.681389 100.756416 0 14 15 0
2022-06-28 05:17:00 GMT 13.681332 100.756409 0 14 15 0
2022-06-28 05:16:59 GMT 13.681272 100.756386 0 14 15 0
2022-06-28 05:16:58 GMT 13.681206 100.756371 0 14 16 0
2022-06-28 05:16:56 GMT 13.681080 100.756340 0 14 16 0
2022-06-28 05:16:55 GMT 13.681004 100.756317 0 14 16 0
2022-06-28 05:16:54 GMT 13.680931 100.756302 0 14 17 0
2022-06-28 05:16:53 GMT 13.680748 100.756256 0 14 18 0
2022-06-28 05:16:50 GMT 13.680645 100.756218 0 14 18 0
2022-06-28 05:16:49 GMT 13.680565 100.756195 0 14 19 0
2022-06-28 05:16:47 GMT 13.680411 100.756157 0 14 19 0
2022-06-28 05:16:46 GMT 13.680318 100.756134 0 14 20 0
2022-06-28 05:16:43 GMT 13.680038 100.756065 0 14 21 0
2022-06-28 05:16:42 GMT 13.679945 100.756035 0 14 21 0
2022-06-28 05:16:41 GMT 13.679771 100.755989 0 14 20 0
2022-06-28 05:16:39 GMT 13.679684 100.755966 0 14 20 0
2022-06-28 05:16:38 GMT 13.679585 100.755943 0 14 20 0
2022-06-28 05:16:37 GMT 13.679398 100.755890 0 14 20 0
2022-06-28 05:16:34 GMT 13.679212 100.755844 0 14 20 0
2022-06-28 05:16:31 GMT 13.678940 100.755783 0 14 20 0
2022-06-28 05:16:29 GMT 13.678875 100.755760 0 14 20 0
2022-06-28 05:16:28 GMT 13.678757 100.755722 0 14 20 0
2022-06-28 05:16:26 GMT 13.678562 100.755676 0 14 20 0
2022-06-28 05:16:24 GMT 13.678339 100.755615 0 14 19 0
2022-06-28 05:16:22 GMT 13.678253 100.755592 0 14 19 0
2022-06-28 05:16:21 GMT 13.678165 100.755569 0 14 19 0
2022-06-28 05:16:19 GMT 13.677990 100.755531 0 14 19 0
2022-06-28 05:16:18 GMT 13.677910 100.755508 0 14 19 0
2022-06-28 05:16:17 GMT 13.677738 100.755463 0 14 19 0
2022-06-28 05:16:15 GMT 13.677635 100.755424 0 14 18 0
2022-06-28 05:16:14 GMT 13.677548 100.755409 0 14 18 0
2022-06-28 05:16:13 GMT 13.677441 100.755379 0 14 18 0
2022-06-28 05:16:11 GMT 13.677269 100.755333 0 14 18 0
2022-06-28 05:16:09 GMT 13.677187 100.755318 0 14 18 0
2022-06-28 05:16:07 GMT 13.677024 100.755264 0 14 18 0
2022-06-28 05:16:06 GMT 13.676908 100.755241 0 14 18 0
2022-06-28 05:16:04 GMT 13.676733 100.755196 0 14 18 0
2022-06-28 05:16:02 GMT 13.676640 100.755165 0 14 18 0
2022-06-28 05:16:01 GMT 13.676559 100.755142 0 14 17 0
2022-06-28 05:16:00 GMT 13.676384 100.755096 0 14 17 0
2022-06-28 05:15:58 GMT 13.676308 100.755081 0 14 17 0
2022-06-28 05:15:57 GMT 13.676159 100.755035 0 14 17 0
2022-06-28 05:15:55 GMT 13.676093 100.755028 0 14 17 0
2022-06-28 05:15:53 GMT 13.675942 100.754990 0 14 17 0
2022-06-28 05:15:52 GMT 13.675873 100.754967 0 14 17 0
2022-06-28 05:15:51 GMT 13.675770 100.754936 0 14 17 0
2022-06-28 05:15:50 GMT 13.675697 100.754913 0 14 17 0
2022-06-28 05:15:49 GMT 13.675621 100.754906 0 14 17 0
2022-06-28 05:15:47 GMT 13.675461 100.754860 0 14 16 0
2022-06-28 05:15:45 GMT 13.675383 100.754845 0 14 16 0
2022-06-28 05:15:44 GMT 13.675312 100.754822 0 14 16 0
2022-06-28 05:15:43 GMT 13.675092 100.754761 0 14 16 0
2022-06-28 05:15:41 GMT 13.675092 100.754761 0 14 16 0
2022-06-28 05:15:40 GMT 13.675014 100.754738 0 14 16 0
2022-06-28 05:15:39 GMT 13.674953 100.754723 0 14 16 0
2022-06-28 05:15:38 GMT 13.674774 100.754677 0 14 15 0
2022-06-28 05:15:36 GMT 13.674740 100.754669 0 14 15 0
2022-06-28 05:15:35 GMT 13.674625 100.754631 0 14 15 0
2022-06-28 05:15:34 GMT 13.674569 100.754616 0 14 15 0
2022-06-28 05:15:33 GMT 13.674500 100.754601 0 14 14 0
2022-06-28 05:15:32 GMT 13.674374 100.754570 0 14 14 0
2022-06-28 05:15:30 GMT 13.674324 100.754555 0 14 14 0
2022-06-28 05:15:29 GMT 13.674259 100.754539 0 14 13 0
2022-06-28 05:15:27 GMT 13.674122 100.754501 0 14 13 0
2022-06-28 05:15:26 GMT 13.674068 100.754494 0 14 13 0
2022-06-28 05:15:25 GMT 13.674007 100.754478 0 14 13 0
2022-06-28 05:15:21 GMT 13.673812 100.754425 0 14 15 0
2022-06-28 05:15:20 GMT 13.673742 100.754410 0 14 16 0
2022-06-28 05:15:19 GMT 13.673538 100.754356 0 14 17 0
2022-06-28 05:15:17 GMT 13.673538 100.754356 0 14 17 0
2022-06-28 05:15:16 GMT 13.673463 100.754341 0 14 17 0
2022-06-28 05:15:15 GMT 13.673378 100.754311 0 14 17 0
2022-06-28 05:15:14 GMT 13.673229 100.754265 0 14 16 0
2022-06-28 05:15:12 GMT 13.673184 100.754257 0 14 16 0
2022-06-28 05:15:11 GMT 13.673115 100.754242 0 14 16 0
2022-06-28 05:15:09 GMT 13.672966 100.754204 0 14 15 0
2022-06-28 05:15:08 GMT 13.672904 100.754181 0 14 15 0
2022-06-28 05:15:07 GMT 13.672765 100.754143 0 14 14 0
2022-06-28 05:15:05 GMT 13.672691 100.754128 0 14 14 0
2022-06-28 05:15:04 GMT 13.672625 100.754112 0 14 13 0
2022-06-28 05:15:03 GMT 13.672565 100.754097 0 14 13 0
2022-06-28 05:15:01 GMT 13.672451 100.754066 0 14 13 0
2022-06-28 05:15:00 GMT 13.672392 100.754051 0 14 12 0
2022-06-28 05:14:58 GMT 13.672337 100.754044 0 14 12 0
2022-06-28 05:14:57 GMT 13.672288 100.754028 0 14 12 0
2022-06-28 05:14:56 GMT 13.672159 100.753990 0 14 11 0
2022-06-28 05:14:54 GMT 13.672108 100.753983 0 14 11 0
2022-06-28 05:14:53 GMT 13.672055 100.753967 0 14 11 0
2022-06-28 05:14:52 GMT 13.672005 100.753960 0 14 11 0
2022-06-28 05:14:49 GMT 13.671844 100.753922 0 14 10 0
2022-06-28 05:14:48 GMT 13.671799 100.753906 0 14 9 0
2022-06-28 05:14:46 GMT 13.671717 100.753868 0 8 9 0
2022-06-28 05:14:45 GMT 13.671684 100.753860 0 8 9 0
2022-06-28 05:14:44 GMT 13.671647 100.753845 0 5 8 0
2022-06-28 05:14:42 GMT 13.671578 100.753822 0 0 8 0
2022-06-28 05:14:41 GMT 13.671535 100.753815 0 357 8 0
2022-06-28 05:14:40 GMT 13.671508 100.753799 0 354 8 0
2022-06-28 05:14:37 GMT 13.671438 100.753784 0 345 8 0
2022-06-28 05:14:36 GMT 13.671398 100.753777 0 343 8 0
2022-06-28 05:14:34 GMT 13.671329 100.753769 0 331 8 0
2022-06-28 05:14:33 GMT 13.671287 100.753761 0 326 8 0
2022-06-28 05:14:32 GMT 13.671238 100.753769 0 320 8 0
2022-06-28 05:14:31 GMT 13.671205 100.753769 0 315 8 0
2022-06-28 05:14:30 GMT 13.671169 100.753777 0 309 8 0
2022-06-28 05:14:28 GMT 13.671089 100.753815 0 298 8 0
2022-06-28 05:14:27 GMT 13.671043 100.753853 0 292 8 0
2022-06-28 05:14:26 GMT 13.671007 100.753883 0 286 8 0
2022-06-28 05:14:25 GMT 13.670986 100.753899 0 281 8 0
2022-06-28 05:14:24 GMT 13.670961 100.753944 0 278 8 0
2022-06-28 05:14:21 GMT 13.670926 100.753990 0 270 8 0
2022-06-28 05:14:20 GMT 13.670906 100.754044 0 264 8 0
2022-06-28 05:14:19 GMT 13.670895 100.754089 0 258 9 0
2022-06-28 05:14:17 GMT 13.670879 100.754143 0 253 9 0
2022-06-28 05:14:16 GMT 13.670868 100.754181 0 247 10 0
2022-06-28 05:14:14 GMT 13.670883 100.754265 0 239 10 0
2022-06-28 05:14:13 GMT 13.670883 100.754311 0 236 10 0
2022-06-28 05:14:12 GMT 13.670895 100.754333 0 233 10 0
2022-06-28 05:14:09 GMT 13.670937 100.754433 0 227 12 0
2022-06-28 05:14:08 GMT 13.670984 100.754509 0 225 14 0
2022-06-28 05:14:05 GMT 13.671100 100.754639 0 225 17 0
2022-06-28 05:14:04 GMT 13.671227 100.754753 0 222 19 0
2022-06-28 05:14:02 GMT 13.671287 100.754822 0 222 20 0
2022-06-28 05:14:01 GMT 13.671318 100.754845 0 222 21 0
2022-06-28 05:13:59 GMT 13.671444 100.754974 0 222 21 0
2022-06-28 05:13:58 GMT 13.671519 100.755051 0 222 23 0
2022-06-28 05:13:57 GMT 13.671627 100.755142 0 219 23 0
2022-06-28 05:13:55 GMT 13.671717 100.755234 0 216 23 0
2022-06-28 05:13:54 GMT 13.671857 100.755348 0 216 25 0
2022-06-28 05:13:52 GMT 13.671959 100.755424 0 213 25 0
2022-06-28 05:13:51 GMT 13.672055 100.755508 0 213 25 0
2022-06-28 05:13:49 GMT 13.672359 100.755699 0 208 26 0
2022-06-28 05:13:47 GMT 13.672450 100.755760 0 205 26 0
2022-06-28 05:13:46 GMT 13.672543 100.755806 0 205 27 0
2022-06-28 05:13:44 GMT 13.672760 100.755920 0 205 28 0
2022-06-28 05:13:42 GMT 13.672966 100.756027 0 202 30 0
2022-06-28 05:13:39 GMT 13.673435 100.756210 0 196 37 0
2022-06-28 05:13:38 GMT 13.673579 100.756256 0 196 39 0
2022-06-28 05:13:37 GMT 13.673733 100.756302 0 196 41 0
2022-06-28 05:13:36 GMT 13.674053 100.756393 0 194 45 0
2022-06-28 05:13:34 GMT 13.674208 100.756432 0 194 48 0
2022-06-28 05:13:33 GMT 13.674397 100.756477 0 194 50 0
2022-06-28 05:13:32 GMT 13.674934 100.756622 0 194 55 0
2022-06-28 05:13:30 GMT 13.675150 100.756683 0 194 58 0
2022-06-28 05:13:29 GMT 13.675404 100.756752 0 194 61 0
2022-06-28 05:13:28 GMT 13.675546 100.756798 0 194 64 0
2022-06-28 05:13:26 GMT 13.676070 100.756927 0 194 72 0
2022-06-28 05:13:25 GMT 13.676353 100.757004 0 194 74 0
2022-06-28 05:13:23 GMT 13.677132 100.757202 0 194 82 0
2022-06-28 05:13:22 GMT 13.677420 100.757278 0 194 84 0
2022-06-28 05:13:18 GMT 13.678677 100.757614 0 194 96 0
2022-06-28 05:13:17 GMT 13.679096 100.757721 125 194 100 0
2022-06-28 05:13:16 GMT 13.679398 100.757797 125 195 107 0
2022-06-28 05:13:14 GMT 13.680267 100.758034 125 195 112 0
2022-06-28 05:13:12 GMT 13.681320 100.758316 125 195 114 0
2022-06-28 05:13:11 GMT 13.681961 100.758453 125 195 121 0
2022-06-28 05:13:10 GMT 13.682541 100.758606 125 195 124 0
2022-06-28 05:13:09 GMT 13.683151 100.758789 125 195 128 -128
2022-06-28 05:13:08 GMT 13.683704 100.758942 100 195 128 -128
2022-06-28 05:13:06 GMT 13.684616 100.759171 125 195 133 -128
2022-06-28 05:13:05 GMT 13.685241 100.759323 100 195 136 -64
2022-06-28 05:13:04 GMT 13.685806 100.759499 125 195 137 -128
2022-06-28 05:13:03 GMT 13.686584 100.759689 125 195 138 -128
2022-06-28 05:13:02 GMT 13.687866 100.760017 125 195 139 -320
2022-06-28 05:13:00 GMT 13.688453 100.760193 125 195 139 -448
2022-06-28 05:12:58 GMT 13.689423 100.760445 125 195 139 -512
2022-06-28 05:12:57 GMT 13.690036 100.760574 150 195 139 -576
2022-06-28 05:12:56 GMT 13.690796 100.760780 150 195 139 -640
2022-06-28 05:12:55 GMT 13.691757 100.761063 175 195 139 -704
2022-06-28 05:12:54 GMT 13.692993 100.761391 200 195 139 -704
2022-06-28 05:12:52 GMT 13.693574 100.761543 225 195 139 -704
2022-06-28 05:12:51 GMT 13.694138 100.761681 225 195 139 -640
2022-06-28 05:12:49 GMT 13.695419 100.762009 250 195 138 -640
2022-06-28 05:12:48 GMT 13.696041 100.762169 275 195 137 -704
2022-06-28 05:12:46 GMT 13.697937 100.762672 300 195 137 -704
2022-06-28 05:12:43 GMT 13.698601 100.762840 325 195 137 -704
2022-06-28 05:12:42 GMT 13.699493 100.763100 325 195 137 -704
2022-06-28 05:12:41 GMT 13.700137 100.763275 350 195 137 -704
2022-06-28 05:12:39 GMT 13.701599 100.763618 375 195 136 -576
2022-06-28 05:12:38 GMT 13.702186 100.763809 375 195 135 -576
2022-06-28 05:12:37 GMT 13.702744 100.763954 400 195 135 -640
2022-06-28 05:12:36 GMT 13.703339 100.764091 400 195 135 -768
2022-06-28 05:12:34 GMT 13.704575 100.764420 400 195 135 -768
2022-06-28 05:12:33 GMT 13.705165 100.764580 425 195 135 -704
2022-06-28 05:12:31 GMT 13.707001 100.765083 450 195 135 -640
2022-06-28 05:12:29 GMT 13.707687 100.765228 475 195 135 -896
2022-06-28 05:12:28 GMT 13.708331 100.765442 475 195 135 -960
2022-06-28 05:12:27 GMT 13.708923 100.765610 500 195 136 -832
2022-06-28 05:12:25 GMT 13.710251 100.765938 525 195 136 -576
2022-06-28 05:12:24 GMT 13.710891 100.766121 550 195 136 -640
2022-06-28 05:12:23 GMT 13.711578 100.766273 550 195 136 -768
2022-06-28 05:12:22 GMT 13.712906 100.766647 575 194 137 -832
2022-06-28 05:12:20 GMT 13.713544 100.766792 575 194 138 -896
2022-06-28 05:12:19 GMT 13.714801 100.767136 600 194 138 -896
2022-06-28 05:12:17 GMT 13.715378 100.767265 625 194 138 -832
2022-06-28 05:12:16 GMT 13.716058 100.767418 625 194 138 -704
2022-06-28 05:12:14 GMT 13.717082 100.767708 650 195 139 -576
2022-06-28 05:12:13 GMT 13.717758 100.767883 675 195 139 -576
2022-06-28 05:12:11 GMT 13.719040 100.768211 675 195 139 -640
2022-06-28 05:12:10 GMT 13.719736 100.768387 700 195 139 -640
2022-06-28 05:12:09 GMT 13.720993 100.768723 725 195 139 -640
2022-06-28 05:12:06 GMT 13.721878 100.768967 725 195 139 -704
2022-06-28 05:12:04 GMT 13.723739 100.769447 775 195 140 -704
2022-06-28 05:12:02 GMT 13.724121 100.769539 775 195 140 -704
2022-06-28 05:12:01 GMT 13.725089 100.769829 800 195 140 -704
2022-06-28 05:12:00 GMT 13.725677 100.769966 800 195 140 -768
2022-06-28 05:11:59 GMT 13.726300 100.770119 800 195 140 -832
2022-06-28 05:11:57 GMT 13.727557 100.770454 825 195 140 -704
2022-06-28 05:11:56 GMT 13.728149 100.770630 850 195 140 -704
2022-06-28 05:11:55 GMT 13.728814 100.770798 850 195 140 -704
2022-06-28 05:11:54 GMT 13.729477 100.771004 875 195 140 -768
2022-06-28 05:11:52 GMT 13.730759 100.771339 900 195 142 -768
2022-06-28 05:11:51 GMT 13.731420 100.771515 900 195 142 -896
2022-06-28 05:11:50 GMT 13.732724 100.771851 925 195 142 -960
2022-06-28 05:11:48 GMT 13.733322 100.772003 950 194 142 -960
2022-06-28 05:11:47 GMT 13.733981 100.772141 950 194 142 -960
2022-06-28 05:11:46 GMT 13.734650 100.772331 975 194 143 -896
2022-06-28 05:11:45 GMT 13.735840 100.772614 1,000 194 142 -768
2022-06-28 05:11:43 GMT 13.736541 100.772820 1,000 194 142 -896
2022-06-28 05:11:41 GMT 13.737798 100.773155 1,050 195 142 -896
2022-06-28 05:11:40 GMT 13.738449 100.773277 1,050 195 142 -896
2022-06-28 05:11:39 GMT 13.739319 100.773514 1,075 195 142 -704
2022-06-28 05:11:37 GMT 13.740692 100.773895 1,100 195 142 -576
2022-06-28 05:11:36 GMT 13.741013 100.773987 1,100 195 141 -512
2022-06-28 05:11:35 GMT 13.741709 100.774170 1,125 195 141 -640
2022-06-28 05:11:34 GMT 13.743710 100.774696 1,125 195 141 -768
2022-06-28 05:11:32 GMT 13.743710 100.774696 1,150 195 141 -768
2022-06-28 05:11:31 GMT 13.744629 100.774933 1,150 195 142 -768
2022-06-28 05:11:30 GMT 13.745773 100.775269 1,175 195 143 -768
2022-06-28 05:11:26 GMT 13.747467 100.775696 1,200 195 144 -640
2022-06-28 05:11:25 GMT 13.748199 100.775887 1,225 195 145 -576
2022-06-28 05:11:24 GMT 13.749157 100.776138 1,250 195 147 -576
2022-06-28 05:11:23 GMT 13.749802 100.776306 1,250 195 147 -576
2022-06-28 05:11:22 GMT 13.750900 100.776642 1,250 195 149 -768
2022-06-28 05:11:20 GMT 13.751857 100.776863 1,275 195 150 -768
2022-06-28 05:11:18 GMT 13.752548 100.777069 1,275 195 152 -704
2022-06-28 05:11:17 GMT 13.753922 100.777397 1,300 195 153 -768
2022-06-28 05:11:14 GMT 13.754883 100.777687 1,325 195 154 -768
2022-06-28 05:11:13 GMT 13.756851 100.778206 1,350 195 157 -960
2022-06-28 05:11:11 GMT 13.757583 100.778404 1,375 195 157 -960
2022-06-28 05:11:10 GMT 13.758408 100.778580 1,375 195 158 -960
2022-06-28 05:11:09 GMT 13.759864 100.778984 1,425 195 159 -1024
2022-06-28 05:11:08 GMT 13.760605 100.779152 1,425 195 159 -960
2022-06-28 05:11:05 GMT 13.761633 100.779465 1,450 195 160 -896
2022-06-28 05:11:04 GMT 13.763535 100.779953 1,500 194 161 -832
2022-06-28 05:11:03 GMT 13.764193 100.780090 1,500 195 162 -768
2022-06-28 05:11:01 GMT 13.765045 100.780334 1,525 195 163 -704
2022-06-28 05:11:00 GMT 13.765776 100.780525 1,525 195 163 -768
2022-06-28 05:10:59 GMT 13.767312 100.780914 1,550 195 163 -1024
2022-06-28 05:10:57 GMT 13.768112 100.781090 1,575 194 164 -1088
2022-06-28 05:10:56 GMT 13.768802 100.781296 1,600 194 164 -1152
2022-06-28 05:10:55 GMT 13.770198 100.781631 1,625 194 165 -1216
2022-06-28 05:10:53 GMT 13.770996 100.781853 1,650 194 165 -1152
2022-06-28 05:10:52 GMT 13.771688 100.782021 1,650 194 165 -1088
2022-06-28 05:10:51 GMT 13.772781 100.782326 1,675 194 165 -1024
2022-06-28 05:10:50 GMT 13.773550 100.782501 1,700 195 166 -960
2022-06-28 05:10:48 GMT 13.774807 100.782837 1,725 195 165 -896
2022-06-28 05:10:47 GMT 13.775528 100.783035 1,750 195 164 -960
2022-06-28 05:10:45 GMT 13.776669 100.783325 1,775 195 164 -960
2022-06-28 05:10:44 GMT 13.777740 100.783607 1,800 195 164 -832
2022-06-28 05:10:43 GMT 13.778778 100.783890 1,800 195 163 -832
2022-06-28 05:10:42 GMT 13.780243 100.784264 1,825 195 163 -960
2022-06-28 05:10:39 GMT 13.780952 100.784477 1,850 195 164 -960
2022-06-28 05:10:38 GMT 13.781616 100.784645 1,875 195 164 -896
2022-06-28 05:10:37 GMT 13.782806 100.784973 1,900 195 164 -832
2022-06-28 05:10:36 GMT 13.784025 100.785301 1,900 196 165 -768
2022-06-28 05:10:33 GMT 13.785468 100.785728 1,925 195 167 -768
2022-06-28 05:10:32 GMT 13.787292 100.786209 1,950 195 170 -1152
2022-06-28 05:10:30 GMT 13.787979 100.786392 1,950 195 170 -1152
2022-06-28 05:10:29 GMT 13.788773 100.786598 1,975 195 171 -1216
2022-06-28 05:10:28 GMT 13.789844 100.786888 2,000 195 171 -1216
2022-06-28 05:10:24 GMT 13.792603 100.787582 2,050 195 172 -1024
2022-06-28 05:10:19 GMT 13.796539 100.788620 2,125 195 172 -1088
2022-06-28 05:10:16 GMT 13.798968 100.789246 2,175 195 174 -960
2022-06-28 05:10:10 GMT 13.804413 100.790703 2,300 194 175 -768
2022-06-28 05:10:07 GMT 13.806015 100.791084 2,325 194 175 -704
2022-06-28 05:09:59 GMT 13.812561 100.792786 2,350 195 179 -192
2022-06-28 05:09:56 GMT 13.814529 100.793312 2,375 195 179 -384
2022-06-28 05:09:49 GMT 13.821453 100.795082 2,425 195 179 -512
2022-06-28 05:09:46 GMT 13.822632 100.795441 2,425 195 179 -512
2022-06-28 05:09:43 GMT 13.825974 100.796341 2,450 196 179 -320
2022-06-28 05:09:36 GMT 13.830780 100.797668 2,500 196 179 -384
2022-06-28 05:09:29 GMT 13.836731 100.799416 2,550 199 183 -512
2022-06-28 05:09:26 GMT 13.838837 100.800133 2,550 199 183 -512
2022-06-28 05:09:23 GMT 13.840958 100.800812 2,575 200 184 -576
2022-06-28 05:09:18 GMT 13.845660 100.802597 2,625 202 186 -512
2022-06-28 05:09:16 GMT 13.849411 100.804199 2,675 205 187 -640
2022-06-28 05:09:09 GMT 13.851805 100.805344 2,700 208 188 -512
2022-06-28 05:09:06 GMT 13.855203 100.807320 2,725 214 190 -448
2022-06-28 05:09:04 GMT 13.856832 100.808426 2,725 220 191 -704
2022-06-28 05:09:00 GMT 13.859024 100.810219 2,750 224 191 -576
2022-06-28 05:08:54 GMT 13.862686 100.813721 2,800 225 193 -448
2022-06-28 05:08:50 GMT 13.865677 100.816711 2,850 225 193 -640
2022-06-28 05:08:45 GMT 13.868866 100.819878 2,900 225 192 -512
2022-06-28 05:08:43 GMT 13.870751 100.821777 2,925 224 191 -448
2022-06-28 05:08:40 GMT 13.872148 100.823120 2,925 225 190 -576
2022-06-28 05:08:34 GMT 13.875595 100.826553 2,975 226 188 -512
2022-06-28 05:08:32 GMT 13.877747 100.828728 3,000 227 189 -576
2022-06-28 05:08:28 GMT 13.878937 100.830009 3,025 228 190 -512
2022-06-28 05:08:24 GMT 13.883553 100.835556 3,075 233 193 -512
2022-06-28 05:08:21 GMT 13.883553 100.835556 3,075 237 194 -512
2022-06-28 05:08:17 GMT 13.884979 100.837730 3,100 247 194 -1024
2022-06-28 05:08:14 GMT 13.886812 100.841530 3,150 256 196 -1152
2022-06-28 05:08:11 GMT 13.887696 100.844902 3,225 264 197 -1152
2022-06-28 05:08:08 GMT 13.887863 100.845871 3,250 268 199 -1216
2022-06-28 05:08:03 GMT 13.887929 100.851021 3,325 279 201 -1088
2022-06-28 05:08:01 GMT 13.887696 100.852951 3,375 282 201 -960
2022-06-28 05:07:58 GMT 13.887177 100.855820 3,425 285 201 -1088
2022-06-28 05:07:52 GMT 13.885345 100.862587 3,575 287 201 -1536
2022-06-28 05:07:49 GMT 13.884659 100.864861 3,625 288 200 -1344
2022-06-28 05:07:43 GMT 13.883011 100.870262 3,750 290 198 -1216
2022-06-28 05:07:41 GMT 13.882370 100.872063 3,800 292 199 -1024
2022-06-28 05:07:38 GMT 13.881546 100.874290 3,825 296 200 -768
2022-06-28 05:07:33 GMT 13.879440 100.879166 3,900 303 203 -1024
2022-06-28 05:07:31 GMT 13.878250 100.881248 3,950 307 205 -1280
2022-06-28 05:07:28 GMT 13.876943 100.883209 4,000 312 206 -1472
2022-06-28 05:07:22 GMT 13.873306 100.886932 4,125 327 209 -1664
2022-06-28 05:07:20 GMT 13.871310 100.888412 4,200 334 211 -1344
2022-06-28 05:07:17 GMT 13.868637 100.889915 4,225 338 213 -1216
2022-06-28 05:07:12 GMT 13.864609 100.891335 4,350 350 217 -1024
2022-06-28 05:07:10 GMT 13.861581 100.891983 4,400 357 219 -1088
2022-06-28 05:07:07 GMT 13.859951 100.892128 4,425 0 220 -1216
2022-06-28 05:07:05 GMT 13.857437 100.892128 4,475 2 220 -1280
2022-06-28 05:07:02 GMT 13.854401 100.891853 5,050 14 217 -576
2022-06-28 05:06:58 GMT 13.849989 100.890923 4,625 14 219 -1152
2022-06-28 05:06:52 GMT 13.844123 100.889328 4,750 14 218 -1344
2022-06-28 05:06:47 GMT 13.839478 100.888069 4,825 14 218 -1408
2022-06-28 05:06:41 GMT 13.834022 100.886635 4,950 14 217 -1216
2022-06-28 05:06:38 GMT 13.830670 100.885719 5,000 14 217 -768
2022-06-28 05:06:31 GMT 13.823730 100.883804 5,075 15 220 -256
2022-06-28 05:06:28 GMT 13.820242 100.882828 5,125 15 229 -512
2022-06-28 05:06:24 GMT 13.816956 100.881912 5,125 14 263 -832
2022-06-28 05:06:20 GMT 13.813385 100.880913 5,150 15 229 -704
2022-06-28 05:06:18 GMT 13.810699 100.880173 5,175 15 234 -704
2022-06-28 05:06:16 GMT 13.808604 100.879601 5,200 15 236 -768
2022-06-28 05:06:10 GMT 13.802628 100.877930 5,250 15 242 -832
2022-06-28 05:06:08 GMT 13.799852 100.877136 5,300 15 244 -832
2022-06-28 05:06:06 GMT 13.797152 100.876366 5,325 15 246 -832
2022-06-28 05:06:00 GMT 13.790681 100.874588 5,400 14 252 -1152
2022-06-28 05:05:57 GMT 13.788168 100.873909 5,425 14 254 -1408
2022-06-28 05:05:55 GMT 13.785747 100.873238 5,475 14 256 -1792
2022-06-28 05:05:48 GMT 13.777368 100.870972 5,650 14 258 -2048
2022-06-28 05:05:44 GMT 13.773102 100.869835 5,825 14 258 -2048
2022-06-28 05:05:40 GMT 13.767498 100.868271 5,975 15 258 -2112
2022-06-28 05:05:37 GMT 13.765031 100.867599 6,000 15 258 -2112
2022-06-28 05:05:34 GMT 13.761612 100.866661 6,125 15 258 -2240
2022-06-28 05:05:30 GMT 13.755157 100.864906 6,325 14 258 -2176
2022-06-28 05:05:27 GMT 13.753393 100.864418 6,375 14 258 -2240
2022-06-28 05:05:23 GMT 13.749203 100.863312 6,500 14 257 -2752
2022-06-28 05:05:17 GMT 13.741241 100.861122 6,800 14 256 -2368
2022-06-28 05:05:14 GMT 13.736755 100.859894 6,950 14 256 -2304
2022-06-28 05:05:08 GMT 13.730815 100.858253 7,125 15 257 -2112
2022-06-28 05:05:06 GMT 13.729477 100.857903 7,175 15 257 -2112
2022-06-28 05:05:02 GMT 13.724762 100.856575 7,300 15 258 -2112
2022-06-28 05:04:57 GMT 13.718479 100.854881 7,475 15 258 -2432
2022-06-28 05:04:55 GMT 13.716570 100.854347 7,550 15 258 -2432
2022-06-28 05:04:51 GMT 13.710800 100.852783 7,725 15 258 -2368
2022-06-28 05:04:46 GMT 13.705258 100.851265 7,925 15 258 -2304
2022-06-28 05:04:42 GMT 13.700912 100.850044 8,050 15 258 -2368
2022-06-28 05:04:36 GMT 13.693248 100.847939 8,300 14 259 -2112
2022-06-28 05:04:32 GMT 13.688406 100.846588 8,425 14 260 -1600
2022-06-28 05:04:25 GMT 13.681051 100.844566 8,575 14 261 -960
2022-06-28 05:04:20 GMT 13.675415 100.843033 8,650 14 262 -896
2022-06-28 05:04:14 GMT 13.668091 100.841042 8,725 14 262 -1216
2022-06-28 05:04:11 GMT 13.663128 100.839699 8,825 14 261 -1344
2022-06-28 05:04:04 GMT 13.655773 100.837677 8,950 15 261 -960
2022-06-28 05:04:00 GMT 13.651794 100.836594 9,000 14 262 -832
2022-06-28 05:03:55 GMT 13.645764 100.834930 9,075 14 263 -832
2022-06-28 05:03:53 GMT 13.643297 100.834251 9,100 14 263 -832
2022-06-28 05:03:49 GMT 13.638875 100.833054 9,150 14 264 -832
2022-06-28 05:03:44 GMT 13.633209 100.831528 9,200 14 265 -896
2022-06-28 05:03:42 GMT 13.628265 100.830154 9,225 14 265 -960
2022-06-28 05:03:39 GMT 13.626389 100.829628 9,300 14 266 -1088
2022-06-28 05:03:35 GMT 13.621536 100.828308 9,350 14 266 -1152
2022-06-28 05:03:33 GMT 13.619019 100.827644 9,400 14 266 -1152
2022-06-28 05:03:29 GMT 13.613708 100.826218 9,475 14 265 -1216
2022-06-28 05:03:25 GMT 13.609406 100.825035 9,550 14 265 -1216
2022-06-28 05:03:22 GMT 13.604782 100.823761 9,625 14 265 -1216
2022-06-28 05:03:18 GMT 13.601074 100.822762 9,675 14 265 -1152
2022-06-28 05:03:14 GMT 13.596954 100.821625 9,750 15 266 -1088
2022-06-28 05:03:12 GMT 13.593859 100.820763 9,775 15 266 -960
2022-06-28 05:03:07 GMT 13.588645 100.819321 9,850 15 266 -896
2022-06-28 05:03:04 GMT 13.585098 100.818359 9,900 14 267 -832
2022-06-28 05:03:01 GMT 13.579474 100.816811 9,950 15 268 -832
2022-06-28 05:02:57 GMT 13.576355 100.815941 9,975 15 268 -768
2022-06-28 05:02:54 GMT 13.572693 100.814903 10,025 15 269 -704
2022-06-28 05:02:50 GMT 13.567978 100.813576 10,075 15 270 -576
2022-06-28 05:02:47 GMT 13.563629 100.812393 10,100 15 272 -448
2022-06-28 05:02:43 GMT 13.559782 100.811317 10,125 15 273 -448
2022-06-28 05:02:40 GMT 13.555127 100.810020 10,150 15 275 -448
2022-06-28 05:02:37 GMT 13.551498 100.808983 10,175 15 278 -448
2022-06-28 05:02:34 GMT 13.546280 100.807518 10,200 15 279 -384
2022-06-28 05:02:30 GMT 13.542512 100.806450 10,200 15 281 -384
2022-06-28 05:02:27 GMT 13.537949 100.805199 10,225 15 283 -384
2022-06-28 05:02:24 GMT 13.535342 100.804428 10,250 15 285 -448
2022-06-28 05:02:22 GMT 13.533371 100.803871 10,250 15 285 -448
2022-06-28 05:02:19 GMT 13.529058 100.802696 10,275 14 287 -576
2022-06-28 05:02:14 GMT 13.521703 100.800720 10,325 13 289 -960
2022-06-28 05:02:12 GMT 13.519701 100.800232 10,350 13 289 -1152
2022-06-28 05:02:09 GMT 13.515427 100.799179 10,400 12 290 -1152
2022-06-28 05:02:04 GMT 13.508854 100.797630 10,500 10 291 -960
2022-06-28 05:02:02 GMT 13.505968 100.797058 10,525 10 290 -960
2022-06-28 05:01:58 GMT 13.500801 100.796089 10,575 5 290 -1152
2022-06-28 05:01:53 GMT 13.495028 100.795609 10,650 0 290 -448
2022-06-28 05:01:51 GMT 13.491490 100.795609 10,700 353 291 -448
2022-06-28 05:01:47 GMT 13.486695 100.796089 10,750 350 291 -512
2022-06-28 05:01:43 GMT 13.481668 100.797104 10,800 341 292 -1280
2022-06-28 05:01:41 GMT 13.476780 100.798645 10,875 336 294 -1216
2022-06-28 05:01:37 GMT 13.473381 100.800140 10,900 333 294 -1216
2022-06-28 05:01:33 GMT 13.468354 100.802933 10,975 326 295 -1216
2022-06-28 05:01:27 GMT 13.461319 100.808319 11,075 315 299 -1216
2022-06-28 05:01:23 GMT 13.456623 100.813438 11,175 307 301 -1216
2022-06-28 05:01:20 GMT 13.453949 100.817131 11,225 301 301 -1280
2022-06-28 05:01:15 GMT 13.450152 100.823845 11,325 295 302 -1088
2022-06-28 05:01:12 GMT 13.449174 100.825821 11,350 295 302 -1088
2022-06-28 05:01:09 GMT 13.447357 100.829865 11,400 295 302 -1088
2022-06-28 05:01:06 GMT 13.445984 100.833092 11,450 295 302 -1088
2022-06-28 05:01:02 GMT 13.443122 100.839653 11,500 295 302 -1088
2022-06-28 05:00:59 GMT 13.441121 100.844177 11,575 295 303 -1088
2022-06-28 05:00:56 GMT 13.440003 100.846687 11,600 295 303 -1088
2022-06-28 05:00:51 GMT 13.437012 100.853447 11,700 295 304 -1088
2022-06-28 05:00:45 GMT 13.433765 100.860901 11,800 294 303 -1088
2022-06-28 05:00:41 GMT 13.430923 100.867516 11,875 294 303 -1088
2022-06-28 05:00:35 GMT 13.427900 100.874390 11,975 294 304 -1024
2022-06-28 05:00:32 GMT 13.426300 100.878166 12,000 294 303 -1024
2022-06-28 05:00:30 GMT 13.424688 100.881859 12,050 294 303 -1024
2022-06-28 05:00:24 GMT 13.421677 100.888824 12,150 294 304 -1088
2022-06-28 05:00:22 GMT 13.420486 100.891525 12,175 294 305 -1088
2022-06-28 05:00:17 GMT 13.416914 100.899689 12,275 294 305 -1024
2022-06-28 05:00:14 GMT 13.416046 100.901749 12,300 295 306 -1024
2022-06-28 05:00:12 GMT 13.414719 100.904739 12,350 295 306 -1024
2022-06-28 05:00:09 GMT 13.412384 100.910088 12,400 294 307 -1088
2022-06-28 05:00:04 GMT 13.409931 100.915688 12,475 294 308 -1024
2022-06-28 05:00:02 GMT 13.408767 100.918388 12,500 294 308 -1088
2022-06-28 04:59:57 GMT 13.406300 100.924118 12,575 294 309 -1088
2022-06-28 04:59:52 GMT 13.402994 100.931732 12,675 294 310 -1024
2022-06-28 04:59:48 GMT 13.400155 100.938286 12,750 294 311 -1088
2022-06-28 04:59:45 GMT 13.398468 100.942101 12,800 294 311 -1152
2022-06-28 04:59:42 GMT 13.396943 100.945610 12,850 294 312 -1088
2022-06-28 04:59:36 GMT 13.393936 100.952515 12,925 294 312 -1024
2022-06-28 04:59:31 GMT 13.390844 100.959732 13,025 294 313 -1088
2022-06-28 04:59:27 GMT 13.388330 100.965462 13,125 294 313 -1088
2022-06-28 04:59:24 GMT 13.385880 100.971130 13,175 294 314 -1088
2022-06-28 04:59:21 GMT 13.384886 100.973412 13,200 294 314 -1088
2022-06-28 04:59:16 GMT 13.381627 100.980980 13,300 294 314 -1024
2022-06-28 04:59:11 GMT 13.378973 100.987000 13,350 294 315 -1088
2022-06-28 04:59:06 GMT 13.375122 100.995895 13,475 294 316 -1088
2022-06-28 04:59:01 GMT 13.373015 101.000786 13,525 294 316 -1088
2022-06-28 04:58:55 GMT 13.369080 101.009865 13,650 294 319 -1088
2022-06-28 04:58:51 GMT 13.366699 101.015259 13,700 295 320 -1088
2022-06-28 04:58:45 GMT 13.362717 101.024399 13,825 295 323 -1088
2022-06-28 04:58:41 GMT 13.360428 101.029655 13,875 295 325 -1088
2022-06-28 04:58:33 GMT 13.356116 101.039429 14,000 295 327 -1088
2022-06-28 04:58:30 GMT 13.353882 101.044579 14,025 295 328 -1088
2022-06-28 04:58:23 GMT 13.349552 101.054466 14,175 295 331 -1024
2022-06-28 04:58:20 GMT 13.347411 101.059280 14,225 294 332 -1024
2022-06-28 04:58:10 GMT 13.340894 101.074265 14,400 294 338 -1024
2022-06-28 04:58:00 GMT 13.334516 101.088821 14,550 294 342 -1088
2022-06-28 04:57:52 GMT 13.329302 101.100815 14,700 294 345 -1088
2022-06-28 04:57:49 GMT 13.327332 101.105286 14,750 294 346 -1152
2022-06-28 04:57:41 GMT 13.322388 101.116699 14,875 294 346 -1024
2022-06-28 04:57:38 GMT 13.320271 101.121582 14,900 294 346 -1024
2022-06-28 04:57:31 GMT 13.315338 101.132942 15,050 294 346 -1088
2022-06-28 04:57:27 GMT 13.313614 101.136909 15,100 294 346 -960
2022-06-28 04:57:20 GMT 13.308746 101.148140 15,225 295 347 -1088
2022-06-28 04:57:17 GMT 13.306771 101.152618 15,275 295 347 -1152
2022-06-28 04:57:10 GMT 13.301147 101.165237 15,400 296 348 -960
2022-06-28 04:57:07 GMT 13.299090 101.169624 15,450 298 349 -1024
2022-06-28 04:57:02 GMT 13.295645 101.176323 15,525 303 351 -1024
2022-06-28 04:56:58 GMT 13.292805 101.181190 15,575 305 351 -1088
2022-06-28 04:56:55 GMT 13.290070 101.185455 15,600 305 351 -1088
2022-06-28 04:56:49 GMT 13.283752 101.194077 15,750 309 351 -1088
2022-06-28 04:56:46 GMT 13.280182 101.198570 15,800 309 351 -1024
2022-06-28 04:56:41 GMT 13.275650 101.204353 15,875 309 351 -1088
2022-06-28 04:56:37 GMT 13.272462 101.208366 15,925 309 351 -1024
2022-06-28 04:56:35 GMT 13.269287 101.212448 15,975 309 352 -1024
2022-06-28 04:56:26 GMT 13.261002 101.222916 16,100 309 354 -1088
2022-06-28 04:56:24 GMT 13.258357 101.226242 16,150 309 354 -1088
2022-06-28 04:56:16 GMT 13.250565 101.236176 16,275 309 355 -1088
2022-06-28 04:56:14 GMT 13.247650 101.239883 16,325 309 355 -1088
2022-06-28 04:56:06 GMT 13.236603 101.253883 16,475 309 354 -1088
2022-06-28 04:56:03 GMT 13.236603 101.253883 16,525 309 354 -1088
2022-06-28 04:55:55 GMT 13.228226 101.264542 16,650 309 353 -1024
2022-06-28 04:55:52 GMT 13.226212 101.267143 16,675 309 353 -1088
2022-06-28 04:55:45 GMT 13.218246 101.277184 16,800 309 354 -1024
2022-06-28 04:55:41 GMT 13.214830 101.281509 16,850 309 355 -1024
2022-06-28 04:55:36 GMT 13.208965 101.288979 16,950 309 355 -1152
2022-06-28 04:55:32 GMT 13.203984 101.295242 17,050 309 355 -1088
2022-06-28 04:55:24 GMT 13.196823 101.304268 17,150 309 355 -1024
2022-06-28 04:55:21 GMT 13.193069 101.309052 17,200 309 357 -1088
2022-06-28 04:55:14 GMT 13.185409 101.318764 17,325 309 357 -1024
2022-06-28 04:55:11 GMT 13.182129 101.322929 17,375 309 358 -1088
2022-06-28 04:55:05 GMT 13.176682 101.329842 17,475 309 359 -1024
2022-06-28 04:55:03 GMT 13.174530 101.332588 17,500 309 359 -1024
2022-06-28 04:55:00 GMT 13.171304 101.336639 17,550 309 359 -1024
2022-06-28 04:54:53 GMT 13.163452 101.346603 17,675 309 360 -1088
2022-06-28 04:54:50 GMT 13.159973 101.351051 17,725 309 362 -1024
2022-06-28 04:54:45 GMT 13.152357 101.360680 17,825 309 362 -1024
2022-06-28 04:54:42 GMT 13.152357 101.360680 17,850 309 363 -1088
2022-06-28 04:54:39 GMT 13.149170 101.364738 17,900 309 363 -1024
2022-06-28 04:54:35 GMT 13.144501 101.370659 17,975 309 363 -1024
2022-06-28 04:54:32 GMT 13.140998 101.375137 18,025 309 364 -1024
2022-06-28 04:54:29 GMT 13.138138 101.378708 18,075 309 364 -1024
2022-06-28 04:54:25 GMT 13.134293 101.383591 18,125 309 364 -1024
2022-06-28 04:54:23 GMT 13.132619 101.385742 18,150 309 364 -1024
2022-06-28 04:54:21 GMT 13.129395 101.389839 18,200 309 364 -1088
2022-06-28 04:54:18 GMT 13.126847 101.393013 18,250 309 364 -1024
2022-06-28 04:54:13 GMT 13.121865 101.399376 18,325 309 366 -1024
2022-06-28 04:54:08 GMT 13.115627 101.407280 18,425 310 365 -1088
2022-06-28 04:54:02 GMT 13.110260 101.414040 18,500 309 364 -1088
2022-06-28 04:53:59 GMT 13.105957 101.419434 18,575 309 364 -1088
2022-06-28 04:53:54 GMT 13.101103 101.425591 18,650 309 362 -1088
2022-06-28 04:53:52 GMT 13.099915 101.427063 18,675 309 362 -1088
2022-06-28 04:53:47 GMT 13.093140 101.435677 18,775 309 357 -1024
2022-06-28 04:53:44 GMT 13.090629 101.438843 18,825 309 355 -1088
2022-06-28 04:53:41 GMT 13.087975 101.442261 18,875 309 354 -1088
2022-06-28 04:53:37 GMT 13.084251 101.447128 18,925 308 352 -1088
2022-06-28 04:53:34 GMT 13.080434 101.452087 19,000 308 350 -960
2022-06-28 04:53:31 GMT 13.077920 101.455467 19,025 307 350 -1024
2022-06-28 04:53:26 GMT 13.071899 101.463661 19,125 305 353 -960
2022-06-28 04:53:23 GMT 13.070611 101.465584 19,150 303 353 -768
2022-06-28 04:53:19 GMT 13.066794 101.471603 19,200 298 356 -768
2022-06-28 04:53:13 GMT 13.062232 101.480904 19,250 291 362 -832
2022-06-28 04:53:10 GMT 13.060318 101.486061 19,275 286 367 -832
2022-06-28 04:53:05 GMT 13.057709 101.495964 19,350 280 371 -896
2022-06-28 04:53:00 GMT 13.056506 101.503792 19,400 274 375 -1216
2022-06-28 04:52:53 GMT 13.056041 101.515213 19,525 268 378 -1728
2022-06-28 04:52:49 GMT 13.056427 101.523094 19,650 263 380 -1856
2022-06-28 04:52:44 GMT 13.057763 101.532799 19,800 260 381 -1984
2022-06-28 04:52:37 GMT 13.059672 101.543549 20,000 259 381 -1920
2022-06-28 04:52:35 GMT 13.060730 101.548904 20,075 259 381 -1856
2022-06-28 04:52:30 GMT 13.063117 101.561325 22,050 260 384 -1920
2022-06-28 04:52:27 GMT 13.063117 101.561325 20,275 259 382 -1920
2022-06-28 04:52:24 GMT 13.064327 101.567497 20,375 260 382 -2048
2022-06-28 04:52:21 GMT 13.065118 101.571739 20,450 260 382 -2048
2022-06-28 04:52:17 GMT 13.066681 101.580063 20,600 260 383 -2048
2022-06-28 04:52:12 GMT 13.068517 101.590141 20,800 260 384 -1984
2022-06-28 04:52:07 GMT 13.069977 101.598251 20,925 260 385 -1856
2022-06-28 04:52:03 GMT 13.071304 101.605537 21,050 260 386 -1536
2022-06-28 04:52:01 GMT 13.071991 101.609329 21,100 260 386 -1408
2022-06-28 04:51:57 GMT 13.073227 101.616150 21,175 260 388 -1344
2022-06-28 04:51:51 GMT 13.075424 101.628174 21,325 260 390 -1728
2022-06-28 04:51:46 GMT 13.076943 101.636307 21,425 260 391 -1856
2022-06-28 04:51:42 GMT 13.078199 101.643097 21,550 260 392 -2048
2022-06-28 04:51:39 GMT 13.079037 101.647774 21,625 260 392 -2112
2022-06-28 04:51:35 GMT 13.080688 101.656540 21,775 260 393 -1984
2022-06-28 04:51:32 GMT 13.081784 101.662376 21,875 260 394 -1792
2022-06-28 04:51:28 GMT 13.082794 101.667953 21,975 260 394 -1664
2022-06-28 04:51:24 GMT 13.084122 101.674911 22,050 260 396 -1600
2022-06-28 04:51:22 GMT 13.084991 101.679367 22,125 259 396 -1600
2022-06-28 04:51:19 GMT 13.086273 101.686188 22,225 259 396 -1600
2022-06-28 04:51:13 GMT 13.088022 101.694992 22,325 259 397 -1600
2022-06-28 04:51:11 GMT 13.089203 101.701241 22,450 259 397 -1600
2022-06-28 04:51:08 GMT 13.090163 101.706078 22,525 259 398 -1600
2022-06-28 04:51:04 GMT 13.091653 101.713593 22,600 259 398 -1664
2022-06-28 04:50:57 GMT 13.094284 101.727341 22,775 260 400 -1664
2022-06-28 04:50:53 GMT 13.095238 101.732193 22,850 260 400 -1664
2022-06-28 04:50:51 GMT 13.096122 101.736816 22,900 260 401 -1664
2022-06-28 04:50:49 GMT 13.097076 101.741920 23,000 259 402 -1664
2022-06-28 04:50:46 GMT 13.098031 101.746742 23,050 259 402 -1664
2022-06-28 04:50:43 GMT 13.099091 101.752434 23,125 259 402 -1728
2022-06-28 04:50:41 GMT 13.099823 101.756081 23,175 259 402 -1728
2022-06-28 04:50:37 GMT 13.101517 101.764702 23,300 259 404 -1664
2022-06-28 04:50:33 GMT 13.102753 101.770996 23,375 259 405 -1664
2022-06-28 04:50:29 GMT 13.104688 101.780571 23,525 259 406 -1920
2022-06-28 04:50:26 GMT 13.105433 101.784378 23,575 259 406 -1920
2022-06-28 04:50:23 GMT 13.106598 101.789894 23,650 259 407 -2240
2022-06-28 04:50:20 GMT 13.107376 101.793915 23,725 259 407 -2240
2022-06-28 04:50:16 GMT 13.109622 101.804909 23,925 259 407 -2432
2022-06-28 04:50:12 GMT 13.110626 101.809685 24,025 259 407 -2496
2022-06-28 04:50:08 GMT 13.112648 101.819649 24,225 259 407 -2368
2022-06-28 04:50:05 GMT 13.113556 101.823944 24,375 259 407 -2368
2022-06-28 04:50:02 GMT 13.114743 101.829773 24,425 259 407 -2432
2022-06-28 04:50:00 GMT 13.115387 101.832893 24,475 259 407 -2560
2022-06-28 04:49:55 GMT 13.117767 101.844307 24,725 259 407 -2752
2022-06-28 04:49:51 GMT 13.118933 101.850006 24,850 259 407 -2688
2022-06-28 04:49:49 GMT 13.119678 101.853767 24,950 259 407 -2432
2022-06-28 04:49:46 GMT 13.120934 101.860077 25,075 259 407 -2304
2022-06-28 04:49:41 GMT 13.122657 101.868797 25,225 259 407 -1920
2022-06-28 04:49:34 GMT 13.125776 101.884460 25,450 259 411 -1472
2022-06-28 04:49:31 GMT 13.126521 101.888367 25,500 259 412 -1408
2022-06-28 04:49:24 GMT 13.128937 101.900558 25,650 260 414 -1600
2022-06-28 04:49:21 GMT 13.130310 101.907761 25,725 260 416 -1728
2022-06-28 04:49:15 GMT 13.132553 101.919838 25,900 260 418 -1792
2022-06-28 04:49:09 GMT 13.134574 101.930763 26,050 261 420 -1664
2022-06-28 04:49:02 GMT 13.136995 101.945992 26,250 263 422 -1664
2022-06-28 04:48:59 GMT 13.137554 101.950134 26,300 267 424 -2112
2022-06-28 04:48:54 GMT 13.138810 101.962471 26,475 267 424 -2112
2022-06-28 04:48:49 GMT 13.139374 101.970932 26,625 268 426 -2368
2022-06-28 04:48:43 GMT 13.139694 101.983429 26,850 270 426 -2496
2022-06-28 04:48:38 GMT 13.139694 101.992378 27,025 272 426 -2368
2022-06-28 04:48:33 GMT 13.139328 102.004265 27,250 276 426 -2432
2022-06-28 04:48:27 GMT 13.138345 102.014465 27,425 281 426 -2496
2022-06-28 04:48:20 GMT 13.134796 102.031258 27,750 290 428 -2048
2022-06-28 04:48:16 GMT 13.133560 102.035141 27,825 291 428 -1984
2022-06-28 04:48:12 GMT 13.129640 102.045403 27,975 297 431 -1856
2022-06-28 04:48:07 GMT 13.125636 102.053642 28,125 302 431 -1856
2022-06-28 04:48:01 GMT 13.119232 102.064270 28,300 307 433 -1728
2022-06-28 04:47:56 GMT 13.113968 102.071465 28,425 309 434 -1664
2022-06-28 04:47:51 GMT 13.106186 102.081459 28,600 309 435 -1856
2022-06-28 04:47:46 GMT 13.101013 102.088036 28,700 309 436 -1856
2022-06-28 04:47:40 GMT 13.092910 102.098404 28,875 309 439 -1728
2022-06-28 04:47:36 GMT 13.087138 102.105728 29,000 309 441 -2048
2022-06-28 04:47:30 GMT 13.079363 102.115608 29,200 309 442 -2496
2022-06-28 04:47:25 GMT 13.073870 102.122543 29,375 309 442 -2624
2022-06-28 04:47:19 GMT 13.065674 102.132980 29,625 309 443 -2496
2022-06-28 04:47:15 GMT 13.060364 102.139748 29,775 309 444 -2176
2022-06-28 04:47:09 GMT 13.051478 102.150925 30,150 309 445 -2304
2022-06-28 04:47:04 GMT 13.046265 102.157532 30,150 309 445 -2304
2022-06-28 04:46:58 GMT 13.037885 102.168083 30,400 310 446 -2304
2022-06-28 04:46:54 GMT 13.032211 102.175217 30,550 309 447 -2176
2022-06-28 04:46:47 GMT 13.024155 102.185356 30,750 310 449 -1856
2022-06-28 04:46:43 GMT 13.018753 102.192169 30,850 309 450 -1664
2022-06-28 04:46:37 GMT 13.009628 102.203690 31,050 310 454 -1728
2022-06-28 04:46:33 GMT 13.004837 102.209740 31,150 309 456 -1536
2022-06-28 04:46:26 GMT 12.995178 102.221909 31,300 309 459 -1408
2022-06-28 04:46:21 GMT 12.990681 102.227638 31,375 309 461 -1408
2022-06-28 04:46:15 GMT 12.980438 102.240471 31,550 310 465 -1664
2022-06-28 04:46:11 GMT 12.976343 102.245659 31,600 310 466 -1792
2022-06-28 04:46:04 GMT 12.966567 102.257805 31,850 310 469 -2048
2022-06-28 04:46:01 GMT 12.961166 102.264435 31,975 310 470 -2048
2022-06-28 04:45:54 GMT 12.951345 102.276642 32,200 310 472 -2048
2022-06-28 04:45:50 GMT 12.946736 102.282234 32,275 310 473 -2048
2022-06-28 04:45:43 GMT 12.936996 102.294083 32,525 310 474 -2432
2022-06-28 04:45:40 GMT 12.931886 102.300301 32,675 311 475 -2496
2022-06-28 04:45:32 GMT 12.920760 102.313797 32,975 311 475 -2496
2022-06-28 04:45:28 GMT 12.915686 102.319962 33,125 310 476 -2560
2022-06-28 04:45:22 GMT 12.907027 102.330467 33,350 310 477 -2304
2022-06-28 04:45:19 GMT 12.901886 102.336746 33,475 310 478 -2240
2022-06-28 04:45:11 GMT 12.891944 102.348877 33,725 311 479 -2304
2022-06-28 04:45:08 GMT 12.886916 102.354897 33,850 311 480 -2176
2022-06-28 04:44:58 GMT 12.871880 102.373062 34,200 311 483 -2240
2022-06-28 04:44:50 GMT 12.860894 102.386215 34,450 311 486 -2240
2022-06-28 04:44:46 GMT 12.856201 102.391869 34,550 311 486 -2240
2022-06-28 04:44:40 GMT 12.845032 102.405411 34,850 309 487 -2688
2022-06-28 04:44:36 GMT 12.841278 102.410194 34,950 308 486 -2944
2022-06-28 04:44:28 GMT 12.829750 102.425728 35,350 304 485 -3200
2022-06-28 04:44:25 GMT 12.826538 102.430595 35,475 302 486 -3072
2022-06-28 04:44:17 GMT 12.817554 102.446014 35,825 297 486 -2752
2022-06-28 04:44:14 GMT 12.814590 102.451912 35,950 295 485 -2752
2022-06-28 04:44:08 GMT 12.807684 102.467796 36,250 292 486 -2688
2022-06-28 04:44:03 GMT 12.804752 102.475456 36,400 292 487 -2624
2022-06-28 04:43:56 GMT 12.798798 102.490601 36,700 293 487 -2624
2022-06-28 04:43:53 GMT 12.796279 102.496803 36,825 294 487 -2624
2022-06-28 04:43:43 GMT 12.786503 102.518921 37,275 296 486 -2560
2022-06-28 04:43:36 GMT 12.778427 102.535873 37,600 298 487 -2176
2022-06-28 04:43:33 GMT 12.776413 102.539902 37,650 298 487 -2176
2022-06-28 04:43:23 GMT 12.764786 102.561874 38,050 300 487 -2240
2022-06-28 04:43:14 GMT 12.755174 102.578476 38,375 302 485 -1984
2022-06-28 04:43:11 GMT 12.752380 102.583199 38,450 302 485 -1856
2022-06-28 04:43:01 GMT 12.740742 102.602669 38,725 302 483 -1152
2022-06-28 04:42:51 GMT 12.727798 102.624382 38,900 302 482 -1024
2022-06-28 04:42:40 GMT 12.715744 102.644539 39,075 302 481 -1024
2022-06-28 04:42:30 GMT 12.703454 102.665115 39,275 302 478 -1024
2022-06-28 04:42:19 GMT 12.691360 102.685371 39,450 302 476 -1024
2022-06-28 04:42:09 GMT 12.678909 102.706207 39,625 302 474 -960
2022-06-28 04:41:57 GMT 12.667004 102.726074 39,775 302 474 -960
2022-06-28 04:41:47 GMT 12.654807 102.746452 39,950 302 473 -640
2022-06-28 04:41:38 GMT 12.644669 102.763458 40,000 302 473 0
2022-06-28 04:41:36 GMT 12.642883 102.766441 40,000 302 473 0
2022-06-28 04:41:27 GMT 12.632601 102.783653 40,000 302 473 0
2022-06-28 04:41:16 GMT 12.618682 102.806931 40,000 302 472 0
2022-06-28 04:41:05 GMT 12.606674 102.826965 40,000 302 470 0
2022-06-28 04:40:55 GMT 12.594589 102.847092 40,000 302 470 0
2022-06-28 04:40:46 GMT 12.585342 102.862526 40,000 302 469 0
2022-06-28 04:40:44 GMT 12.582697 102.866920 40,000 302 469 0
2022-06-28 04:40:35 GMT 12.573015 102.883156 40,000 302 469 0
2022-06-28 04:40:33 GMT 12.570236 102.887772 40,000 302 468 0
2022-06-28 04:40:23 GMT 12.557922 102.908318 40,000 302 467 0
2022-06-28 04:40:14 GMT 12.549500 102.922340 40,000 302 467 0
2022-06-28 04:40:12 GMT 12.545968 102.928261 40,000 302 467 0
2022-06-28 04:40:05 GMT 12.538147 102.941322 40,000 302 465 -64
2022-06-28 04:40:00 GMT 12.533752 102.948715 40,000 302 465 0
2022-06-28 04:39:51 GMT 12.521574 102.969025 40,000 302 464 0
2022-06-28 04:39:40 GMT 12.509471 102.989212 40,000 302 464 0
2022-06-28 04:39:33 GMT 12.502396 103.000992 40,000 302 464 -64
2022-06-28 04:39:29 GMT 12.497223 103.009705 40,000 302 464 -64
2022-06-28 04:39:20 GMT 12.487638 103.025642 40,000 302 464 -64
2022-06-28 04:39:17 GMT 12.485217 103.029686 40,000 302 464 -64
2022-06-28 04:39:08 GMT 12.473373 103.049438 40,000 302 464 64
2022-06-28 04:39:00 GMT 12.465479 103.062553 40,000 302 466 -64
2022-06-28 04:38:57 GMT 12.460917 103.070168 40,000 302 467 0
2022-06-28 04:38:49 GMT 12.451793 103.085388 40,000 302 467 0
2022-06-28 04:38:46 GMT 12.448425 103.090965 40,000 302 468 -64
2022-06-28 04:38:38 GMT 12.439736 103.105484 40,000 302 469 0
2022-06-28 04:38:34 GMT 12.436569 103.110718 40,000 302 469 0
2022-06-28 04:38:28 GMT 12.428423 103.124275 40,000 302 471 -128
2022-06-28 04:38:25 GMT 12.424560 103.130783 39,975 302 472 -64
2022-06-28 04:38:19 GMT 12.419113 103.139839 40,000 302 473 192
2022-06-28 04:38:17 GMT 12.415558 103.145760 40,000 302 473 0
2022-06-28 04:38:14 GMT 12.412079 103.151535 40,000 302 473 -128
2022-06-28 04:38:06 GMT 12.403611 103.165672 40,000 302 473 -64
2022-06-28 04:38:03 GMT 12.399421 103.172562 40,000 302 473 64
2022-06-28 04:37:56 GMT 12.392159 103.184654 40,000 302 474 0
2022-06-28 04:37:52 GMT 12.387644 103.192169 40,000 302 473 64
2022-06-28 04:37:47 GMT 12.382430 103.200844 40,000 302 473 0
2022-06-28 04:37:45 GMT 12.379074 103.206467 40,000 302 473 0
2022-06-28 04:37:42 GMT 12.375046 103.213097 40,000 302 473 64
2022-06-28 04:37:36 GMT 12.369781 103.221954 40,000 302 473 64
2022-06-28 04:37:34 GMT 12.366835 103.226814 40,000 302 473 0
2022-06-28 04:37:31 GMT 12.362869 103.233459 40,000 302 473 0
2022-06-28 04:37:23 GMT 12.354446 103.247383 40,000 302 473 -64
2022-06-28 04:37:19 GMT 12.350867 103.253418 40,000 302 473 0
2022-06-28 04:37:13 GMT 12.342590 103.267128 40,000 302 472 0
2022-06-28 04:37:06 GMT 12.335770 103.278496 40,000 302 472 0
2022-06-28 04:37:02 GMT 12.330431 103.287292 40,000 302 472 0
2022-06-28 04:36:59 GMT 12.326111 103.294548 40,000 302 472 0
2022-06-28 04:36:53 GMT 12.320981 103.303047 40,000 302 472 -64
2022-06-28 04:36:51 GMT 12.317413 103.308945 40,000 302 472 -128
2022-06-28 04:36:48 GMT 12.313905 103.314804 40,000 302 472 64
2022-06-28 04:36:40 GMT 12.305695 103.328453 40,000 302 472 0
2022-06-28 04:36:36 GMT 12.301300 103.335747 40,000 302 471 64
2022-06-28 04:36:31 GMT 12.294205 103.347588 40,000 302 471 64
2022-06-28 04:36:26 GMT 12.289372 103.355614 40,000 302 471 0
2022-06-28 04:36:19 GMT 12.282296 103.367424 40,000 302 472 0
2022-06-28 04:36:16 GMT 12.276849 103.376480 40,000 302 471 0
2022-06-28 04:36:08 GMT 12.269440 103.388687 40,000 302 472 0
2022-06-28 04:36:05 GMT 12.264816 103.396408 40,000 302 472 0
2022-06-28 04:35:59 GMT 12.257584 103.408386 40,000 302 472 -64
2022-06-28 04:35:53 GMT 12.252177 103.417343 40,000 302 472 64
2022-06-28 04:35:48 GMT 12.245427 103.428574 40,000 302 473 0
2022-06-28 04:35:42 GMT 12.239731 103.437981 40,000 302 473 64
2022-06-28 04:35:37 GMT 12.233416 103.448570 40,000 302 473 0
2022-06-28 04:35:33 GMT 12.227875 103.457779 40,000 302 473 0
2022-06-28 04:35:27 GMT 12.220825 103.469429 40,000 302 473 64
2022-06-28 04:35:22 GMT 12.215121 103.478928 40,000 302 473 64
2022-06-28 04:35:16 GMT 12.208930 103.489189 40,000 302 474 -64
2022-06-28 04:35:11 GMT 12.203064 103.498978 40,000 302 473 0
2022-06-28 04:35:06 GMT 12.196826 103.509277 40,000 302 474 0
2022-06-28 04:35:01 GMT 12.190842 103.519196 40,000 302 473 64
2022-06-28 04:34:55 GMT 12.184387 103.529900 40,000 302 472 -64
2022-06-28 04:34:50 GMT 12.178252 103.540070 40,000 302 472 64
2022-06-28 04:34:44 GMT 12.172394 103.549744 40,000 302 472 0
2022-06-28 04:34:41 GMT 12.168988 103.555443 40,000 302 472 0
2022-06-28 04:34:39 GMT 12.166122 103.560158 40,000 302 472 0
2022-06-28 04:34:34 GMT 12.160096 103.570190 40,000 302 472 -64
2022-06-28 04:34:29 GMT 12.155045 103.578529 40,000 302 472 0
2022-06-28 04:34:27 GMT 12.152834 103.582237 40,000 302 472 128
2022-06-28 04:34:22 GMT 12.147446 103.591133 40,000 302 471 0
2022-06-28 04:34:18 GMT 12.141382 103.601219 40,000 302 472 64
2022-06-28 04:34:13 GMT 12.135470 103.611046 40,000 302 472 0
2022-06-28 04:34:07 GMT 12.128906 103.621910 40,000 302 471 -64
2022-06-28 04:34:02 GMT 12.123227 103.631332 40,000 302 471 64
2022-06-28 04:33:56 GMT 12.116756 103.642029 40,000 302 471 0
2022-06-28 04:33:51 GMT 12.111374 103.650986 40,000 302 471 0
2022-06-28 04:33:44 GMT 12.103729 103.663628 40,000 302 471 0
2022-06-28 04:33:41 GMT 12.098694 103.671951 40,000 302 470 0
2022-06-28 04:33:35 GMT 12.092377 103.682426 40,000 302 470 0
2022-06-28 04:33:30 GMT 12.087289 103.690750 40,000 302 470 64
2022-06-28 04:33:23 GMT 12.079887 103.703033 40,000 302 470 -64
2022-06-28 04:33:20 GMT 12.074615 103.711746 40,000 302 470 -64
2022-06-28 04:33:12 GMT 12.067337 103.723816 40,000 302 469 0
2022-06-28 04:33:09 GMT 12.063400 103.730354 40,000 302 469 0
2022-06-28 04:33:03 GMT 12.055847 103.742805 40,000 302 470 -64
2022-06-28 04:32:59 GMT 12.051224 103.750526 40,000 302 470 0
2022-06-28 04:32:52 GMT 12.043204 103.763847 40,000 302 470 0
2022-06-28 04:32:47 GMT 12.037949 103.772499 40,000 302 470 64
2022-06-28 04:32:40 GMT 12.031174 103.783630 40,000 302 471 0
2022-06-28 04:32:36 GMT 12.026001 103.792198 40,000 302 471 0
2022-06-28 04:32:30 GMT 12.018438 103.804710 40,000 302 472 0
2022-06-28 04:32:26 GMT 12.013596 103.812752 40,000 302 472 -64
2022-06-28 04:32:19 GMT 12.005219 103.826622 40,000 302 472 -64
2022-06-28 04:32:15 GMT 12.001465 103.832832 40,000 302 473 0
2022-06-28 04:32:09 GMT 11.994232 103.844711 40,000 302 473 -64
2022-06-28 04:32:05 GMT 11.989609 103.852386 40,000 302 473 0
2022-06-28 04:31:58 GMT 11.981662 103.865417 40,000 302 474 0
2022-06-28 04:31:54 GMT 11.977193 103.872887 40,000 302 474 64
2022-06-28 04:31:44 GMT 11.964661 103.893585 40,000 302 476 64
2022-06-28 04:31:36 GMT 11.955639 103.908501 40,000 302 476 64
2022-06-28 04:31:33 GMT 11.952484 103.913757 40,000 302 476 0
2022-06-28 04:31:26 GMT 11.943695 103.928246 40,000 302 476 0
2022-06-28 04:31:22 GMT 11.940183 103.934036 40,000 302 476 64
2022-06-28 04:31:15 GMT 11.932068 103.947380 40,000 302 477 0
2022-06-28 04:31:12 GMT 11.927987 103.954178 40,000 302 477 0
2022-06-28 04:31:01 GMT 11.915909 103.974182 40,000 302 476 0
2022-06-28 04:30:51 GMT 11.902988 103.995522 40,000 302 475 0
2022-06-28 04:30:39 GMT 11.890745 104.015663 40,000 302 475 0
2022-06-28 04:30:29 GMT 11.878052 104.036552 40,000 302 475 0
2022-06-28 04:30:19 GMT 11.866699 104.055252 40,000 302 475 -64
2022-06-28 04:30:08 GMT 11.854706 104.075096 40,000 302 475 64
2022-06-28 04:29:57 GMT 11.842098 104.095894 40,000 302 474 0
2022-06-28 04:29:44 GMT 11.827148 104.120605 40,000 302 475 0
2022-06-28 04:29:37 GMT 11.817673 104.136185 40,000 302 474 64
2022-06-28 04:29:25 GMT 11.805508 104.156219 40,000 302 474 0
2022-06-28 04:29:10 GMT 11.786654 104.187256 40,000 302 475 -64
2022-06-28 04:29:05 GMT 11.780960 104.196655 40,000 302 475 64
2022-06-28 04:28:53 GMT 11.768359 104.217468 40,000 302 475 64
2022-06-28 04:28:43 GMT 11.755188 104.239136 40,000 302 474 64
2022-06-28 04:28:32 GMT 11.743035 104.259148 40,000 302 473 128
2022-06-28 04:28:23 GMT 11.731816 104.277603 40,000 302 469 64
2022-06-28 04:28:11 GMT 11.720084 104.296921 40,000 302 465 64
2022-06-28 04:28:02 GMT 11.707718 104.317223 40,000 302 458 0
2022-06-28 04:27:43 GMT 11.687622 104.350227 40,000 302 451 -64
2022-06-28 04:27:40 GMT 11.684519 104.355370 40,000 302 447 -64
2022-06-28 04:27:20 GMT 11.662267 104.391899 40,000 302 444 0
2022-06-28 04:27:17 GMT 11.658783 104.397583 40,000 302 443 0
2022-06-28 04:27:06 GMT 11.647934 104.415436 40,000 302 444 0
2022-06-28 04:26:58 GMT 11.638153 104.431602 40,000 302 444 0
2022-06-28 04:23:33 GMT 11.422755 104.795166 36,800 293 450 2304
2022-06-28 04:23:31 GMT 11.421079 104.799019 36,725 293 450 2304
2022-06-28 04:23:21 GMT 11.413166 104.818336 36,350 291 452 2368
2022-06-28 04:23:09 GMT 11.404274 104.843109 35,900 289 456 1792
2022-06-28 04:22:54 GMT 11.393846 104.875053 35,400 289 456 1792
2022-06-28 04:22:44 GMT 11.387833 104.893341 35,150 289 456 1792
2022-06-28 04:21:05 GMT 11.321823 105.095642 31,825 289 458 3264
2022-06-28 04:20:57 GMT 11.316802 105.110924 31,400 289 464 4224
2022-06-28 04:17:47 GMT 11.188293 105.502563 26,650 289 441 1600
2022-06-28 04:17:36 GMT 11.181522 105.523155 26,400 289 439 1408
2022-06-28 04:17:26 GMT 11.174958 105.543152 26,175 289 437 1664
2022-06-28 04:17:15 GMT 11.168487 105.562805 25,900 289 436 1728
2022-06-28 04:17:05 GMT 11.161514 105.583961 25,625 289 434 1792
2022-06-28 04:16:55 GMT 11.155313 105.602707 25,350 289 433 1728
2022-06-28 04:16:44 GMT 11.148468 105.623550 25,075 289 430 1664
2022-06-28 04:16:33 GMT 11.141813 105.643761 24,800 289 427 1408
2022-06-28 04:16:24 GMT 11.135528 105.662842 24,625 289 423 1216
2022-06-28 04:16:13 GMT 11.128601 105.683784 24,375 289 419 1728
2022-06-28 04:15:06 GMT 11.088696 105.804749 22,400 289 385 2304
2022-06-28 04:13:43 GMT 11.039398 105.953934 19,675 289 385 2304
2022-06-28 04:13:34 GMT 11.034622 105.968391 19,375 289 383 2240
2022-06-28 04:13:10 GMT 11.020451 106.011368 18,450 289 378 2432
2022-06-28 04:13:02 GMT 11.016632 106.022850 18,200 289 376 2496
2022-06-28 04:12:53 GMT 11.011093 106.039658 17,800 289 374 2560
2022-06-28 04:12:42 GMT 11.005325 106.057091 17,375 289 372 2496
2022-06-28 04:12:31 GMT 10.999270 106.075409 16,950 289 369 2432
2022-06-28 04:12:21 GMT 10.993561 106.092606 16,550 289 365 2560
2022-06-28 04:12:10 GMT 10.988022 106.109322 16,125 289 363 2688
2022-06-28 04:12:00 GMT 10.982138 106.127060 15,675 289 361 2752
2022-06-28 04:11:50 GMT 10.976971 106.142624 15,225 289 359 3264
2022-06-28 04:11:38 GMT 10.971176 106.160133 14,650 289 359 3008
2022-06-28 04:11:31 GMT 10.966311 106.174667 14,300 289 359 1600
2022-06-28 04:11:28 GMT 10.965775 106.176376 14,275 289 359 1600
2022-06-28 04:11:19 GMT 10.960911 106.191055 14,125 289 357 128
2022-06-28 04:11:09 GMT 10.955371 106.207680 14,125 289 356 0
2022-06-28 04:10:59 GMT 10.949936 106.224060 14,125 289 356 -128
2022-06-28 04:10:56 GMT 10.948435 106.228638 14,125 289 356 -128
2022-06-28 04:10:49 GMT 10.944672 106.240067 14,150 289 355 -64
2022-06-28 04:10:46 GMT 10.942988 106.245216 14,150 289 355 0
2022-06-28 04:10:37 GMT 10.937728 106.261162 14,125 289 354 192
2022-06-28 04:10:28 GMT 10.933678 106.273453 14,100 289 355 704
2022-06-28 04:10:25 GMT 10.932129 106.278191 14,075 289 355 960
2022-06-28 04:10:18 GMT 10.928510 106.289108 13,950 289 355 1536
2022-06-28 04:10:16 GMT 10.926865 106.294189 13,875 289 355 1856
2022-06-28 04:10:07 GMT 10.923017 106.305687 13,650 289 354 2496
2022-06-28 04:10:05 GMT 10.921371 106.310669 13,525 290 354 2816
2022-06-28 04:09:57 GMT 10.917343 106.322273 13,175 291 354 3648
2022-06-28 04:09:52 GMT 10.914126 106.330597 12,875 296 353 3392
2022-06-28 04:09:46 GMT 10.910385 106.338326 12,600 302 351 3136
2022-06-28 04:09:44 GMT 10.907593 106.343208 12,450 304 349 3072
2022-06-28 04:09:35 GMT 10.900812 106.353249 12,125 306 345 2560
2022-06-28 04:09:28 GMT 10.893177 106.364090 11,775 306 335 2432
2022-06-28 04:09:24 GMT 10.890564 106.367828 11,650 306 339 2752
2022-06-28 04:09:21 GMT 10.887268 106.372467 11,500 306 335 2432
2022-06-28 04:09:11 GMT 10.877210 106.386780 11,100 306 329 1472
2022-06-28 04:09:03 GMT 10.871437 106.394875 10,950 306 321 1216
2022-06-28 04:08:53 GMT 10.862595 106.407417 10,775 306 306 1216
2022-06-28 04:08:42 GMT 10.854034 106.419586 10,500 306 293 2624
2022-06-28 04:08:32 GMT 10.846298 106.430527 10,050 306 289 3392
2022-06-28 04:08:21 GMT 10.837454 106.443062 9,450 306 288 3520
2022-06-28 04:08:12 GMT 10.830185 106.453255 8,925 306 286 3648
2022-06-28 04:08:00 GMT 10.821626 106.465324 8,350 306 284 2944
2022-06-28 04:07:50 GMT 10.813431 106.476746 7,850 307 279 3200
2022-06-28 04:07:46 GMT 10.809476 106.482140 7,600 307 277 4288
2022-06-28 04:07:40 GMT 10.805649 106.487396 7,275 307 278 4544
2022-06-28 04:07:30 GMT 10.797466 106.498528 6,575 307 281 3136
2022-06-28 04:07:24 GMT 10.792531 106.505417 6,275 304 275 2688
2022-06-28 04:07:19 GMT 10.789078 106.510460 6,050 304 274 2816
2022-06-28 04:07:13 GMT 10.784958 106.516907 5,775 301 271 2880
2022-06-28 04:07:09 GMT 10.782303 106.521400 5,550 295 267 2368
2022-06-28 04:07:07 GMT 10.780930 106.524292 5,425 290 266 2432
2022-06-28 04:07:01 GMT 10.778641 106.530869 5,150 284 265 2560
2022-06-28 04:06:58 GMT 10.778091 106.533714 5,000 277 264 2752
2022-06-28 04:06:56 GMT 10.777588 106.538216 4,800 270 263 2944
2022-06-28 04:06:51 GMT 10.777774 106.544640 4,500 264 262 3136
2022-06-28 04:06:48 GMT 10.778046 106.546402 4,425 258 262 3328
2022-06-28 04:06:42 GMT 10.780195 106.555000 4,000 250 262 3648
2022-06-28 04:06:37 GMT 10.781778 106.559532 3,750 250 262 3648
2022-06-28 04:06:26 GMT 10.786331 106.571693 3,175 250 257 2944
2022-06-28 04:06:20 GMT 10.789552 106.580246 2,850 250 250 1984
2022-06-28 04:06:16 GMT 10.790680 106.583298 2,775 250 246 1728
2022-06-28 04:06:06 GMT 10.794617 106.593903 2,550 250 226 1408
2022-06-28 04:05:56 GMT 10.798233 106.603561 2,375 250 204 1216
2022-06-28 04:05:46 GMT 10.801702 106.612579 2,200 249 184 1216
2022-06-28 04:05:36 GMT 10.804728 106.620483 2,025 249 167 1344
2022-06-28 04:05:35 GMT 10.805054 106.621178 2,000 249 166 1408
2022-06-28 04:05:34 GMT 10.805333 106.621925 1,975 249 164 1472
2022-06-28 04:05:33 GMT 10.805603 106.622643 1,975 249 163 1536
2022-06-28 04:05:31 GMT 10.806198 106.624161 1,925 249 161 1728
2022-06-28 04:05:30 GMT 10.806497 106.624870 1,900 249 161 1728
2022-06-28 04:05:28 GMT 10.807343 106.627007 1,825 249 156 2048
2022-06-28 04:05:26 GMT 10.807614 106.627663 1,800 249 155 2112
2022-06-28 04:05:25 GMT 10.807892 106.628372 1,775 249 155 2240
2022-06-28 04:05:23 GMT 10.808395 106.629700 1,700 249 154 2368
2022-06-28 04:05:22 GMT 10.808638 106.630363 1,675 249 154 2496
2022-06-28 04:05:21 GMT 10.808899 106.631027 1,625 249 153 2560
2022-06-28 04:05:20 GMT 10.809448 106.632355 1,550 249 153 2688
2022-06-28 04:05:18 GMT 10.809709 106.633057 1,500 249 153 2816
2022-06-28 04:05:17 GMT 10.809942 106.633682 1,475 249 153 2944
2022-06-28 04:05:16 GMT 10.810226 106.634346 1,425 249 153 3072
2022-06-28 04:05:15 GMT 10.810638 106.635429 1,350 248 154 3072
2022-06-28 04:05:14 GMT 10.811188 106.636803 1,250 249 155 3072
2022-06-28 04:05:12 GMT 10.811338 106.637207 1,225 248 155 3008
2022-06-28 04:05:10 GMT 10.811897 106.638603 1,150 248 155 2944
2022-06-28 04:05:09 GMT 10.812195 106.639313 1,075 248 156 2880
2022-06-28 04:05:06 GMT 10.812790 106.640831 975 249 156 2816
2022-06-28 04:05:05 GMT 10.813154 106.641685 925 249 157 2880
2022-06-28 04:05:03 GMT 10.813666 106.642982 825 249 156 3008
2022-06-28 04:05:02 GMT 10.813980 106.643723 775 249 156 2944
2022-06-28 04:04:59 GMT 10.816226 106.649681 525 250 157 2752
2022-06-28 04:04:54 GMT 10.816226 106.649681 400 250 159 2368
2022-06-28 04:04:49 GMT 10.817505 106.653046 225 250 158 1536
2022-06-28 04:04:48 GMT 10.817642 106.653427 200 250 157 1216
2022-06-28 04:04:35 GMT 10.820695 106.661537 175 250 100 384
2022-06-28 04:01:13 GMT 10.823465 106.669380 0 306 9
2022-06-28 04:01:05 GMT 10.823291 106.669655 0 317 9
2022-06-28 04:01:04 GMT 10.823273 106.669693 0 320 9
2022-06-28 04:01:02 GMT 10.823238 106.669754 0 329 9
2022-06-28 04:00:58 GMT 10.823124 106.669861 0 337 9
2022-06-28 04:00:55 GMT 10.822964 106.669914 0 337 9
2022-06-28 04:00:43 GMT 10.822627 106.670105 0 354 8
2022-06-28 04:00:16 GMT 10.821957 106.669563 0 70 12
2022-06-28 04:00:11 GMT 10.821859 106.669312 0 70 12
2022-06-28 04:00:02 GMT 10.821682 106.668816 0 70 15
2022-06-28 03:59:52 GMT 10.821419 106.668129 0 70 17
2022-06-28 03:59:40 GMT 10.821110 106.667305 0 70 17
2022-06-28 03:59:31 GMT 10.820881 106.666679 0 70 15
2022-06-28 03:59:21 GMT 10.820637 106.666054 0 70 16
2022-06-28 03:59:09 GMT 10.820300 106.665161 0 70 20
2022-06-28 03:59:00 GMT 10.819997 106.664352 0 70 18
2022-06-28 03:58:50 GMT 10.819736 106.663658 0 67 17
2022-06-28 03:58:33 GMT 10.819287 106.662491 0 67 15
2022-06-28 03:58:27 GMT 10.819130 106.662079 0 70 13
2022-06-28 03:58:19 GMT 10.818984 106.661697 0 70 12
2022-06-28 03:58:00 GMT 10.818684 106.660858 0 28 9
2022-06-28 03:57:35 GMT 10.817551 106.660614 0 5 11
2022-06-28 03:57:20 GMT 10.816910 106.660553 0 5 11
We lost coverage of the aircraft here for a total of 232 minutes
2022-06-28 00:04:55 GMT 10.813992 106.660019 0 227 8 0
2022-06-28 00:04:52 GMT 10.814003 106.660118 0 213 7 0
2022-06-28 00:04:51 GMT 10.814027 106.660149 0 205 7 0
2022-06-28 00:04:50 GMT 10.814037 106.660187 0 202 7 0
2022-06-28 00:04:48 GMT 10.814198 106.660294 0 185 8 0
2022-06-28 00:04:42 GMT 10.814198 106.660294 0 185 8 0
2022-06-28 00:04:31 GMT 10.814620 106.660332 0 185 10 0
2022-06-28 00:04:19 GMT 10.815097 106.660378 0 185 10 0
2022-06-28 00:04:12 GMT 10.815456 106.660408 0 185 11 0
2022-06-28 00:04:07 GMT 10.815668 106.660431 0 185 11 0
2022-06-28 00:03:52 GMT 10.816412 106.660500 0 185 10 0
2022-06-28 00:03:47 GMT 10.816635 106.660530 0 180 9 0
2022-06-28 00:03:46 GMT 10.816657 106.660538 0 177 9 0
2022-06-28 00:03:45 GMT 10.816704 106.660545 0 177 9 0
2022-06-28 00:03:43 GMT 10.816762 106.660553 0 171 9 0
2022-06-28 00:03:35 GMT 10.817076 106.660583 0 132 9 0
2022-06-28 00:03:17 GMT 10.817239 106.660042 0 70 11 0
2022-06-28 00:03:15 GMT 10.817192 106.659920 0 70 12 0
2022-06-28 00:03:13 GMT 10.817157 106.659828 0 70 13 0
2022-06-28 00:03:07 GMT 10.817006 106.659439 0 67 12 0
2022-06-28 00:03:06 GMT 10.817006 106.659439 0 67 12 0
2022-06-28 00:03:04 GMT 10.816944 106.659286 0 70 12 0
2022-06-28 00:02:57 GMT 10.816830 106.658981 0 70 12 0
2022-06-28 00:02:54 GMT 10.816784 106.658852 0 67 12 0
2022-06-28 00:02:53 GMT 10.816738 106.658730 0 67 13 0
2022-06-28 00:02:50 GMT 10.816715 106.658661 0 67 14 0
2022-06-28 00:02:49 GMT 10.816680 106.658600 0 70 15 0
2022-06-28 00:02:47 GMT 10.816645 106.658501 0 70 15 0
2022-06-28 00:01:53 GMT 10.815491 106.655441 0 70 11 0
2022-06-28 00:01:15 GMT 10.814900 106.653877 0 70 10 0
2022-06-28 00:01:06 GMT 10.814760 106.653519 0 70 9 0
2022-06-28 00:00:27 GMT 10.814155 106.651878 0 67 8 0
2022-06-27 23:59:45 GMT 10.813648 106.650513 0 135 7 0
2022-06-27 23:57:08 GMT 10.820114 106.659966 100 249 136 -256
2022-06-27 23:57:04 GMT 10.820892 106.662048 100 249 136 -256
2022-06-27 23:57:03 GMT 10.821114 106.662598 100 249 136 -256
2022-06-27 23:56:49 GMT 10.825516 106.674355 275 250 139 -704
2022-06-27 23:56:44 GMT 10.825516 106.674355 275 250 142 -704
2022-06-27 23:56:38 GMT 10.826843 106.677910 350 250 142 -704
2022-06-27 23:56:36 GMT 10.827213 106.678932 350 250 142 -704
2022-06-27 23:56:35 GMT 10.827492 106.679657 375 250 142 -704
2022-06-27 23:56:34 GMT 10.827713 106.680275 375 249 142 -768
2022-06-27 23:56:32 GMT 10.828217 106.681602 400 249 142 -768
2022-06-27 23:56:30 GMT 10.828720 106.682884 425 249 143 -768
2022-06-27 23:56:27 GMT 10.829494 106.684860 475 250 145 -768
2022-06-27 23:56:26 GMT 10.830139 106.686623 500 250 145 -768
2022-06-27 23:56:24 GMT 10.830139 106.686623 500 250 146 -768
2022-06-27 23:56:22 GMT 10.831100 106.689178 525 250 146 -832
2022-06-27 23:56:20 GMT 10.831100 106.689178 550 250 146 -832
2022-06-27 23:56:19 GMT 10.831696 106.690742 575 250 146 -832
2022-06-27 23:56:17 GMT 10.831914 106.691360 575 249 146 -832
2022-06-27 23:56:16 GMT 10.832426 106.692665 625 249 146 -832
2022-06-27 23:56:14 GMT 10.832565 106.693062 625 249 147 -832
2022-06-27 23:56:13 GMT 10.833206 106.694672 650 249 148 -832
2022-06-27 23:56:11 GMT 10.833311 106.695030 650 249 148 -832
2022-06-27 23:56:10 GMT 10.833664 106.695908 675 249 148 -832
2022-06-27 23:56:09 GMT 10.833916 106.696571 700 249 149 -832
2022-06-27 23:56:08 GMT 10.834428 106.697922 725 249 149 -832
2022-06-27 23:56:06 GMT 10.834717 106.698601 725 249 149 -832
2022-06-27 23:56:05 GMT 10.834940 106.699265 750 249 149 -832
2022-06-27 23:56:02 GMT 10.835587 106.700874 775 250 149 -832
2022-06-27 23:56:01 GMT 10.836227 106.702538 800 250 150 -832
2022-06-27 23:55:58 GMT 10.836594 106.703575 825 250 150 -832
2022-06-27 23:55:56 GMT 10.837189 106.705139 850 250 150 -768
2022-06-27 23:55:55 GMT 10.837555 106.706131 875 250 150 -768
2022-06-27 23:55:54 GMT 10.837780 106.706787 900 250 149 -768
2022-06-27 23:55:53 GMT 10.838292 106.708038 925 250 149 -768
2022-06-27 23:55:50 GMT 10.838804 106.709480 950 250 149 -768
2022-06-27 23:55:49 GMT 10.839066 106.710159 950 250 149 -768
2022-06-27 23:55:48 GMT 10.839316 106.710831 975 250 149 -768
2022-06-27 23:55:45 GMT 10.839828 106.712181 1,000 250 149 -768
2022-06-27 23:55:44 GMT 10.840118 106.712952 1,000 250 149 -832
2022-06-27 23:55:43 GMT 10.840668 106.714371 1,025 250 148 -832
2022-06-27 23:55:41 GMT 10.840852 106.714973 1,050 250 148 -832
2022-06-27 23:55:40 GMT 10.841171 106.715790 1,075 250 147 -704
2022-06-27 23:55:37 GMT 10.841830 106.717484 1,100 250 147 -704
2022-06-27 23:55:36 GMT 10.842453 106.719154 1,125 250 146 -704
2022-06-27 23:55:33 GMT 10.842911 106.720436 1,150 250 146 -768
2022-06-27 23:55:32 GMT 10.843552 106.722137 1,175 250 146 -832
2022-06-27 23:55:30 GMT 10.843918 106.723038 1,200 250 146 -832
2022-06-27 23:55:29 GMT 10.843918 106.723038 1,200 250 146 -832
2022-06-27 23:55:28 GMT 10.844513 106.724602 1,225 249 146 -768
2022-06-27 23:55:22 GMT 10.845368 106.726875 1,275 249 146 -768
2022-06-27 23:55:21 GMT 10.846024 106.728531 1,300 249 147 -832
2022-06-27 23:55:19 GMT 10.846390 106.729477 1,325 249 147 -896
2022-06-27 23:55:17 GMT 10.846939 106.730896 1,350 249 147 -832
2022-06-27 23:55:15 GMT 10.848161 106.734253 1,425 250 147 -768
2022-06-27 23:55:12 GMT 10.848161 106.734253 1,425 250 147 -768
2022-06-27 23:55:11 GMT 10.848404 106.734879 1,425 250 147 -768
2022-06-27 23:55:09 GMT 10.848999 106.736488 1,475 250 147 -832
2022-06-27 23:55:06 GMT 10.849604 106.738052 1,475 250 147 -768
2022-06-27 23:55:03 GMT 10.850281 106.739990 1,525 250 146 -832
2022-06-27 23:55:00 GMT 10.850967 106.741745 1,575 250 146 -832
2022-06-27 23:54:59 GMT 10.851334 106.742737 1,600 249 146 -896
2022-06-27 23:54:56 GMT 10.852025 106.744560 1,625 249 145 -896
2022-06-27 23:54:53 GMT 10.852630 106.746155 1,675 249 145 -768
2022-06-27 23:54:46 GMT 10.854721 106.751595 1,750 250 145 -512
2022-06-27 23:54:38 GMT 10.856369 106.755997 1,825 249 146 -960
2022-06-27 23:54:36 GMT 10.856866 106.757278 1,850 250 148 -960
2022-06-27 23:54:35 GMT 10.857099 106.757858 1,850 250 148 -960
2022-06-27 23:54:34 GMT 10.857330 106.758598 1,875 250 148 -960
2022-06-27 23:54:29 GMT 10.858542 106.761665 1,950 250 150 -960
2022-06-27 23:54:28 GMT 10.858795 106.762390 1,950 250 151 -960
2022-06-27 23:54:27 GMT 10.859344 106.763855 1,975 250 153 -1088
2022-06-27 23:54:25 GMT 10.859619 106.764618 2,000 250 154 -1088
2022-06-27 23:54:23 GMT 10.859985 106.765572 2,025 250 155 -960
2022-06-27 23:54:20 GMT 10.861908 106.770775 2,125 250 159 -832
2022-06-27 23:54:16 GMT 10.861908 106.770775 2,125 250 160 -1088
2022-06-27 23:54:14 GMT 10.862961 106.773521 2,175 249 161 -1088
2022-06-27 23:54:12 GMT 10.862961 106.773521 2,175 249 161 -1024
2022-06-27 23:54:11 GMT 10.863244 106.774246 2,200 249 161 -1024
2022-06-27 23:54:09 GMT 10.863876 106.775932 2,250 250 162 -1024
2022-06-27 23:54:05 GMT 10.864873 106.778534 2,300 250 164 -1024
2022-06-27 23:54:02 GMT 10.865944 106.781326 2,350 249 166 -832
2022-06-27 23:54:00 GMT 10.866363 106.782486 2,375 250 168 -768
2022-06-27 23:53:58 GMT 10.866806 106.783607 2,375 250 169 -832
2022-06-27 23:53:56 GMT 10.867401 106.785118 2,400 250 171 -960
2022-06-27 23:53:55 GMT 10.867666 106.785858 2,400 250 171 -960
2022-06-27 23:53:53 GMT 10.868362 106.787727 2,450 250 173 -1024
2022-06-27 23:53:51 GMT 10.869249 106.790047 2,500 250 174 -1024
2022-06-27 23:53:49 GMT 10.869507 106.790710 2,500 250 174 -1024
2022-06-27 23:53:46 GMT 10.870239 106.792694 2,550 250 176 -960
2022-06-27 23:53:44 GMT 10.870789 106.794167 2,575 250 177 -960
2022-06-27 23:53:43 GMT 10.871065 106.794914 2,575 250 178 -1024
2022-06-27 23:53:40 GMT 10.872135 106.797806 2,625 251 181 -1152
2022-06-27 23:53:32 GMT 10.874323 106.803970 2,775 252 181 -1088
2022-06-27 23:53:28 GMT 10.876328 106.810074 2,875 253 182 -1152
2022-06-27 23:53:25 GMT 10.876605 106.810959 2,925 256 182 -1152
2022-06-27 23:53:22 GMT 10.876977 106.812309 2,950 256 182 -1152
2022-06-27 23:53:21 GMT 10.877197 106.813057 2,975 256 181 -1152
2022-06-27 23:53:20 GMT 10.877442 106.813850 2,975 257 182 -1152
2022-06-27 23:53:19 GMT 10.877747 106.815094 3,000 257 181 -1152
2022-06-27 23:53:15 GMT 10.878653 106.819199 3,100 261 182 -960
2022-06-27 23:53:12 GMT 10.878932 106.820595 3,125 264 182 -896
2022-06-27 23:53:10 GMT 10.879211 106.822670 3,150 266 182 -768
2022-06-27 23:53:08 GMT 10.879303 106.823669 3,150 267 182 -704
2022-06-27 23:53:07 GMT 10.879351 106.824455 3,175 269 183 -640
2022-06-27 23:53:05 GMT 10.879444 106.826233 3,200 272 184 -384
2022-06-27 23:53:04 GMT 10.879440 106.827126 3,200 272 184 -384
2022-06-27 23:53:02 GMT 10.879395 106.828926 3,225 275 185 -256
2022-06-27 23:53:01 GMT 10.879351 106.829849 3,225 276 185 -256
2022-06-27 23:53:00 GMT 10.879303 106.830727 3,225 277 187 -256
2022-06-27 23:52:57 GMT 10.879072 106.832741 3,225 277 189 -64
2022-06-27 23:52:55 GMT 10.878606 106.836304 3,200 278 196 64
2022-06-27 23:52:51 GMT 10.878373 106.838333 3,200 277 198 -64
2022-06-27 23:52:50 GMT 10.878141 106.840111 3,200 277 200 -192
2022-06-27 23:52:47 GMT 10.877861 106.842377 3,200 277 203 -448
2022-06-27 23:52:44 GMT 10.877489 106.845604 3,225 277 207 -640
2022-06-27 23:52:40 GMT 10.877060 106.849144 3,250 277 207 -640
2022-06-27 23:52:39 GMT 10.876877 106.850563 3,250 277 207 -640
2022-06-27 23:52:36 GMT 10.876558 106.853363 3,275 277 208 -704
2022-06-27 23:52:33 GMT 10.876190 106.856483 3,300 277 209 -640
2022-06-27 23:52:30 GMT 10.875813 106.859581 3,350 277 210 -576
2022-06-27 23:52:29 GMT 10.875687 106.860558 3,350 277 210 -576
2022-06-27 23:52:24 GMT 10.875183 106.864578 3,375 278 211 -576
2022-06-27 23:52:22 GMT 10.874954 106.866669 3,400 278 212 -704
2022-06-27 23:52:18 GMT 10.874496 106.870361 3,450 278 212 -768
2022-06-27 23:52:16 GMT 10.874184 106.872978 3,475 277 212 -768
2022-06-27 23:52:11 GMT 10.873625 106.877556 3,525 278 212 -832
2022-06-27 23:52:10 GMT 10.873489 106.878647 3,550 278 212 -832
2022-06-27 23:52:09 GMT 10.873346 106.879677 3,550 278 212 -832
2022-06-27 23:52:07 GMT 10.873160 106.881409 3,575 278 212 -896
2022-06-27 23:52:06 GMT 10.872880 106.883339 3,600 278 212 -896
2022-06-27 23:52:03 GMT 10.872648 106.885315 3,650 277 213 -896
2022-06-27 23:52:02 GMT 10.872528 106.886314 3,650 277 213 -832
2022-06-27 23:52:00 GMT 10.872368 106.887772 3,675 277 213 -832
2022-06-27 23:51:58 GMT 10.872025 106.890251 3,700 277 213 -704
2022-06-27 23:51:57 GMT 10.871903 106.891289 3,725 277 213 -704
2022-06-27 23:51:56 GMT 10.871623 106.893745 3,750 277 214 -640
2022-06-27 23:51:54 GMT 10.871521 106.894745 3,750 277 214 -640
2022-06-27 23:51:53 GMT 10.871292 106.896690 3,775 277 215 -640
2022-06-27 23:51:51 GMT 10.871158 106.897697 3,775 277 215 -640
2022-06-27 23:51:49 GMT 10.870925 106.899818 3,800 276 215 -704
2022-06-27 23:51:48 GMT 10.870834 106.900810 3,800 275 215 -832
2022-06-27 23:51:47 GMT 10.870739 106.901886 3,825 274 215 -896
2022-06-27 23:51:46 GMT 10.870599 106.903908 3,850 273 216 -896
2022-06-27 23:51:44 GMT 10.870514 106.904831 3,850 273 216 -896
2022-06-27 23:51:42 GMT 10.870377 106.906967 3,900 273 216 -832
2022-06-27 23:51:41 GMT 10.870367 106.907913 3,900 272 216 -832
2022-06-27 23:51:39 GMT 10.870273 106.909889 3,925 272 216 -832
2022-06-27 23:51:38 GMT 10.870239 106.910896 3,950 272 216 -832
2022-06-27 23:51:37 GMT 10.870193 106.912933 3,975 272 216 -768
2022-06-27 23:51:35 GMT 10.870180 106.913841 3,975 272 216 -768
2022-06-27 23:51:34 GMT 10.870148 106.914871 4,000 272 216 -768
2022-06-27 23:51:32 GMT 10.870102 106.917007 4,025 272 216 -768
2022-06-27 23:51:31 GMT 10.870087 106.918076 4,025 272 216 -768
2022-06-27 23:51:30 GMT 10.870056 106.919136 4,050 272 216 -768
2022-06-27 23:51:27 GMT 10.869994 106.922272 4,075 272 216 -832
2022-06-27 23:51:26 GMT 10.869965 106.923157 4,100 272 216 -832
2022-06-27 23:51:24 GMT 10.869901 106.925400 4,125 272 216 -896
2022-06-27 23:51:23 GMT 10.869873 106.926758 4,125 272 216 -896
2022-06-27 23:51:22 GMT 10.869854 106.927811 4,150 272 216 -896
2022-06-27 23:51:21 GMT 10.869808 106.929886 4,175 272 216 -960
2022-06-27 23:51:19 GMT 10.869827 106.930923 4,200 272 216 -960
2022-06-27 23:51:17 GMT 10.869781 106.932632 4,225 272 216 -960
2022-06-27 23:51:14 GMT 10.869715 106.935669 4,275 272 215 -1088
2022-06-27 23:51:13 GMT 10.869644 106.936752 4,275 272 215 -1088
2022-06-27 23:51:12 GMT 10.869598 106.939072 4,325 272 215 -1152
2022-06-27 23:51:10 GMT 10.869575 106.940102 4,350 272 215 -1152
2022-06-27 23:51:09 GMT 10.869553 106.940964 4,350 272 214 -1152
2022-06-27 23:51:08 GMT 10.869575 106.941933 4,375 272 214 -1152
2022-06-27 23:51:05 GMT 10.869529 106.944199 4,425 272 214 -1152
2022-06-27 23:51:04 GMT 10.869435 106.946220 4,450 272 213 -1088
2022-06-27 23:51:02 GMT 10.869415 106.947266 4,475 272 213 -1088
2022-06-27 23:51:01 GMT 10.869435 106.948196 4,475 271 213 -1152
2022-06-27 23:51:00 GMT 10.869389 106.950264 4,525 271 213 -1088
2022-06-27 23:50:58 GMT 10.869370 106.951195 4,550 271 213 -1088
2022-06-27 23:50:57 GMT 10.869324 106.953423 4,575 271 212 -1024
2022-06-27 23:50:55 GMT 10.869296 106.954407 4,600 271 212 -1024
2022-06-27 23:50:54 GMT 10.869249 106.956482 4,625 272 212 -896
2022-06-27 23:50:52 GMT 10.869232 106.957489 4,650 272 213 -768
2022-06-27 23:50:51 GMT 10.869232 106.958862 4,675 272 213 -768
2022-06-27 23:50:50 GMT 10.869156 106.961830 4,700 271 213 -704
2022-06-27 23:50:48 GMT 10.869156 106.961830 4,700 272 213 -640
2022-06-27 23:50:47 GMT 10.869141 106.962799 4,700 272 213 -640
2022-06-27 23:50:45 GMT 10.869095 106.964828 4,725 272 213 -640
2022-06-27 23:50:44 GMT 10.869110 106.965973 4,750 272 214 -704
2022-06-27 23:50:43 GMT 10.869049 106.966965 4,750 272 214 -704
2022-06-27 23:50:39 GMT 10.868970 106.970459 4,800 272 214 -832
2022-06-27 23:50:38 GMT 10.868958 106.971367 4,800 272 214 -832
2022-06-27 23:50:37 GMT 10.868912 106.973404 4,825 272 214 -896
2022-06-27 23:50:35 GMT 10.868877 106.974358 4,850 272 214 -896
2022-06-27 23:50:34 GMT 10.868866 106.975296 4,850 272 214 -896
2022-06-27 23:50:33 GMT 10.868820 106.977478 4,875 272 214 -832
2022-06-27 23:50:31 GMT 10.868784 106.978554 4,900 272 214 -832
2022-06-27 23:50:30 GMT 10.868774 106.979515 4,900 272 213 -896
2022-06-27 23:50:29 GMT 10.868729 106.981499 4,950 272 213 -896
2022-06-27 23:50:27 GMT 10.868737 106.982452 4,950 272 213 -896
2022-06-27 23:50:26 GMT 10.868683 106.983345 4,975 272 213 -896
2022-06-27 23:50:24 GMT 10.868637 106.985664 5,000 272 213 -896
2022-06-27 23:50:23 GMT 10.868644 106.986694 5,000 272 213 -896
2022-06-27 23:50:21 GMT 10.868598 106.988815 5,050 272 212 -960
2022-06-27 23:50:20 GMT 10.868591 106.989838 5,050 272 212 -960
2022-06-27 23:50:18 GMT 10.868504 106.992287 5,100 272 212 -960
2022-06-27 23:50:17 GMT 10.868500 106.993340 5,100 272 211 -896
2022-06-27 23:50:16 GMT 10.868500 106.993858 5,125 272 211 -832
2022-06-27 23:50:14 GMT 10.868458 106.996475 5,150 272 211 -768
2022-06-27 23:50:12 GMT 10.868408 106.997505 5,175 272 211 -704
2022-06-27 23:50:10 GMT 10.868362 106.999115 5,200 272 212 -640
2022-06-27 23:50:09 GMT 10.868365 107.000137 5,200 272 212 -640
2022-06-27 23:50:08 GMT 10.868317 107.001251 5,200 272 212 -640
2022-06-27 23:50:06 GMT 10.868271 107.003281 5,225 272 213 -704
2022-06-27 23:50:05 GMT 10.868225 107.004379 5,250 272 213 -704
2022-06-27 23:50:03 GMT 10.868179 107.006355 5,250 272 213 -704
2022-06-27 23:50:02 GMT 10.868179 107.007454 5,275 272 213 -768
2022-06-27 23:49:59 GMT 10.868085 107.010208 5,300 272 214 -768
2022-06-27 23:49:58 GMT 10.868088 107.011238 5,325 272 214 -768
2022-06-27 23:49:57 GMT 10.867996 107.013657 5,350 272 214 -832
2022-06-27 23:49:54 GMT 10.867950 107.015785 5,375 272 214 -832
2022-06-27 23:49:51 GMT 10.867899 107.018158 5,400 272 214 -832
2022-06-27 23:49:50 GMT 10.867859 107.019768 5,425 272 214 -768
2022-06-27 23:49:49 GMT 10.867853 107.020813 5,425 272 215 -768
2022-06-27 23:49:48 GMT 10.867813 107.021797 5,450 272 215 -768
2022-06-27 23:49:47 GMT 10.867767 107.023888 5,475 272 215 -704
2022-06-27 23:49:45 GMT 10.867760 107.024712 5,475 272 215 -640
2022-06-27 23:49:43 GMT 10.867713 107.026833 5,500 272 215 -640
2022-06-27 23:49:41 GMT 10.867666 107.028854 5,525 272 216 -576
2022-06-27 23:49:40 GMT 10.867620 107.030449 5,525 272 216 -576
2022-06-27 23:49:37 GMT 10.867538 107.033546 5,550 272 217 -512
2022-06-27 23:49:34 GMT 10.867401 107.039604 5,575 272 218 -448
2022-06-27 23:49:32 GMT 10.867355 107.042068 5,625 272 219 -512
2022-06-27 23:49:28 GMT 10.867355 107.042068 5,625 272 220 -448
2022-06-27 23:49:27 GMT 10.867310 107.044060 5,625 272 221 -384
2022-06-27 23:49:26 GMT 10.867294 107.045143 5,625 272 221 -384
2022-06-27 23:49:24 GMT 10.867218 107.047943 5,650 272 222 -384
2022-06-27 23:49:23 GMT 10.867218 107.047943 5,650 272 223 -384
2022-06-27 23:49:22 GMT 10.867172 107.050636 5,650 272 224 -448
2022-06-27 23:49:18 GMT 10.867126 107.052773 5,675 272 225 -448
2022-06-27 23:49:17 GMT 10.867108 107.053673 5,675 272 225 -448
2022-06-27 23:49:13 GMT 10.867015 107.058060 5,700 272 228 -448
2022-06-27 23:49:12 GMT 10.866943 107.060822 5,725 272 228 -448
2022-06-27 23:49:09 GMT 10.866922 107.061913 5,725 272 229 -384
2022-06-27 23:49:08 GMT 10.866922 107.063553 5,725 272 229 -384
2022-06-27 23:49:07 GMT 10.866898 107.064659 5,750 272 231 -384
2022-06-27 23:49:06 GMT 10.866875 107.065765 5,750 272 231 -384
2022-06-27 23:49:05 GMT 10.866782 107.068466 5,775 271 232 -384
2022-06-27 23:49:02 GMT 10.866760 107.069443 5,775 271 233 -448
2022-06-27 23:49:00 GMT 10.866669 107.073654 5,775 271 234 -448
2022-06-27 23:48:59 GMT 10.866669 107.073654 5,800 272 235 -448
2022-06-27 23:48:57 GMT 10.866623 107.077774 5,800 272 236 -448
2022-06-27 23:48:55 GMT 10.866623 107.077774 5,800 272 237 -448
2022-06-27 23:48:54 GMT 10.866596 107.078918 5,825 272 237 -448
2022-06-27 23:48:53 GMT 10.866486 107.082275 5,825 272 238 -512
2022-06-27 23:48:51 GMT 10.866486 107.082275 5,825 272 239 -512
2022-06-27 23:48:50 GMT 10.866410 107.085762 5,850 272 240 -512
2022-06-27 23:48:48 GMT 10.866410 107.085762 5,850 272 240 -512
2022-06-27 23:48:47 GMT 10.866394 107.086914 5,850 272 241 -512
2022-06-27 23:48:45 GMT 10.866348 107.089233 5,875 272 241 -448
2022-06-27 23:48:44 GMT 10.866316 107.090439 5,875 272 242 -448
2022-06-27 23:48:42 GMT 10.866270 107.092461 5,900 272 244 -512
2022-06-27 23:48:41 GMT 10.866257 107.093636 5,900 272 244 -512
2022-06-27 23:48:40 GMT 10.866223 107.094826 5,900 272 245 -512
2022-06-27 23:48:38 GMT 10.866177 107.097038 5,925 272 246 -448
2022-06-27 23:48:37 GMT 10.866130 107.099449 5,925 272 247 -448
2022-06-27 23:48:35 GMT 10.866074 107.100784 5,950 272 247 -448
2022-06-27 23:48:34 GMT 10.866084 107.101906 5,950 272 248 -448
2022-06-27 23:48:33 GMT 10.866037 107.104218 5,950 272 249 -512
2022-06-27 23:48:31 GMT 10.865982 107.105331 5,975 272 249 -512
2022-06-27 23:48:30 GMT 10.865944 107.107445 5,975 272 250 -576
2022-06-27 23:48:28 GMT 10.865944 107.108749 5,975 272 251 -576
2022-06-27 23:48:26 GMT 10.865891 107.110970 6,000 271 252 -576
2022-06-27 23:48:25 GMT 10.865845 107.112251 6,000 271 252 -576
2022-06-27 23:48:23 GMT 10.865799 107.114807 6,025 272 253 -512
2022-06-27 23:48:22 GMT 10.865804 107.115929 6,025 272 254 -512
2022-06-27 23:48:21 GMT 10.865753 107.117126 6,050 272 254 -512
2022-06-27 23:48:19 GMT 10.865707 107.119400 6,050 272 255 -512
2022-06-27 23:48:18 GMT 10.865707 107.120537 6,050 272 256 -512
2022-06-27 23:48:16 GMT 10.865618 107.123299 6,075 272 257 -512
2022-06-27 23:48:14 GMT 10.865570 107.125130 6,100 272 257 -512
2022-06-27 23:48:13 GMT 10.865525 107.126389 6,100 272 258 -512
2022-06-27 23:48:12 GMT 10.865479 107.128311 6,100 272 259 -576
2022-06-27 23:48:10 GMT 10.865479 107.129532 6,125 272 260 -512
2022-06-27 23:48:07 GMT 10.865385 107.133278 6,125 271 261 -512
2022-06-27 23:48:06 GMT 10.865387 107.134506 6,150 271 262 -512
2022-06-27 23:48:04 GMT 10.865292 107.138336 6,175 271 263 -576
2022-06-27 23:48:02 GMT 10.865295 107.139763 6,175 271 264 -576
2022-06-27 23:48:01 GMT 10.865199 107.143784 6,200 271 265 -640
2022-06-27 23:47:59 GMT 10.865199 107.143784 6,200 271 266 -640
2022-06-27 23:47:58 GMT 10.865204 107.144974 6,200 271 266 -640
2022-06-27 23:47:56 GMT 10.865158 107.147476 6,225 272 267 -640
2022-06-27 23:47:55 GMT 10.865153 107.148788 6,225 272 268 -640
2022-06-27 23:47:54 GMT 10.865067 107.151505 6,250 272 268 -640
2022-06-27 23:47:52 GMT 10.865060 107.152885 6,275 272 269 -640
2022-06-27 23:47:51 GMT 10.864966 107.155487 6,275 272 270 -640
2022-06-27 23:47:49 GMT 10.864975 107.156853 6,300 272 271 -576
2022-06-27 23:47:48 GMT 10.864920 107.157997 6,300 272 271 -576
2022-06-27 23:47:46 GMT 10.864873 107.160645 6,325 272 272 -640
2022-06-27 23:47:45 GMT 10.864838 107.161827 6,325 272 273 -640
2022-06-27 23:47:43 GMT 10.864792 107.164246 6,350 272 274 -576
2022-06-27 23:47:42 GMT 10.864734 107.165749 6,350 272 275 -512
2022-06-27 23:47:41 GMT 10.864700 107.167038 6,350 272 275 -576
2022-06-27 23:47:40 GMT 10.864687 107.168304 6,375 272 276 -576
2022-06-27 23:47:38 GMT 10.864641 107.170959 6,375 272 277 -640
2022-06-27 23:47:36 GMT 10.864609 107.172768 6,400 272 277 -640
2022-06-27 23:47:35 GMT 10.864563 107.174759 6,400 272 279 -576
2022-06-27 23:47:34 GMT 10.864547 107.176018 6,425 272 279 -576
2022-06-27 23:47:33 GMT 10.864517 107.177460 6,425 272 280 -576
2022-06-27 23:47:31 GMT 10.864426 107.180107 6,450 272 281 -576
2022-06-27 23:47:30 GMT 10.864408 107.181412 6,450 272 282 -576
2022-06-27 23:47:29 GMT 10.864361 107.184067 6,475 272 283 -576
2022-06-27 23:47:26 GMT 10.864288 107.186028 6,475 272 283 -576
2022-06-27 23:47:25 GMT 10.864268 107.187485 6,475 272 284 -576
2022-06-27 23:47:24 GMT 10.864222 107.189941 6,500 272 286 -576
2022-06-27 23:47:22 GMT 10.864197 107.191330 6,500 272 286 -576
2022-06-27 23:47:21 GMT 10.864175 107.192688 6,525 272 287 -576
2022-06-27 23:47:19 GMT 10.864082 107.195335 6,525 272 289 -640
2022-06-27 23:47:18 GMT 10.864059 107.196587 6,525 272 289 -704
2022-06-27 23:47:17 GMT 10.864035 107.197990 6,550 272 289 -704
2022-06-27 23:47:15 GMT 10.863989 107.200829 6,575 272 290 -832
2022-06-27 23:47:14 GMT 10.863922 107.202225 6,575 272 291 -896
2022-06-27 23:47:13 GMT 10.863896 107.203674 6,600 272 291 -960
2022-06-27 23:47:11 GMT 10.863849 107.206566 6,625 271 292 -960
2022-06-27 23:47:10 GMT 10.863831 107.207909 6,625 271 293 -960
2022-06-27 23:47:09 GMT 10.863803 107.209122 6,650 271 293 -1024
2022-06-27 23:47:08 GMT 10.863739 107.212120 6,675 271 294 -1024
2022-06-27 23:47:06 GMT 10.863710 107.213936 6,700 271 294 -1024
2022-06-27 23:47:05 GMT 10.863693 107.215431 6,725 271 295 -1024
2022-06-27 23:47:04 GMT 10.863663 107.216881 6,725 271 295 -1024
2022-06-27 23:47:01 GMT 10.863556 107.221161 6,775 272 296 -1088
2022-06-27 23:46:59 GMT 10.863523 107.222511 6,800 272 296 -1152
2022-06-27 23:46:57 GMT 10.863477 107.225357 6,825 272 297 -1280
2022-06-27 23:46:35 GMT 10.862825 107.256439 7,400 271 296 -1664
2022-06-27 23:46:30 GMT 10.862639 107.264488 7,575 271 297 -1408
2022-06-27 23:46:20 GMT 10.862360 107.278603 7,750 272 299 -1280
2022-06-27 23:45:56 GMT 10.861522 107.312523 8,300 272 300 -1472
2022-06-27 23:45:47 GMT 10.861103 107.325874 8,550 272 299 -2112
2022-06-27 23:45:37 GMT 10.860672 107.339554 8,850 272 297 -1792
2022-06-27 23:45:30 GMT 10.860358 107.349434 9,050 272 296 -960
2022-06-27 23:45:26 GMT 10.860218 107.354111 9,100 272 296 -256
2022-06-27 23:45:20 GMT 10.860078 107.363312 9,125 271 298 -192
2022-06-27 23:45:16 GMT 10.860031 107.369476 9,125 270 299 -192
2022-06-27 23:45:05 GMT 10.860626 107.384445 9,125 263 298 192
2022-06-27 23:44:59 GMT 10.862183 107.392822 9,125 251 300 320
2022-06-27 23:44:53 GMT 10.864547 107.399406 9,125 221 306 448
2022-06-27 23:44:48 GMT 10.868042 107.405846 9,100 221 306 448
2022-06-27 23:44:45 GMT 10.870880 107.409775 9,100 221 306 448
2022-06-27 23:44:41 GMT 10.874680 107.413948 9,100 221 306 448
2022-06-27 23:44:40 GMT 10.875627 107.414871 9,100 221 306 448
2022-06-27 23:44:37 GMT 10.877908 107.416893 9,125 219 306 448
2022-06-27 23:44:35 GMT 10.880096 107.418678 9,125 217 306 448
2022-06-27 23:44:33 GMT 10.881912 107.420006 9,125 216 306 384
2022-06-27 23:44:32 GMT 10.883560 107.421242 9,125 216 306 320
2022-06-27 23:44:31 GMT 10.884891 107.422150 9,125 215 307 128
2022-06-27 23:44:30 GMT 10.886124 107.423035 9,125 215 306 64
2022-06-27 23:44:29 GMT 10.888550 107.424698 9,125 215 307 0
2022-06-27 23:44:27 GMT 10.889779 107.425568 9,125 215 307 0
2022-06-27 23:44:26 GMT 10.890976 107.426353 9,125 215 306 0
2022-06-27 23:44:24 GMT 10.894341 107.428703 9,125 215 307 0
2022-06-27 23:44:23 GMT 10.894341 107.428703 9,125 215 307 0
2022-06-27 23:44:22 GMT 10.895462 107.429482 9,125 215 307 0
2022-06-27 23:44:21 GMT 10.897797 107.431091 9,125 215 307 0
2022-06-27 23:44:19 GMT 10.898996 107.431885 9,125 215 307 0
2022-06-27 23:44:16 GMT 10.903977 107.435303 9,125 215 306 0
2022-06-27 23:44:12 GMT 10.907364 107.437622 9,125 215 306 0
2022-06-27 23:44:11 GMT 10.908446 107.438385 9,125 215 306 0
2022-06-27 23:44:10 GMT 10.911332 107.440361 9,125 214 306 0
2022-06-27 23:44:09 GMT 10.911332 107.440361 9,125 214 306 64
2022-06-27 23:44:08 GMT 10.913910 107.442123 9,125 214 306 64
2022-06-27 23:44:05 GMT 10.917477 107.444557 9,125 214 306 64
2022-06-27 23:44:02 GMT 10.919712 107.446045 9,125 215 305 0
2022-06-27 23:44:01 GMT 10.921326 107.447189 9,125 215 305 0
2022-06-27 23:44:00 GMT 10.923523 107.448654 9,125 215 305 -64
2022-06-27 23:43:58 GMT 10.924693 107.449471 9,125 215 305 0
2022-06-27 23:43:57 GMT 10.925949 107.450317 9,125 215 305 0
2022-06-27 23:43:55 GMT 10.927765 107.451538 9,125 215 305 -64
2022-06-27 23:43:54 GMT 10.928925 107.452347 9,125 215 304 0
2022-06-27 23:43:53 GMT 10.930046 107.453133 9,125 215 304 0
2022-06-27 23:43:51 GMT 10.932514 107.454819 9,125 215 304 64
2022-06-27 23:43:49 GMT 10.936238 107.457375 9,125 215 304 64
2022-06-27 23:43:47 GMT 10.937439 107.458176 9,125 215 303 64
2022-06-27 23:43:46 GMT 10.939357 107.459541 9,125 215 303 64
2022-06-27 23:43:44 GMT 10.941266 107.460793 9,100 215 303 64
2022-06-27 23:43:41 GMT 10.944198 107.462868 9,100 215 303 64
2022-06-27 23:43:40 GMT 10.944901 107.463341 9,100 215 302 64
2022-06-27 23:43:39 GMT 10.946573 107.464455 9,100 215 302 0
2022-06-27 23:43:37 GMT 10.949066 107.466179 9,100 215 302 0
2022-06-27 23:43:36 GMT 10.950297 107.467056 9,100 215 302 0
2022-06-27 23:43:35 GMT 10.952950 107.468887 9,100 215 302 0
2022-06-27 23:43:32 GMT 10.956253 107.471153 9,100 215 301 0
2022-06-27 23:43:29 GMT 10.959183 107.473137 9,100 215 300 0
2022-06-27 23:43:21 GMT 10.967972 107.479202 9,100 215 300 -64
2022-06-27 23:43:17 GMT 10.971850 107.481895 9,100 215 300 -128
2022-06-27 23:43:12 GMT 10.978973 107.486763 9,125 215 300 -256
2022-06-27 23:43:08 GMT 10.984085 107.490280 9,150 215 301 -384
2022-06-27 23:42:59 GMT 10.992752 107.496208 9,200 215 301 -896
2022-06-27 23:42:56 GMT 10.997035 107.499100 9,250 214 302 -1280
2022-06-27 23:42:49 GMT 11.004111 107.503922 9,375 214 302 -1344
2022-06-27 23:42:45 GMT 11.009371 107.507484 9,450 214 302 -1344
2022-06-27 23:42:35 GMT 11.022079 107.516090 9,700 214 302 -1408
2022-06-27 23:42:25 GMT 11.034696 107.524590 9,900 214 304 -1216
2022-06-27 23:42:18 GMT 11.041446 107.529167 10,025 214 305 -1088
2022-06-27 23:42:14 GMT 11.047125 107.532928 10,100 214 306 -896
2022-06-27 23:42:06 GMT 11.056824 107.539436 10,175 214 310 -576
2022-06-27 23:40:55 GMT 11.146912 107.600243 11,325 214 340 -1792
2022-06-27 23:40:36 GMT 11.179092 107.622070 11,675 214 341 -1408
2022-06-27 23:40:31 GMT 11.179092 107.622070 11,900 214 344 -1216
2022-06-27 23:40:22 GMT 11.188889 107.628700 12,050 214 347 -1920
2022-06-27 23:40:20 GMT 11.191727 107.630592 12,100 214 347 -1920
2022-06-27 23:40:18 GMT 11.194336 107.632393 12,150 214 347 -1984
2022-06-27 23:40:16 GMT 11.197128 107.634285 12,225 214 346 -2048
2022-06-27 23:39:47 GMT 11.237503 107.661568 13,175 214 344 -1664
2022-06-27 23:39:45 GMT 11.241155 107.664040 13,250 215 344 -1536
2022-06-27 23:39:42 GMT 11.242538 107.664970 13,275 215 345 -1536
2022-06-27 23:39:25 GMT 11.265781 107.681000 13,725 215 346 -1728
2022-06-27 23:39:23 GMT 11.268528 107.682884 13,775 215 347 -1728
2022-06-27 23:39:19 GMT 11.274033 107.686707 13,900 215 347 -1792
2022-06-27 23:39:18 GMT 11.275511 107.687698 13,925 215 348 -1792
2022-06-27 23:39:17 GMT 11.277054 107.688789 13,950 215 348 -1792
2022-06-27 23:39:15 GMT 11.279709 107.690643 14,000 215 348 -1792
2022-06-27 23:39:14 GMT 11.280864 107.691460 14,025 215 348 -1664
2022-06-27 23:39:13 GMT 11.283704 107.693436 14,100 215 348 -1664
2022-06-27 23:39:11 GMT 11.284927 107.694283 14,100 215 348 -1664
2022-06-27 23:39:09 GMT 11.288964 107.697098 14,200 215 349 -1664
2022-06-27 23:39:08 GMT 11.288964 107.697098 14,200 215 349 -1664
2022-06-27 23:39:05 GMT 11.294411 107.700851 14,300 215 349 -1600
2022-06-27 23:39:04 GMT 11.294411 107.700851 14,300 215 350 -1600
2022-06-27 23:39:02 GMT 11.296785 107.702538 14,350 215 350 -1536
2022-06-27 23:39:01 GMT 11.298294 107.703568 14,375 215 350 -1472
2022-06-27 23:38:59 GMT 11.301041 107.705513 14,425 215 351 -1408
2022-06-27 23:38:58 GMT 11.302371 107.706398 14,425 215 351 -1408
2022-06-27 23:38:56 GMT 11.305118 107.708321 14,475 215 352 -1408
2022-06-27 23:38:55 GMT 11.310564 107.712128 14,575 215 352 -1472
2022-06-27 23:38:51 GMT 11.310564 107.712128 14,575 215 353 -1536
2022-06-27 23:38:50 GMT 11.311935 107.713036 14,600 215 353 -1536
2022-06-27 23:38:48 GMT 11.315778 107.715698 14,650 215 354 -1536
2022-06-27 23:38:46 GMT 11.318478 107.717575 14,675 215 354 -1536
2022-06-27 23:38:45 GMT 11.319809 107.718529 14,725 215 354 -1600
2022-06-27 23:38:44 GMT 11.321877 107.719933 14,775 215 354 -1600
2022-06-27 23:38:42 GMT 11.324018 107.721382 14,800 215 355 -1600
2022-06-27 23:38:40 GMT 11.325439 107.722366 14,850 215 355 -1536
2022-06-27 23:38:38 GMT 11.328278 107.724312 14,875 215 356 -1472
2022-06-27 23:38:37 GMT 11.329651 107.725281 14,900 215 356 -1472
2022-06-27 23:38:36 GMT 11.331299 107.726395 14,950 215 356 -1472
2022-06-27 23:38:33 GMT 11.336029 107.729668 15,025 215 357 -1664
2022-06-27 23:38:29 GMT 11.341382 107.733330 15,100 214 358 -1792
2022-06-27 23:38:25 GMT 11.346922 107.737137 15,225 215 358 -1856
2022-06-27 23:38:24 GMT 11.348419 107.738136 15,250 215 358 -1856
2022-06-27 23:38:22 GMT 11.351344 107.740173 15,325 215 358 -1792
2022-06-27 23:38:21 GMT 11.352601 107.740990 15,325 215 358 -1792
2022-06-27 23:38:20 GMT 11.355301 107.742874 15,400 215 358 -1792
2022-06-27 23:38:17 GMT 11.357768 107.744560 15,450 215 359 -1792
2022-06-27 23:38:15 GMT 11.360748 107.746628 15,500 215 360 -1792
2022-06-27 23:38:11 GMT 11.366334 107.750435 15,625 215 360 -1792
2022-06-27 23:38:10 GMT 11.367691 107.751396 15,650 215 360 -1728
2022-06-27 23:38:09 GMT 11.369339 107.752533 15,675 215 360 -1728
2022-06-27 23:38:08 GMT 11.371129 107.753761 15,725 215 360 -1664
2022-06-27 23:38:05 GMT 11.374924 107.756371 15,775 215 360 -1600
2022-06-27 23:38:04 GMT 11.377808 107.758308 15,825 214 361 -1536
2022-06-27 23:38:00 GMT 11.380600 107.760254 15,875 215 362 -1536
2022-06-27 23:37:58 GMT 11.385933 107.763931 15,975 215 363 -1664
2022-06-27 23:37:56 GMT 11.387283 107.764847 16,000 215 363 -1664
2022-06-27 23:37:55 GMT 11.391724 107.767921 16,075 215 363 -1856
2022-06-27 23:37:52 GMT 11.391724 107.767921 16,075 216 363 -1984
2022-06-27 23:37:50 GMT 11.395941 107.770966 16,150 217 364 -2240
2022-06-27 23:37:48 GMT 11.398453 107.772850 16,200 218 363 -2368
2022-06-27 23:37:47 GMT 11.399759 107.773903 16,250 219 363 -2432
2022-06-27 23:37:46 GMT 11.401016 107.774887 16,275 219 363 -2432
2022-06-27 23:37:45 GMT 11.402319 107.775925 16,300 221 364 -2432
2022-06-27 23:37:43 GMT 11.404879 107.778046 16,375 221 363 -2496
2022-06-27 23:37:42 GMT 11.406281 107.779289 16,400 223 363 -2560
2022-06-27 23:37:41 GMT 11.408976 107.781616 16,475 224 363 -2624
2022-06-27 23:37:38 GMT 11.411490 107.784019 16,550 224 363 -2624
2022-06-27 23:37:37 GMT 11.412607 107.785179 16,575 226 363 -2624
2022-06-27 23:37:36 GMT 11.413742 107.786301 16,600 227 363 -2624
2022-06-27 23:37:35 GMT 11.414795 107.787392 16,625 228 363 -2560
2022-06-27 23:37:32 GMT 11.418137 107.790939 16,725 229 363 -2368
2022-06-27 23:37:31 GMT 11.419310 107.792259 16,775 229 363 -2176
2022-06-27 23:37:29 GMT 11.421638 107.794960 16,825 230 363 -2048
2022-06-27 23:37:27 GMT 11.423780 107.797462 16,900 230 364 -1664
2022-06-27 23:37:26 GMT 11.426107 107.800262 16,950 230 365 -1536
2022-06-27 23:37:24 GMT 11.427246 107.801590 16,975 230 365 -1472
2022-06-27 23:37:21 GMT 11.430669 107.805656 17,050 230 366 -1472
2022-06-27 23:37:20 GMT 11.431926 107.807152 17,075 230 366 -1472
2022-06-27 23:37:17 GMT 11.434300 107.809944 17,100 230 367 -1600
2022-06-27 23:37:16 GMT 11.436035 107.812057 17,150 230 368 -1600
2022-06-27 23:37:14 GMT 11.437729 107.814095 17,200 230 368 -1664
2022-06-27 23:37:13 GMT 11.438769 107.815292 17,200 230 368 -1664
2022-06-27 23:37:12 GMT 11.439926 107.816650 17,250 230 368 -1664
2022-06-27 23:37:10 GMT 11.442352 107.819542 17,300 230 368 -1728
2022-06-27 23:37:08 GMT 11.444870 107.822525 17,350 230 368 -1792
2022-06-27 23:37:06 GMT 11.447113 107.825127 17,400 230 370 -1856
2022-06-27 23:37:04 GMT 11.450407 107.829079 17,500 230 370 -1920
2022-06-27 23:36:57 GMT 11.458145 107.838196 17,700 230 370 -2176
2022-06-27 23:36:54 GMT 11.460388 107.840805 17,775 230 370 -2176
2022-06-27 23:36:53 GMT 11.461440 107.842041 17,800 230 370 -2176
2022-06-27 23:36:51 GMT 11.464966 107.846245 17,900 230 370 -2048
2022-06-27 23:36:49 GMT 11.466095 107.847534 17,950 230 370 -2048
2022-06-27 23:36:48 GMT 11.467255 107.848946 17,975 230 370 -1984
2022-06-27 23:36:45 GMT 11.470611 107.852882 18,075 230 371 -1728
2022-06-27 23:36:43 GMT 11.472892 107.855629 18,125 230 371 -1664
2022-06-27 23:36:40 GMT 11.477221 107.860687 18,225 230 373 -1664
2022-06-27 23:36:35 GMT 11.481644 107.865891 18,325 230 373 -1728
2022-06-27 23:36:32 GMT 11.485245 107.870163 18,400 230 373 -1728
2022-06-27 23:36:31 GMT 11.486439 107.871529 18,425 230 375 -1728
2022-06-27 23:36:27 GMT 11.491047 107.877022 18,550 230 375 -1728
2022-06-27 23:36:25 GMT 11.495004 107.881645 18,625 230 376 -1728
2022-06-27 23:36:23 GMT 11.496140 107.882904 18,675 230 376 -1728
2022-06-27 23:36:21 GMT 11.497472 107.884491 18,700 230 376 -1792
2022-06-27 23:36:20 GMT 11.498520 107.885742 18,725 230 376 -1856
2022-06-27 23:36:18 GMT 11.500900 107.888535 18,775 230 377 -1856
2022-06-27 23:36:16 GMT 11.503143 107.891190 18,825 230 377 -1984
2022-06-27 23:36:15 GMT 11.504361 107.892586 18,875 230 377 -2048
2022-06-27 23:36:14 GMT 11.508877 107.897888 18,925 230 378 -2112
2022-06-27 23:36:12 GMT 11.508877 107.897888 19,000 230 378 -2176
2022-06-27 23:36:10 GMT 11.511112 107.900581 19,050 230 378 -2176
2022-06-27 23:36:08 GMT 11.513299 107.903137 19,125 230 378 -2176
2022-06-27 23:36:07 GMT 11.514587 107.904686 19,150 230 378 -2176
2022-06-27 23:36:06 GMT 11.515674 107.905930 19,200 230 378 -2176
2022-06-27 23:36:04 GMT 11.518094 107.908821 19,250 230 378 -2176
2022-06-27 23:36:02 GMT 11.520375 107.911476 19,325 230 379 -2048
2022-06-27 23:35:59 GMT 11.523834 107.915573 19,425 230 379 -2048
2022-06-27 23:35:56 GMT 11.526306 107.918510 19,500 230 379 -1984
2022-06-27 23:35:55 GMT 11.527544 107.920006 19,525 230 379 -1984
2022-06-27 23:35:54 GMT 11.528687 107.921303 19,575 230 380 -1856
2022-06-27 23:35:52 GMT 11.531021 107.924103 19,625 230 380 -1856
2022-06-27 23:35:50 GMT 11.533173 107.926605 19,675 230 380 -1792
2022-06-27 23:35:48 GMT 11.537704 107.931961 19,775 230 381 -1408
2022-06-27 23:35:45 GMT 11.538903 107.933350 19,800 230 382 -1344
2022-06-27 23:35:44 GMT 11.540222 107.934944 19,825 230 382 -1280
2022-06-27 23:35:43 GMT 11.543745 107.939087 19,900 230 382 -1088
2022-06-27 23:35:41 GMT 11.543745 107.939087 19,900 230 382 -960
2022-06-27 23:35:38 GMT 11.548167 107.944290 19,950 230 385 -448
2022-06-27 23:35:37 GMT 11.549286 107.945602 19,950 230 385 -448
2022-06-27 23:35:15 GMT 11.573771 107.974548 20,000 230 382 64
2022-06-27 23:34:28 GMT 11.629075 108.039795 20,000 230 381 64
2022-06-27 23:34:26 GMT 11.631317 108.042488 20,000 230 381 64
2022-06-27 23:34:23 GMT 11.634979 108.046799 20,000 230 381 64
2022-06-27 23:34:22 GMT 11.636197 108.048225 20,000 230 381 64
2022-06-27 23:34:20 GMT 11.638758 108.051208 19,975 230 380 0
2022-06-27 23:34:18 GMT 11.640713 108.053528 19,975 230 380 0
2022-06-27 23:34:12 GMT 11.647293 108.061241 20,000 230 379 0
2022-06-27 23:34:08 GMT 11.651917 108.066689 20,000 230 377 0
2022-06-27 23:34:06 GMT 11.653142 108.068123 20,000 230 377 0
2022-06-27 23:34:05 GMT 11.655610 108.071014 20,000 230 377 -64
2022-06-27 23:34:03 GMT 11.656631 108.072227 19,975 230 377 -64
2022-06-27 23:34:01 GMT 11.751572 108.184456 20,000 230 377 -128
2022-06-27 23:32:42 GMT 11.751572 108.184456 21,750 230 387 -2688
2022-06-27 23:32:37 GMT 11.758438 108.192551 21,950 230 386 -2624
2022-06-27 23:32:29 GMT 11.766869 108.202469 22,275 230 385 -2368
2022-06-27 23:32:24 GMT 11.772629 108.209320 22,450 230 386 -1792
2022-06-27 23:32:19 GMT 11.778414 108.216103 22,600 230 387 -1856
2022-06-27 23:32:16 GMT 11.782013 108.220352 22,675 230 388 -1856
2022-06-27 23:32:15 GMT 11.786911 108.226128 22,800 230 389 -1792
2022-06-27 23:32:11 GMT 11.786911 108.226128 22,800 230 389 -1664
2022-06-27 23:32:06 GMT 11.793320 108.233749 22,950 230 391 -1792
2022-06-27 23:32:04 GMT 11.796942 108.238029 23,025 230 392 -1984
2022-06-27 23:32:01 GMT 11.799410 108.240967 23,075 230 392 -2048
2022-06-27 23:32:00 GMT 11.800690 108.242516 23,125 230 392 -2112
2022-06-27 23:31:57 GMT 11.804204 108.246704 23,200 230 393 -2176
2022-06-27 23:31:54 GMT 11.807602 108.250710 23,300 230 393 -2240
2022-06-27 23:31:53 GMT 11.812225 108.256203 23,450 230 393 -2304
2022-06-27 23:31:51 GMT 11.812225 108.256203 23,450 230 393 -2304
2022-06-27 23:31:40 GMT 11.824493 108.270737 23,800 230 393 -2496
2022-06-27 23:31:38 GMT 11.828225 108.275131 23,925 230 393 -2624
2022-06-27 23:31:36 GMT 11.830646 108.278023 23,975 230 393 -2624
2022-06-27 23:31:33 GMT 11.835162 108.283417 24,175 230 393 -2496
2022-06-27 23:31:31 GMT 11.836304 108.284805 24,200 230 393 -2496
2022-06-27 23:31:28 GMT 11.838730 108.287643 24,300 230 393 -2432
2022-06-27 23:31:27 GMT 11.840096 108.289299 24,325 230 393 -2368
2022-06-27 23:31:26 GMT 11.841248 108.290718 24,375 230 393 -2368
2022-06-27 23:31:25 GMT 11.843674 108.293610 24,450 230 393 -2240
2022-06-27 23:31:22 GMT 11.845871 108.296265 24,500 231 393 -2112
2022-06-27 23:31:20 GMT 11.848114 108.299011 24,575 231 393 -1920
2022-06-27 23:31:18 GMT 11.851548 108.303177 24,675 231 394 -1792
2022-06-27 23:31:16 GMT 11.852829 108.304741 24,700 231 394 -1792
2022-06-27 23:31:14 GMT 11.855301 108.307724 24,750 231 394 -1792
2022-06-27 23:31:12 GMT 11.857635 108.310654 24,800 231 395 -1728
2022-06-27 23:31:11 GMT 11.858764 108.311989 24,825 231 396 -1536
2022-06-27 23:31:10 GMT 11.863046 108.317291 24,875 231 397 -1472
2022-06-27 23:31:08 GMT 11.863046 108.317291 24,925 231 398 -1344
2022-06-27 23:31:06 GMT 11.865514 108.320229 24,975 231 399 -1344
2022-06-27 23:31:05 GMT 11.869171 108.324768 25,025 231 400 -1344
2022-06-27 23:31:01 GMT 11.870215 108.326065 25,050 231 401 -1344
2022-06-27 23:31:00 GMT 11.871506 108.327606 25,075 231 402 -1344
2022-06-27 23:30:59 GMT 11.873978 108.330688 25,100 231 402 -1536
2022-06-27 23:30:57 GMT 11.875290 108.332275 25,125 231 403 -1600
2022-06-27 23:30:56 GMT 11.876450 108.333717 25,150 231 403 -1728
2022-06-27 23:30:55 GMT 11.878418 108.336090 25,200 231 404 -1792
2022-06-27 23:30:53 GMT 11.880271 108.338402 25,250 231 404 -1856
2022-06-27 23:30:51 GMT 11.882924 108.341629 25,300 231 405 -1920
2022-06-27 23:30:49 GMT 11.885345 108.344666 25,375 231 405 -1920
2022-06-27 23:30:47 GMT 11.887719 108.347549 25,425 231 406 -1856
2022-06-27 23:30:46 GMT 11.890326 108.350784 25,500 231 407 -1792
2022-06-27 23:30:44 GMT 11.891006 108.351616 25,500 231 407 -1792
2022-06-27 23:30:42 GMT 11.893021 108.354126 25,550 231 407 -1728
2022-06-27 23:30:41 GMT 11.895401 108.357109 25,600 231 408 -1664
2022-06-27 23:30:39 GMT 11.896471 108.358398 25,625 231 409 -1664
2022-06-27 23:30:38 GMT 11.897781 108.360001 25,650 231 409 -1664
2022-06-27 23:30:36 GMT 11.900116 108.362892 25,700 231 410 -1600
2022-06-27 23:30:34 GMT 11.903780 108.367455 25,775 231 411 -1472
2022-06-27 23:30:32 GMT 11.905014 108.368996 25,800 231 411 -1408
2022-06-27 23:30:30 GMT 11.908668 108.373573 25,875 231 412 -1024
2022-06-27 23:30:28 GMT 11.910828 108.376244 25,900 231 413 -832
2022-06-27 23:30:27 GMT 11.913369 108.379402 25,950 231 415 -448
2022-06-27 23:30:25 GMT 11.914673 108.381027 25,950 231 415 -448
2022-06-27 23:30:24 GMT 11.915883 108.382538 25,975 231 415 -384
2022-06-27 23:30:23 GMT 11.918350 108.385620 25,975 231 415 -128
2022-06-27 23:30:21 GMT 11.919571 108.387184 26,000 231 415 -64
2022-06-27 23:30:19 GMT 11.921951 108.390068 26,000 231 416 0
2022-06-27 23:30:17 GMT 11.927987 108.397621 26,000 231 416 64
2022-06-27 23:30:13 GMT 11.927987 108.397621 26,000 231 416 0
2022-06-27 23:30:12 GMT 11.929276 108.399208 26,000 231 416 0
2022-06-27 23:30:09 GMT 11.932755 108.403564 26,000 231 417 0
2022-06-27 23:30:08 GMT 11.934039 108.405136 26,000 231 417 0
2022-06-27 23:30:07 GMT 11.936646 108.408447 26,000 231 417 64
2022-06-27 23:30:05 GMT 11.937949 108.410004 26,000 231 417 64
2022-06-27 23:30:02 GMT 11.941910 108.414978 26,000 231 417 0
2022-06-27 23:30:00 GMT 11.955872 108.432411 26,000 231 417 0
2022-06-27 23:29:51 GMT 11.955872 108.432411 26,000 232 418 0
2022-06-27 23:29:45 GMT 11.963287 108.441689 26,000 231 417 0
2022-06-27 23:29:44 GMT 11.964340 108.443062 26,000 232 418 0
2022-06-27 23:29:40 GMT 11.969238 108.449173 26,000 231 417 0
2022-06-27 23:29:38 GMT 11.973003 108.453896 26,000 231 417 -64
2022-06-27 23:29:36 GMT 11.974228 108.455421 26,000 231 417 -64
2022-06-27 23:29:33 GMT 11.979263 108.461716 26,000 231 417 0
2022-06-27 23:29:30 GMT 11.981894 108.464981 26,000 231 417 0
2022-06-27 23:29:29 GMT 11.983109 108.466499 26,000 231 417 64
2022-06-27 23:29:28 GMT 11.985580 108.469627 26,000 231 417 0
2022-06-27 23:29:26 GMT 11.986633 108.470955 26,000 231 417 0
2022-06-27 23:29:25 GMT 11.987806 108.472450 26,000 231 417 0
2022-06-27 23:29:24 GMT 11.989059 108.473984 26,000 231 417 0
2022-06-27 23:29:20 GMT 11.993866 108.479996 26,000 231 417 0
2022-06-27 23:29:18 GMT 11.996512 108.483292 26,000 231 416 0
2022-06-27 23:29:17 GMT 12.000183 108.487907 26,000 231 417 0
2022-06-27 23:29:14 GMT 12.001282 108.489281 26,000 231 417 0
2022-06-27 23:29:13 GMT 12.002517 108.490761 26,000 231 417 0
2022-06-27 23:29:12 GMT 12.004845 108.493698 26,000 231 417 0
2022-06-27 23:29:10 GMT 12.006088 108.495247 26,000 231 417 0
2022-06-27 23:29:06 GMT 12.011124 108.501549 26,000 232 418 64
2022-06-27 23:28:29 GMT 12.056099 108.558029 26,000 231 419 0
2022-06-27 23:28:26 GMT 12.059509 108.562347 26,000 231 419 0
2022-06-27 23:28:25 GMT 12.060940 108.564102 26,000 231 419 0
2022-06-27 23:28:24 GMT 12.062210 108.565712 26,000 231 419 0
2022-06-27 23:28:23 GMT 12.063407 108.567230 26,000 231 419 0
2022-06-27 23:28:21 GMT 12.065921 108.570366 26,000 231 419 0
2022-06-27 23:28:20 GMT 12.066971 108.571678 26,000 231 419 0
2022-06-27 23:28:19 GMT 12.068109 108.573112 26,000 231 419 0
2022-06-27 23:28:17 GMT 12.071960 108.577927 26,000 231 419 0
2022-06-27 23:28:16 GMT 12.071960 108.577927 26,000 231 418 0
2022-06-27 23:28:15 GMT 12.076904 108.584129 26,000 231 418 0
2022-06-27 23:28:12 GMT 12.076904 108.584129 26,000 231 418 0
2022-06-27 23:28:11 GMT 12.079285 108.587112 26,000 231 418 0
2022-06-27 23:28:09 GMT 12.080678 108.588821 26,000 231 418 0
2022-06-27 23:28:07 GMT 12.082959 108.591713 26,000 231 418 0
2022-06-27 23:28:06 GMT 12.084229 108.593323 26,000 231 418 0
2022-06-27 23:28:05 GMT 12.085333 108.594696 26,000 231 418 0
2022-06-27 23:28:03 GMT 12.092782 108.603996 26,000 232 418 0
2022-06-27 23:28:00 GMT 12.092782 108.603996 26,000 232 418 0
2022-06-27 23:27:56 GMT 12.096588 108.608803 26,000 232 418 0
2022-06-27 23:27:53 GMT 12.100323 108.613441 26,000 232 418 0
2022-06-27 23:27:51 GMT 12.102511 108.616188 26,000 232 418 0
2022-06-27 23:27:50 GMT 12.103500 108.617470 26,000 232 418 0
2022-06-27 23:27:49 GMT 12.108261 108.623436 26,000 232 418 0
2022-06-27 23:27:46 GMT 12.108261 108.623436 26,000 232 418 -64
2022-06-27 23:27:44 GMT 12.110825 108.626656 26,000 232 418 -64
2022-06-27 23:27:43 GMT 12.113205 108.629639 26,000 232 418 -64
2022-06-27 23:27:41 GMT 12.114522 108.631271 26,000 232 418 -64
2022-06-27 23:27:40 GMT 12.115814 108.632904 26,000 232 418 0
2022-06-27 23:27:38 GMT 12.119316 108.637291 26,000 232 418 0
2022-06-27 23:27:36 GMT 12.125427 108.644981 26,000 232 417 0
2022-06-27 23:27:33 GMT 12.125427 108.644981 26,000 232 417 0
2022-06-27 23:27:32 GMT 12.126579 108.646446 26,000 232 417 0
2022-06-27 23:27:31 GMT 12.127899 108.648109 26,000 232 417 0
2022-06-27 23:27:15 GMT 12.147537 108.672874 26,000 232 418 0
2022-06-27 23:27:14 GMT 12.148738 108.674347 26,000 232 418 0
2022-06-27 23:27:08 GMT 12.155182 108.682487 26,000 232 418 0
2022-06-27 23:27:06 GMT 12.157516 108.685425 26,000 232 418 0
2022-06-27 23:27:03 GMT 12.160981 108.689766 26,000 232 418 0
2022-06-27 23:27:02 GMT 12.163401 108.692848 26,000 232 418 0
2022-06-27 23:27:00 GMT 12.164520 108.694283 26,000 232 418 0
2022-06-27 23:26:55 GMT 12.170896 108.702347 26,000 232 419 0
2022-06-27 23:26:52 GMT 12.174316 108.706589 26,000 232 419 0
2022-06-27 23:26:47 GMT 12.180393 108.714249 26,000 232 419 64
2022-06-27 23:26:46 GMT 12.181641 108.715874 26,000 232 419 64
2022-06-27 23:26:45 GMT 12.183975 108.718811 26,000 232 419 0
2022-06-27 23:26:40 GMT 12.189194 108.725388 26,000 232 420 0
2022-06-27 23:26:39 GMT 12.190402 108.726921 26,000 232 420 0
2022-06-27 23:26:29 GMT 12.203343 108.743156 26,000 231 419 0
We lost coverage of the aircraft here for a total of 73 minutes
2022-06-27 22:13:02 GMT 14.034348 116.987206 38,000 266 463 64
2022-06-27 22:12:57 GMT 14.035583 117.001648 37,975 266 465 -320
2022-06-27 22:12:46 GMT 14.037548 117.025307 38,000 266 465 64
2022-06-27 22:12:34 GMT 14.039566 117.049286 38,000 266 464 -64
2022-06-27 22:12:24 GMT 14.041551 117.073105 38,000 266 463 -64
2022-06-27 22:12:14 GMT 14.043553 117.096336 38,000 266 460 0
2022-06-27 22:12:03 GMT 14.045563 117.119987 38,000 266 457 -64
2022-06-27 22:11:51 GMT 14.047510 117.143120 38,000 266 453 0
2022-06-27 22:11:42 GMT 14.049326 117.165337 38,000 266 451 -64
2022-06-27 22:11:31 GMT 14.051285 117.188889 38,000 266 449 -128
2022-06-27 22:11:19 GMT 14.053190 117.211349 38,000 266 448 -64
2022-06-27 22:11:10 GMT 14.055098 117.233803 38,000 266 448 -128
2022-06-27 22:10:59 GMT 14.056961 117.256844 38,000 266 448 64
2022-06-27 22:10:48 GMT 14.058915 117.279488 38,000 266 448 -64
2022-06-27 22:10:37 GMT 14.060806 117.302254 38,000 266 449 64
2022-06-27 22:10:27 GMT 14.062729 117.325462 38,000 266 450 -64
2022-06-27 22:10:16 GMT 14.064641 117.348534 38,000 266 450 0
2022-06-27 22:10:04 GMT 14.066528 117.371109 38,000 266 450 64
2022-06-27 22:09:54 GMT 14.068459 117.394310 38,000 266 450 -64
2022-06-27 22:09:43 GMT 14.070511 117.419319 38,000 266 449 0
2022-06-27 22:09:33 GMT 14.072250 117.440392 38,000 266 450 -64
2022-06-27 22:09:22 GMT 14.074092 117.462738 38,000 266 451 64
2022-06-27 22:09:12 GMT 14.075954 117.485336 38,000 266 451 -128
2022-06-27 22:08:57 GMT 14.078568 117.516396 38,000 266 451 0
2022-06-27 22:08:50 GMT 14.079817 117.531258 38,000 266 451 0
2022-06-27 22:08:38 GMT 14.081772 117.554939 38,000 266 451 -64
2022-06-27 22:08:29 GMT 14.083681 117.577995 38,000 266 451 -64
2022-06-27 22:08:18 GMT 14.085543 117.600258 38,000 266 452 64
2022-06-27 22:08:07 GMT 14.087448 117.623421 38,000 265 453 64
2022-06-27 22:07:32 GMT 14.099258 117.697433 38,000 256 454 192
2022-06-27 22:07:21 GMT 14.105142 117.719177 38,000 253 454 128
2022-06-27 22:06:45 GMT 14.134369 117.793182 38,000 243 458 128
2022-06-27 22:06:42 GMT 14.138306 117.800995 38,000 242 458 64
2022-06-27 22:06:31 GMT 14.149429 117.820930 38,000 238 461 128
2022-06-27 22:06:20 GMT 14.162541 117.841766 38,000 236 462 0
2022-06-27 22:06:08 GMT 14.175842 117.861710 38,000 236 462 64
2022-06-27 22:05:58 GMT 14.188889 117.881226 38,000 236 462 -64
2022-06-27 22:05:48 GMT 14.200993 117.899300 38,000 236 461 0
2022-06-27 22:05:41 GMT 14.209900 117.912567 38,000 236 461 0
2022-06-27 22:05:35 GMT 14.215471 117.920937 38,000 236 461 0
2022-06-27 22:05:30 GMT 14.223012 117.932159 38,000 236 461 64
2022-06-27 22:05:26 GMT 14.227341 117.938568 38,000 236 461 -64
2022-06-27 22:05:15 GMT 14.241119 117.959160 38,000 236 461 -64
2022-06-27 22:05:08 GMT 14.249268 117.971527 38,000 237 460 -64
2022-06-27 22:05:05 GMT 14.253113 117.977493 38,000 237 461 0
2022-06-27 22:04:57 GMT 14.262405 117.991936 38,000 239 460 -320
2022-06-27 22:04:53 GMT 14.265933 117.997932 38,000 241 460 -448
2022-06-27 22:04:46 GMT 14.272934 118.011299 38,000 246 460 -320
2022-06-27 22:04:43 GMT 14.276550 118.019348 38,000 249 462 -256
2022-06-27 22:04:36 GMT 14.281854 118.033638 38,000 253 464 -320
2022-06-27 22:04:33 GMT 14.283783 118.039902 38,000 255 465 -384
2022-06-27 22:04:25 GMT 14.288086 118.057663 38,000 260 467 -256
2022-06-27 22:04:22 GMT 14.289023 118.062599 38,000 262 468 -448
2022-06-27 22:04:11 GMT 14.291816 118.086403 38,000 266 467 0
2022-06-27 22:04:05 GMT 14.293120 118.102448 38,000 266 467 0
2022-06-27 22:04:01 GMT 14.293808 118.110703 38,000 266 467 0
2022-06-27 22:03:54 GMT 14.295075 118.126541 38,000 266 468 0
2022-06-27 22:03:50 GMT 14.295727 118.134590 38,000 266 468 0
2022-06-27 22:03:42 GMT 14.296921 118.149765 38,000 266 468 64
2022-06-27 22:03:39 GMT 14.297562 118.157913 38,000 266 468 0
2022-06-27 22:03:32 GMT 14.298939 118.175308 38,000 266 468 0
2022-06-27 22:03:29 GMT 14.299497 118.182388 38,000 266 468 -128
2022-06-27 22:03:21 GMT 14.300858 118.199203 38,000 266 467 128
2022-06-27 22:03:17 GMT 14.301544 118.208389 38,000 266 467 0
2022-06-27 22:03:10 GMT 14.302643 118.222031 38,000 266 467 0
2022-06-27 22:03:05 GMT 14.303501 118.232651 38,000 266 466 0
2022-06-27 22:03:00 GMT 14.304479 118.245079 38,000 266 466 64
2022-06-27 22:02:56 GMT 14.305130 118.253555 38,000 266 466 -64
2022-06-27 22:02:50 GMT 14.306396 118.269005 38,000 266 466 0
2022-06-27 22:02:46 GMT 14.306992 118.276833 38,000 266 466 0
2022-06-27 22:02:39 GMT 14.308296 118.293411 38,000 266 465 -64
2022-06-27 22:02:35 GMT 14.308914 118.301163 38,000 266 465 0
2022-06-27 22:02:27 GMT 14.310158 118.316635 38,000 266 465 0
2022-06-27 22:02:24 GMT 14.310763 118.324249 38,000 266 465 0
2022-06-27 22:02:17 GMT 14.312073 118.341125 38,000 266 466 64
2022-06-27 22:02:14 GMT 14.312668 118.348518 38,000 266 466 64
2022-06-27 22:02:07 GMT 14.313812 118.363335 38,000 266 467 -64
2022-06-27 22:02:03 GMT 14.314545 118.372475 38,000 266 467 0
2022-06-27 22:01:55 GMT 14.315698 118.387367 38,000 266 467 0
2022-06-27 22:01:51 GMT 14.316513 118.397858 38,000 266 467 0
2022-06-27 22:01:45 GMT 14.317566 118.411400 38,000 266 467 0
2022-06-27 22:01:41 GMT 14.318207 118.419456 38,000 266 467 64
2022-06-27 22:01:35 GMT 14.319397 118.434563 38,000 266 467 0
2022-06-27 22:01:31 GMT 14.320167 118.443848 38,000 266 466 0
2022-06-27 22:01:23 GMT 14.321237 118.457771 38,000 266 466 0
2022-06-27 22:01:20 GMT 14.321982 118.467072 38,000 266 467 0
2022-06-27 22:01:14 GMT 14.323151 118.482056 38,000 266 467 0
2022-06-27 22:01:03 GMT 14.324982 118.505493 38,000 266 466 -64
2022-06-27 22:00:51 GMT 14.326870 118.529709 38,000 266 466 64
2022-06-27 22:00:42 GMT 14.328644 118.552567 38,000 266 466 0
2022-06-27 22:00:37 GMT 14.329524 118.563782 38,000 266 466 0
2022-06-27 22:00:31 GMT 14.330548 118.576836 38,000 266 467 0
2022-06-27 22:00:24 GMT 14.331618 118.590378 38,000 266 467 0
2022-06-27 22:00:19 GMT 14.332363 118.600159 38,000 266 467 0
2022-06-27 22:00:15 GMT 14.333267 118.612091 38,000 266 466 64
2022-06-27 22:00:10 GMT 14.334183 118.623741 38,000 266 466 0
2022-06-27 22:00:04 GMT 14.335063 118.635330 38,000 266 466 0
2022-06-27 21:59:59 GMT 14.336041 118.648293 38,000 266 466 0
2022-06-27 21:59:53 GMT 14.336739 118.657402 38,000 266 466 0
2022-06-27 21:59:47 GMT 14.337810 118.671234 38,000 266 466 -64
2022-06-27 21:59:42 GMT 14.338623 118.681702 38,000 266 466 0
2022-06-27 21:59:37 GMT 14.339676 118.695007 38,000 266 466 0
2022-06-27 21:59:33 GMT 14.340463 118.705490 38,000 266 466 0
2022-06-27 21:59:27 GMT 14.341461 118.718307 38,000 266 466 0
2022-06-27 21:59:22 GMT 14.342232 118.728722 38,000 266 466 -64
2022-06-27 21:59:15 GMT 14.343257 118.741676 38,000 266 466 0
2022-06-27 21:59:10 GMT 14.344116 118.753021 38,000 266 465 -64
2022-06-27 21:59:06 GMT 14.345123 118.765762 38,000 266 465 0
2022-06-27 21:59:00 GMT 14.346050 118.777817 38,000 266 465 0
2022-06-27 21:58:55 GMT 14.346909 118.789009 38,000 266 465 0
2022-06-27 21:58:50 GMT 14.347726 118.799698 38,000 266 465 64
2022-06-27 21:58:43 GMT 14.348796 118.813232 38,000 266 465 0
2022-06-27 21:58:39 GMT 14.349609 118.824196 38,000 266 465 64
2022-06-27 21:58:33 GMT 14.350616 118.837219 38,000 266 465 64
2022-06-27 21:58:28 GMT 14.351403 118.847397 38,000 266 465 64
2022-06-27 21:58:23 GMT 14.352381 118.860313 38,000 266 464 64
2022-06-27 21:58:18 GMT 14.353271 118.871552 38,000 266 463 64
2022-06-27 21:58:12 GMT 14.354103 118.882477 38,000 266 462 0
2022-06-27 21:58:07 GMT 14.355011 118.894234 38,000 266 460 0
2022-06-27 21:58:02 GMT 14.355927 118.906685 38,000 266 459 0
2022-06-27 21:57:55 GMT 14.356803 118.918327 38,000 266 457 0
2022-06-27 21:57:51 GMT 14.357666 118.929703 38,000 266 455 0
2022-06-27 21:57:45 GMT 14.358526 118.940781 38,000 266 454 0
2022-06-27 21:57:40 GMT 14.359410 118.952301 38,000 266 453 -64
2022-06-27 21:57:35 GMT 14.360321 118.964409 38,000 266 451 0
2022-06-27 21:57:30 GMT 14.361237 118.976112 38,000 266 450 64
2022-06-27 21:57:24 GMT 14.362110 118.987427 38,000 266 450 -64
2022-06-27 21:57:19 GMT 14.362930 118.998604 38,000 266 450 0
2022-06-27 21:57:13 GMT 14.363800 119.009827 38,000 266 449 0
2022-06-27 21:57:07 GMT 14.364671 119.021156 38,000 266 449 -64
2022-06-27 21:57:03 GMT 14.365555 119.033302 38,000 266 449 -64
2022-06-27 21:56:58 GMT 14.366346 119.043465 38,000 266 449 -64
2022-06-27 21:56:52 GMT 14.367278 119.056046 38,000 266 449 0
2022-06-27 21:56:47 GMT 14.368209 119.068039 38,000 266 449 0
2022-06-27 21:56:40 GMT 14.369064 119.079292 38,000 266 450 64
2022-06-27 21:56:36 GMT 14.369838 119.089439 38,000 266 452 64
2022-06-27 21:56:30 GMT 14.370769 119.102058 37,975 266 454 64
2022-06-27 21:56:26 GMT 14.371582 119.112724 37,975 266 455 64
2022-06-27 21:56:20 GMT 14.372491 119.124710 37,975 266 457 0
2022-06-27 21:56:15 GMT 14.373376 119.136414 38,000 266 457 0
2022-06-27 21:56:09 GMT 14.374283 119.148483 38,000 266 456 64
2022-06-27 21:56:03 GMT 14.375098 119.159302 38,000 266 456 -64
2022-06-27 21:55:57 GMT 14.376076 119.171982 38,000 266 456 -64
2022-06-27 21:55:54 GMT 14.376846 119.182053 38,000 266 455 -64
2022-06-27 21:55:48 GMT 14.377798 119.194771 38,000 266 454 -64
2022-06-27 21:55:43 GMT 14.378540 119.204926 38,000 266 454 0
2022-06-27 21:55:37 GMT 14.379547 119.218185 38,000 266 453 0
2022-06-27 21:55:31 GMT 14.380266 119.227631 38,000 266 453 -64
2022-06-27 21:55:26 GMT 14.381336 119.241753 38,000 266 453 128
2022-06-27 21:55:21 GMT 14.382065 119.251335 38,000 266 453 192
2022-06-27 21:55:15 GMT 14.382980 119.263840 37,975 266 452 448
2022-06-27 21:55:11 GMT 14.383759 119.274208 37,950 266 452 768
2022-06-27 21:55:05 GMT 14.384781 119.287575 37,850 266 452 1280
2022-06-27 21:54:59 GMT 14.385433 119.296631 37,750 266 453 1728
2022-06-27 21:54:54 GMT 14.386457 119.310028 37,575 266 454 1856
2022-06-27 21:54:49 GMT 14.387192 119.320282 37,425 266 455 1792
2022-06-27 21:54:43 GMT 14.388153 119.333023 37,275 266 455 1792
2022-06-27 21:54:39 GMT 14.388885 119.343018 37,125 266 456 1856
2022-06-27 21:54:33 GMT 14.389902 119.356674 36,950 266 456 1792
2022-06-27 21:54:27 GMT 14.390600 119.365875 36,825 266 457 1856
2022-06-27 21:54:22 GMT 14.391724 119.380707 36,625 266 458 1984
2022-06-27 21:54:17 GMT 14.392365 119.389236 36,500 266 459 2112
2022-06-27 21:54:11 GMT 14.393417 119.403534 36,275 266 460 2240
2022-06-27 21:54:07 GMT 14.394150 119.413193 36,125 266 461 2240
2022-06-27 21:54:00 GMT 14.395116 119.426544 35,900 266 463 2112
2022-06-27 21:53:56 GMT 14.395861 119.436516 35,750 266 463 1984
2022-06-27 21:53:50 GMT 14.396885 119.450394 35,575 266 464 1792
2022-06-27 21:53:45 GMT 14.397583 119.459557 35,450 266 464 1536
2022-06-27 21:53:39 GMT 14.398590 119.473618 35,300 266 463 1216
2022-06-27 21:53:35 GMT 14.399352 119.484032 35,225 266 462 832
2022-06-27 21:53:28 GMT 14.400423 119.498726 35,150 266 459 576
2022-06-27 21:53:24 GMT 14.401074 119.507057 35,100 266 458 704
2022-06-27 21:53:16 GMT 14.402115 119.521301 35,050 266 455 704
2022-06-27 21:53:13 GMT 14.402802 119.530067 35,000 266 453 640
2022-06-27 21:53:06 GMT 14.403868 119.544502 34,925 266 450 640
2022-06-27 21:53:03 GMT 14.404566 119.553703 34,900 266 448 640
2022-06-27 21:52:56 GMT 14.405590 119.567825 34,825 266 445 576
2022-06-27 21:52:52 GMT 14.406195 119.575821 34,800 266 443 576
2022-06-27 21:52:45 GMT 14.407196 119.589783 34,725 266 439 704
2022-06-27 21:52:41 GMT 14.407791 119.597977 34,700 266 437 832
2022-06-27 21:52:34 GMT 14.408849 119.612251 34,575 266 435 1664
2022-06-27 21:52:31 GMT 14.409500 119.620636 34,475 266 435 2112
2022-06-27 21:52:24 GMT 14.410538 119.634865 34,250 266 436 2176
2022-06-27 21:52:20 GMT 14.411083 119.642464 34,125 266 436 2176
2022-06-27 21:52:13 GMT 14.412140 119.656647 33,875 266 438 2240
2022-06-27 21:52:09 GMT 14.412689 119.663940 33,750 266 438 2240
2022-06-27 21:52:02 GMT 14.413876 119.679520 33,500 266 440 2240
2022-06-27 21:51:59 GMT 14.414383 119.686478 33,375 266 440 2240
2022-06-27 21:51:51 GMT 14.415482 119.701538 33,125 266 441 2368
2022-06-27 21:51:47 GMT 14.416018 119.708961 33,000 266 442 2368
2022-06-27 21:51:41 GMT 14.417130 119.724129 32,725 266 444 2432
2022-06-27 21:51:37 GMT 14.417725 119.731987 32,575 266 445 2432
2022-06-27 21:51:30 GMT 14.418857 119.747269 32,325 266 446 2368
2022-06-27 21:51:27 GMT 14.419327 119.753532 32,200 266 447 2304
2022-06-27 21:51:18 GMT 14.420517 119.769775 31,925 266 449 2240
2022-06-27 21:51:15 GMT 14.421066 119.777924 31,800 266 449 2112
2022-06-27 21:51:06 GMT 14.422623 119.799515 31,500 266 449 1536
2022-06-27 21:50:58 GMT 14.423792 119.815933 31,325 266 448 1408
2022-06-27 21:50:55 GMT 14.424225 119.822105 31,275 266 448 1408
2022-06-27 21:50:47 GMT 14.425369 119.838249 31,100 266 446 1536
2022-06-27 21:50:43 GMT 14.425887 119.845421 31,025 266 446 1600
2022-06-27 21:50:34 GMT 14.427521 119.867561 30,750 266 445 1664
2022-06-27 21:50:23 GMT 14.429145 119.890572 30,475 266 444 1664
2022-06-27 21:50:15 GMT 14.430267 119.906204 30,275 266 443 1600
2022-06-27 21:50:11 GMT 14.430817 119.913925 30,200 266 443 1600
2022-06-27 21:50:01 GMT 14.432373 119.935616 29,950 266 441 1536
2022-06-27 21:49:51 GMT 14.433929 119.957443 29,700 266 440 1472
2022-06-27 21:49:43 GMT 14.435151 119.974464 29,500 266 439 1536
2022-06-27 21:49:40 GMT 14.435523 119.979668 29,450 266 438 1536
2022-06-27 21:49:32 GMT 14.436687 119.995758 29,275 266 437 1536
2022-06-27 21:49:28 GMT 14.437180 120.002335 29,200 266 436 1472
2022-06-27 21:49:19 GMT 14.438690 120.023315 28,975 266 435 1408
2022-06-27 21:49:11 GMT 14.439880 120.040314 28,775 266 433 1408
2022-06-27 21:49:07 GMT 14.440318 120.046165 28,725 266 432 1344
2022-06-27 21:49:00 GMT 14.441482 120.062737 28,550 266 430 1280
2022-06-27 21:48:57 GMT 14.441895 120.068062 28,500 266 429 1280
2022-06-27 21:48:47 GMT 14.443405 120.089371 28,300 266 426 1216
2022-06-27 21:48:38 GMT 14.444595 120.105850 28,150 266 423 1216
2022-06-27 21:48:35 GMT 14.445020 120.111595 28,100 266 422 1344
2022-06-27 21:48:28 GMT 14.446137 120.127838 27,925 266 421 1920
2022-06-27 21:48:25 GMT 14.446518 120.132751 27,850 266 421 2048
2022-06-27 21:48:15 GMT 14.447983 120.153351 27,475 266 423 2880
2022-06-27 21:48:04 GMT 14.449535 120.175636 26,975 266 428 2624
2022-06-27 21:47:56 GMT 14.450746 120.192696 26,650 266 430 2432
2022-06-27 21:47:53 GMT 14.451025 120.196739 26,575 266 431 2112
2022-06-27 21:47:43 GMT 14.452606 120.219223 26,275 266 430 1408
2022-06-27 21:47:32 GMT 14.454144 120.240883 26,050 266 428 1664
2022-06-27 21:47:21 GMT 14.455765 120.263168 25,750 266 428 1728
2022-06-27 21:47:11 GMT 14.457216 120.284729 25,475 266 426 1600
2022-06-27 21:47:00 GMT 14.458799 120.306076 25,225 265 425 1856
2022-06-27 21:46:48 GMT 14.461441 120.328568 24,925 262 423 1984
2022-06-27 21:46:39 GMT 14.464944 120.349342 24,625 258 422 1984
2022-06-27 21:46:28 GMT 14.469367 120.369148 24,350 256 420 1792
2022-06-27 21:46:19 GMT 14.473663 120.386574 24,100 256 419 1792
2022-06-27 21:46:16 GMT 14.474625 120.390411 24,050 256 418 1792
2022-06-27 21:46:07 GMT 14.479748 120.411263 23,750 256 417 1856
2022-06-27 21:45:56 GMT 14.485016 120.432510 23,500 256 416 1664
2022-06-27 21:45:47 GMT 14.488998 120.448608 23,250 256 413 1536
2022-06-27 21:45:44 GMT 14.489960 120.452400 23,200 256 413 1536
2022-06-27 21:45:35 GMT 14.494924 120.472458 22,950 256 410 1472
2022-06-27 21:45:24 GMT 14.500044 120.493324 22,700 256 407 1536
2022-06-27 21:45:15 GMT 14.504150 120.509979 22,500 256 404 1664
2022-06-27 21:45:12 GMT 14.504883 120.512917 22,450 256 403 1664
2022-06-27 21:45:03 GMT 14.509781 120.532570 22,175 256 401 1792
2022-06-27 21:44:55 GMT 14.513545 120.547874 22,000 256 397 1920
2022-06-27 21:44:52 GMT 14.514662 120.552399 21,875 256 399 1920
2022-06-27 21:44:43 GMT 14.518945 120.569794 21,600 256 397 1920
2022-06-27 21:44:31 GMT 14.524438 120.592056 21,225 256 395 1920
2022-06-27 21:44:20 GMT 14.529233 120.611382 20,900 256 391 1984
2022-06-27 21:44:11 GMT 14.533422 120.628433 20,625 256 390 1920
2022-06-27 21:44:08 GMT 14.533905 120.630356 20,600 256 389 1920
2022-06-27 21:43:59 GMT 14.538620 120.649490 20,275 256 386 1920
2022-06-27 21:43:48 GMT 14.543338 120.668480 19,950 256 383 1984
2022-06-27 21:43:39 GMT 14.546997 120.683441 19,675 256 381 2240
2022-06-27 21:43:36 GMT 14.548050 120.687752 19,600 256 381 2240
2022-06-27 21:43:27 GMT 14.552628 120.706268 19,225 256 379 2240
2022-06-27 21:43:16 GMT 14.557118 120.724518 18,875 256 376 2176
2022-06-27 21:43:04 GMT 14.561829 120.743584 18,500 256 373 2112
2022-06-27 21:42:55 GMT 14.566315 120.761864 18,150 256 370 2240
2022-06-27 21:42:44 GMT 14.570850 120.780220 17,775 256 368 2368
2022-06-27 21:42:32 GMT 14.575378 120.798752 17,350 256 365 2560
2022-06-27 21:42:22 GMT 14.580021 120.817566 16,925 257 363 2496
2022-06-27 21:42:12 GMT 14.584164 120.834572 16,525 256 360 2432
2022-06-27 21:42:00 GMT 14.588470 120.851974 16,150 256 358 2496
2022-06-27 21:41:50 GMT 14.592819 120.869736 15,700 256 356 2752
2022-06-27 21:41:40 GMT 14.597305 120.888062 15,175 256 356 3456
2022-06-27 21:41:28 GMT 14.601562 120.905296 14,600 257 359 3904
2022-06-27 21:41:19 GMT 14.607239 120.928696 13,625 257 368 3520
2022-06-27 21:41:07 GMT 14.610535 120.942375 13,250 257 368 2432
2022-06-27 21:40:56 GMT 14.615524 120.962837 12,775 257 364 2496
2022-06-27 21:40:46 GMT 14.619690 120.979881 12,425 256 359 1664
2022-06-27 21:40:34 GMT 14.624359 120.999062 12,200 256 346 1088
2022-06-27 21:40:23 GMT 14.628668 121.016624 12,025 256 334 1152
2022-06-27 21:40:12 GMT 14.632782 121.033394 11,850 256 319 1088
2022-06-27 21:40:02 GMT 14.636536 121.048645 11,675 256 305 1088
2022-06-27 21:39:53 GMT 14.639420 121.060005 11,550 256 294 1152
2022-06-27 21:39:50 GMT 14.640747 121.065216 11,475 256 286 1152
2022-06-27 21:39:42 GMT 14.642960 121.073769 11,375 256 279 1280
2022-06-27 21:39:39 GMT 14.643997 121.077721 11,225 256 274 1664
2022-06-27 21:39:32 GMT 14.646652 121.087807 11,075 256 268 2432
2022-06-27 21:39:29 GMT 14.647615 121.091553 10,950 256 267 2880
2022-06-27 21:39:21 GMT 14.649765 121.100639 10,600 258 266 2880
2022-06-27 21:39:17 GMT 14.650955 121.106133 10,400 272 267 2368
2022-06-27 21:39:09 GMT 14.652550 121.114296 9,950 270 267 2432
2022-06-27 21:39:06 GMT 14.653015 121.118683 9,950 270 267 2432
2022-06-27 21:39:00 GMT 14.652550 121.127640 9,575 283 269 2496
2022-06-27 21:38:57 GMT 14.651733 121.131470 9,450 291 271 2560
2022-06-27 21:38:49 GMT 14.647888 121.140656 9,075 305 271 2688
2022-06-27 21:38:46 GMT 14.645660 121.144028 8,925 312 271 2880
2022-06-27 21:38:38 GMT 14.639049 121.151062 8,550 325 270 3136
2022-06-27 21:38:35 GMT 14.635418 121.153755 8,375 330 269 3200
2022-06-27 21:38:27 GMT 14.627335 121.157745 8,025 346 267 3264
2022-06-27 21:38:24 GMT 14.622803 121.158867 7,850 353 265 3264
2022-06-27 21:38:17 GMT 14.614004 121.159393 7,550 9 258 3136
2022-06-27 21:38:13 GMT 14.609756 121.158691 7,400 15 256 3200
2022-06-27 21:38:06 GMT 14.601668 121.155830 7,075 28 251 3392
2022-06-27 21:38:01 GMT 14.597618 121.153564 6,900 34 248 3264
2022-06-27 21:37:55 GMT 14.591309 121.148842 6,600 42 244 4032
2022-06-27 21:37:50 GMT 14.587692 121.145531 6,325 46 244 4672
2022-06-27 21:37:43 GMT 14.582628 121.139687 5,850 55 247 5376
2022-06-27 21:37:40 GMT 14.579509 121.135063 5,475 57 251 4992
2022-06-27 21:37:34 GMT 14.575738 121.128891 5,075 58 256 3840
2022-06-27 21:37:30 GMT 14.572769 121.123886 4,775 58 256 3520
2022-06-27 21:37:23 GMT 14.569107 121.117729 4,475 58 255 2496
2022-06-27 21:37:18 GMT 14.565962 121.112465 4,300 58 247 1344
2022-06-27 21:37:11 GMT 14.562471 121.106628 4,175 58 238 1088
2022-06-27 21:37:07 GMT 14.559357 121.101486 4,100 58 229 960
2022-06-27 21:37:01 GMT 14.556512 121.096802 4,025 58 217 960
2022-06-27 21:36:57 GMT 14.553580 121.091934 3,925 57 208 896
2022-06-27 21:36:51 GMT 14.550751 121.087334 3,850 57 199 704
2022-06-27 21:36:46 GMT 14.548319 121.083359 3,800 57 189 960
2022-06-27 21:36:40 GMT 14.545526 121.078827 3,700 57 181 960
2022-06-27 21:36:35 GMT 14.543152 121.075020 3,625 57 172 1024
2022-06-27 21:36:28 GMT 14.540863 121.071327 3,525 56 166 1344
2022-06-27 21:36:19 GMT 14.536355 121.064323 3,225 56 161 2176
2022-06-27 21:36:11 GMT 14.533264 121.059631 2,975 55 161 2112
2022-06-27 21:36:08 GMT 14.531754 121.057358 2,850 55 159 2112
2022-06-27 21:35:56 GMT 14.527405 121.050674 2,500 56 157 2176
2022-06-27 21:35:51 GMT 14.524979 121.046844 2,300 57 155 2048
2022-06-27 21:35:45 GMT 14.523181 121.043991 2,150 57 154 1984
2022-06-27 21:35:36 GMT 14.519177 121.037537 1,825 57 147 2432
2022-06-27 21:35:25 GMT 14.515274 121.031120 1,375 58 148 3072
2022-06-27 21:35:16 GMT 14.511822 121.025291 900 59 152 3136
2022-06-27 21:35:13 GMT 14.511063 121.023972 800 60 153 3008
2022-06-27 21:35:03 GMT 14.507309 121.017197 350 60 158 1728
2022-06-27 21:34:35 GMT 14.499378 121.002899 0 61 61
2022-06-27 21:34:29 GMT 14.498753 121.001770 0 59 39
2022-06-27 21:34:21 GMT 14.498211 121.000801 0 59 11
2022-06-27 21:34:10 GMT 14.497950 121.000504 0 98 7
2022-06-27 21:30:24 GMT 14.505584 121.011215 0 239 18
2022-06-27 21:30:16 GMT 14.505887 121.011742 0 241 15
2022-06-27 21:29:54 GMT 14.506439 121.012756 0 239 16
2022-06-27 21:29:45 GMT 14.506899 121.013573 0 239 19
2022-06-27 21:29:32 GMT 14.507423 121.014503 0 239 18
2022-06-27 21:29:27 GMT 14.507609 121.014839 0 239 17
2022-06-27 21:29:20 GMT 14.507877 121.015335 0 239 15
2022-06-27 21:25:35 GMT 14.513203 121.017296 0 135 11
2022-06-27 21:25:28 GMT 14.513452 121.017044 0 135 11
2022-06-27 21:25:16 GMT 14.513905 121.016571 0 135 12
2022-06-27 21:23:31 GMT 14.516132 121.014259 0 135 2
2022-06-27 21:23:25 GMT 14.516152 121.014252 0 135 0
2022-06-27 21:23:16 GMT 14.516167 121.014229 0 135 0
2022-06-27 21:22:20 GMT 14.516175 121.014221 0 135 0
2022-06-27 21:22:05 GMT 14.516178 121.014229 0 135 0
2022-06-27 21:21:49 GMT 14.516175 121.014221 0 135 0
2022-06-27 21:21:39 GMT 14.516178 121.014229 0 135 0
2022-06-27 21:21:17 GMT 14.516175 121.014221 0 135 0
2022-06-27 21:21:08 GMT 14.516178 121.014229 0 135 0
2022-06-27 21:20:57 GMT 14.516186 121.014214 0 135 1
2022-06-27 21:20:46 GMT 14.516233 121.014175 0 135 3
2022-06-27 21:20:35 GMT 14.516315 121.014084 0 132 3
2022-06-27 21:20:25 GMT 14.516384 121.014000 0 132 3
2022-06-27 21:20:14 GMT 14.516443 121.013947 0 132 1
2022-06-27 21:19:53 GMT 14.516453 121.013931 0 132 2
2022-06-27 21:19:42 GMT 14.516396 121.014000 0 132 3

Making use of Plane Finder data

You are free to use the raw flight data, aircraft information and images provided in this report for your own purposes provided the data is correctly attributed to Plane Finder. We ask that you please credit Plane Finder and link to planefinder.net in close proximity to the content.

Optionally one of the following logos (no smaller then 150x24px) can be used and must link to planefinder.net

Embedding the Plane Finder map

You are welcome to embed the Plane Finder playback map on your website to offer visitors a more interactive experience. We suggest using the following HTML code:

<iframe src="//planefinder.net/data/report/5J929-RP-C3346-7700-squawk-2022-06-27/map" width="800" height="600" seamless="seamless"></iframe>

Where our data comes from

Plane Finder has a global network of data feeds and antenna radars that receive data broadcast directly from aircraft. The primary technologies used are ADS-B and MLAT. We also show feeds from the FAA and a FLARM glider feed.

Click here to find out more about the Plane Finder network.

How we collect our data